<?xml version="1.0" encoding="UTF-8" standalone="no" ?>
<gpx xmlns="http://www.topografix.com/GPX/1/1" xmlns:xsi="http://www.w3.org/2001/XMLSchema-instance" xsi:schemaLocation="http://www.topografix.com/GPX/1/1 http://www.topografix.com/GPX/1/1/gpx.xsd" version="1.1" creator="VisuGPX - https://www.visugpx.com">
  <metadata>
    <name>Sardaigne Corse</name>
    <desc><![CDATA[En octobre 2017 au départ de Portisco
6 membres d'équipage avec
Julien Bruno Frédéric Benjamin Sébastien 
embarqué sur Dufour 412]]></desc>
  </metadata>
  <trk>
    <name><![CDATA[Tracé actuel: 12 OCT 2017 08:19]]></name>
    <trkseg>
      <trkpt lat="41.52496" lon="9.27595">
        <ele>2.54</ele>
        <time>2017-10-12T07:19:47Z</time>
      </trkpt>
      <trkpt lat="41.52505" lon="9.27674">
        <ele>21.77</ele>
        <time>2017-10-12T07:20:17Z</time>
      </trkpt>
      <trkpt lat="41.52483" lon="9.27715">
        <ele>12.63</ele>
        <time>2017-10-12T07:20:43Z</time>
      </trkpt>
      <trkpt lat="41.52465" lon="9.27747">
        <ele>2.06</ele>
        <time>2017-10-12T07:21:12Z</time>
      </trkpt>
      <trkpt lat="41.52452" lon="9.27791">
        <ele>3.98</ele>
        <time>2017-10-12T07:21:33Z</time>
      </trkpt>
      <trkpt lat="41.52434" lon="9.2787">
        <ele>3.98</ele>
        <time>2017-10-12T07:22:00Z</time>
      </trkpt>
      <trkpt lat="41.52418" lon="9.27986">
        <ele>3.02</ele>
        <time>2017-10-12T07:22:33Z</time>
      </trkpt>
      <trkpt lat="41.52404" lon="9.28091">
        <ele>3.02</ele>
        <time>2017-10-12T07:23:02Z</time>
      </trkpt>
      <trkpt lat="41.52388" lon="9.28207">
        <ele>3.02</ele>
        <time>2017-10-12T07:23:34Z</time>
      </trkpt>
      <trkpt lat="41.52382" lon="9.28316">
        <ele>2.54</ele>
        <time>2017-10-12T07:24:04Z</time>
      </trkpt>
      <trkpt lat="41.52396" lon="9.28391">
        <ele>2.06</ele>
        <time>2017-10-12T07:24:25Z</time>
      </trkpt>
      <trkpt lat="41.52405" lon="9.28432">
        <ele>2.54</ele>
        <time>2017-10-12T07:24:37Z</time>
      </trkpt>
      <trkpt lat="41.52415" lon="9.28468">
        <ele>1.58</ele>
        <time>2017-10-12T07:24:48Z</time>
      </trkpt>
      <trkpt lat="41.52427" lon="9.28513">
        <ele>3.02</ele>
        <time>2017-10-12T07:25:01Z</time>
      </trkpt>
      <trkpt lat="41.52438" lon="9.28559">
        <ele>3.5</ele>
        <time>2017-10-12T07:25:14Z</time>
      </trkpt>
      <trkpt lat="41.52452" lon="9.28618">
        <ele>3.5</ele>
        <time>2017-10-12T07:25:31Z</time>
      </trkpt>
      <trkpt lat="41.52467" lon="9.28674">
        <ele>3.98</ele>
        <time>2017-10-12T07:25:47Z</time>
      </trkpt>
      <trkpt lat="41.52486" lon="9.28749">
        <ele>4.46</ele>
        <time>2017-10-12T07:26:08Z</time>
      </trkpt>
      <trkpt lat="41.525" lon="9.28805">
        <ele>4.46</ele>
        <time>2017-10-12T07:26:24Z</time>
      </trkpt>
      <trkpt lat="41.5252" lon="9.28858">
        <ele>3.98</ele>
        <time>2017-10-12T07:26:40Z</time>
      </trkpt>
      <trkpt lat="41.52543" lon="9.28918">
        <ele>4.46</ele>
        <time>2017-10-12T07:26:58Z</time>
      </trkpt>
      <trkpt lat="41.5257" lon="9.28984">
        <ele>3.02</ele>
        <time>2017-10-12T07:27:18Z</time>
      </trkpt>
      <trkpt lat="41.52594" lon="9.29039">
        <ele>3.98</ele>
        <time>2017-10-12T07:27:35Z</time>
      </trkpt>
      <trkpt lat="41.52623" lon="9.29107">
        <ele>3.5</ele>
        <time>2017-10-12T07:27:56Z</time>
      </trkpt>
      <trkpt lat="41.52646" lon="9.29162">
        <ele>3.5</ele>
        <time>2017-10-12T07:28:13Z</time>
      </trkpt>
      <trkpt lat="41.52663" lon="9.29204">
        <ele>3.98</ele>
        <time>2017-10-12T07:28:26Z</time>
      </trkpt>
      <trkpt lat="41.52692" lon="9.29276">
        <ele>3.98</ele>
        <time>2017-10-12T07:28:48Z</time>
      </trkpt>
      <trkpt lat="41.52721" lon="9.29341">
        <ele>3.02</ele>
        <time>2017-10-12T07:29:08Z</time>
      </trkpt>
      <trkpt lat="41.52761" lon="9.29405">
        <ele>3.5</ele>
        <time>2017-10-12T07:29:30Z</time>
      </trkpt>
      <trkpt lat="41.52794" lon="9.29461">
        <ele>4.94</ele>
        <time>2017-10-12T07:29:49Z</time>
      </trkpt>
      <trkpt lat="41.52842" lon="9.29536">
        <ele>4.94</ele>
        <time>2017-10-12T07:30:15Z</time>
      </trkpt>
      <trkpt lat="41.52886" lon="9.29612">
        <ele>5.42</ele>
        <time>2017-10-12T07:30:41Z</time>
      </trkpt>
      <trkpt lat="41.52915" lon="9.2966">
        <ele>4.94</ele>
        <time>2017-10-12T07:30:57Z</time>
      </trkpt>
      <trkpt lat="41.52955" lon="9.29722">
        <ele>4.46</ele>
        <time>2017-10-12T07:31:19Z</time>
      </trkpt>
      <trkpt lat="41.52978" lon="9.29764">
        <ele>3.02</ele>
        <time>2017-10-12T07:31:33Z</time>
      </trkpt>
      <trkpt lat="41.53018" lon="9.29827">
        <ele>1.58</ele>
        <time>2017-10-12T07:31:55Z</time>
      </trkpt>
      <trkpt lat="41.53067" lon="9.29906">
        <ele>3.5</ele>
        <time>2017-10-12T07:32:22Z</time>
      </trkpt>
      <trkpt lat="41.53112" lon="9.29979">
        <ele>3.98</ele>
        <time>2017-10-12T07:32:47Z</time>
      </trkpt>
      <trkpt lat="41.53154" lon="9.30049">
        <ele>4.46</ele>
        <time>2017-10-12T07:33:11Z</time>
      </trkpt>
      <trkpt lat="41.53194" lon="9.30113">
        <ele>3.02</ele>
        <time>2017-10-12T07:33:33Z</time>
      </trkpt>
      <trkpt lat="41.53239" lon="9.3019">
        <ele>3.02</ele>
        <time>2017-10-12T07:33:59Z</time>
      </trkpt>
      <trkpt lat="41.5328" lon="9.30257">
        <ele>3.98</ele>
        <time>2017-10-12T07:34:22Z</time>
      </trkpt>
      <trkpt lat="41.53302" lon="9.30297">
        <ele>3.98</ele>
        <time>2017-10-12T07:34:36Z</time>
      </trkpt>
      <trkpt lat="41.53327" lon="9.30338">
        <ele>3.02</ele>
        <time>2017-10-12T07:34:50Z</time>
      </trkpt>
      <trkpt lat="41.53353" lon="9.30382">
        <ele>3.5</ele>
        <time>2017-10-12T07:35:05Z</time>
      </trkpt>
      <trkpt lat="41.53381" lon="9.30428">
        <ele>3.98</ele>
        <time>2017-10-12T07:35:21Z</time>
      </trkpt>
      <trkpt lat="41.53411" lon="9.30478">
        <ele>4.94</ele>
        <time>2017-10-12T07:35:38Z</time>
      </trkpt>
      <trkpt lat="41.53448" lon="9.30541">
        <ele>4.94</ele>
        <time>2017-10-12T07:35:59Z</time>
      </trkpt>
      <trkpt lat="41.53475" lon="9.30584">
        <ele>4.94</ele>
        <time>2017-10-12T07:36:14Z</time>
      </trkpt>
      <trkpt lat="41.53507" lon="9.30636">
        <ele>4.94</ele>
        <time>2017-10-12T07:36:32Z</time>
      </trkpt>
      <trkpt lat="41.5354" lon="9.30693">
        <ele>3.98</ele>
        <time>2017-10-12T07:36:51Z</time>
      </trkpt>
      <trkpt lat="41.53583" lon="9.30763">
        <ele>3.5</ele>
        <time>2017-10-12T07:37:15Z</time>
      </trkpt>
      <trkpt lat="41.53622" lon="9.30828">
        <ele>3.98</ele>
        <time>2017-10-12T07:37:37Z</time>
      </trkpt>
      <trkpt lat="41.53663" lon="9.30894">
        <ele>3.02</ele>
        <time>2017-10-12T07:37:59Z</time>
      </trkpt>
      <trkpt lat="41.53684" lon="9.30927">
        <ele>2.54</ele>
        <time>2017-10-12T07:38:11Z</time>
      </trkpt>
      <trkpt lat="41.53709" lon="9.30969">
        <ele>4.46</ele>
        <time>2017-10-12T07:38:25Z</time>
      </trkpt>
      <trkpt lat="41.53728" lon="9.31001">
        <ele>2.54</ele>
        <time>2017-10-12T07:38:36Z</time>
      </trkpt>
      <trkpt lat="41.53746" lon="9.31035">
        <ele>0.62</ele>
        <time>2017-10-12T07:38:47Z</time>
      </trkpt>
      <trkpt lat="41.5377" lon="9.31072">
        <ele>2.06</ele>
        <time>2017-10-12T07:39:00Z</time>
      </trkpt>
      <trkpt lat="41.53795" lon="9.31114">
        <ele>2.54</ele>
        <time>2017-10-12T07:39:14Z</time>
      </trkpt>
      <trkpt lat="41.53818" lon="9.31152">
        <ele>2.54</ele>
        <time>2017-10-12T07:39:27Z</time>
      </trkpt>
      <trkpt lat="41.53846" lon="9.31199">
        <ele>2.06</ele>
        <time>2017-10-12T07:39:43Z</time>
      </trkpt>
      <trkpt lat="41.53862" lon="9.31225">
        <ele>0.62</ele>
        <time>2017-10-12T07:39:52Z</time>
      </trkpt>
      <trkpt lat="41.53882" lon="9.31256">
        <ele>-0.34</ele>
        <time>2017-10-12T07:40:03Z</time>
      </trkpt>
      <trkpt lat="41.53896" lon="9.31283">
        <ele>0.14</ele>
        <time>2017-10-12T07:40:12Z</time>
      </trkpt>
      <trkpt lat="41.53917" lon="9.31316">
        <ele>-0.34</ele>
        <time>2017-10-12T07:40:24Z</time>
      </trkpt>
      <trkpt lat="41.53939" lon="9.31352">
        <ele>0.14</ele>
        <time>2017-10-12T07:40:36Z</time>
      </trkpt>
      <trkpt lat="41.53963" lon="9.3139">
        <ele>1.58</ele>
        <time>2017-10-12T07:40:49Z</time>
      </trkpt>
      <trkpt lat="41.53981" lon="9.31419">
        <ele>1.1</ele>
        <time>2017-10-12T07:40:59Z</time>
      </trkpt>
      <trkpt lat="41.54013" lon="9.31475">
        <ele>1.58</ele>
        <time>2017-10-12T07:41:18Z</time>
      </trkpt>
      <trkpt lat="41.54031" lon="9.31502">
        <ele>0.62</ele>
        <time>2017-10-12T07:41:28Z</time>
      </trkpt>
      <trkpt lat="41.54052" lon="9.31537">
        <ele>1.1</ele>
        <time>2017-10-12T07:41:40Z</time>
      </trkpt>
      <trkpt lat="41.54071" lon="9.31571">
        <ele>1.1</ele>
        <time>2017-10-12T07:41:51Z</time>
      </trkpt>
      <trkpt lat="41.54085" lon="9.31596">
        <ele>2.54</ele>
        <time>2017-10-12T07:42:00Z</time>
      </trkpt>
      <trkpt lat="41.54109" lon="9.31635">
        <ele>1.58</ele>
        <time>2017-10-12T07:42:13Z</time>
      </trkpt>
      <trkpt lat="41.54133" lon="9.31676">
        <ele>1.58</ele>
        <time>2017-10-12T07:42:27Z</time>
      </trkpt>
      <trkpt lat="41.54148" lon="9.317">
        <ele>0.62</ele>
        <time>2017-10-12T07:42:36Z</time>
      </trkpt>
      <trkpt lat="41.54171" lon="9.31738">
        <ele>1.58</ele>
        <time>2017-10-12T07:42:49Z</time>
      </trkpt>
      <trkpt lat="41.54195" lon="9.31779">
        <ele>2.54</ele>
        <time>2017-10-12T07:43:03Z</time>
      </trkpt>
      <trkpt lat="41.54221" lon="9.31818">
        <ele>2.54</ele>
        <time>2017-10-12T07:43:16Z</time>
      </trkpt>
      <trkpt lat="41.54255" lon="9.31875">
        <ele>1.1</ele>
        <time>2017-10-12T07:43:36Z</time>
      </trkpt>
      <trkpt lat="41.54283" lon="9.31922">
        <ele>1.1</ele>
        <time>2017-10-12T07:43:52Z</time>
      </trkpt>
      <trkpt lat="41.54321" lon="9.31985">
        <ele>0.62</ele>
        <time>2017-10-12T07:44:14Z</time>
      </trkpt>
      <trkpt lat="41.54351" lon="9.32035">
        <ele>0.62</ele>
        <time>2017-10-12T07:44:31Z</time>
      </trkpt>
      <trkpt lat="41.54372" lon="9.32069">
        <ele>1.1</ele>
        <time>2017-10-12T07:44:43Z</time>
      </trkpt>
      <trkpt lat="41.5442" lon="9.3211">
        <ele>1.1</ele>
        <time>2017-10-12T07:45:03Z</time>
      </trkpt>
      <trkpt lat="41.54466" lon="9.32151">
        <ele>0.62</ele>
        <time>2017-10-12T07:45:23Z</time>
      </trkpt>
      <trkpt lat="41.5452" lon="9.32196">
        <ele>1.58</ele>
        <time>2017-10-12T07:45:46Z</time>
      </trkpt>
      <trkpt lat="41.54559" lon="9.32231">
        <ele>1.58</ele>
        <time>2017-10-12T07:46:03Z</time>
      </trkpt>
      <trkpt lat="41.54604" lon="9.32268">
        <ele>1.1</ele>
        <time>2017-10-12T07:46:22Z</time>
      </trkpt>
      <trkpt lat="41.54638" lon="9.32298">
        <ele>1.1</ele>
        <time>2017-10-12T07:46:37Z</time>
      </trkpt>
      <trkpt lat="41.54677" lon="9.3233">
        <ele>1.58</ele>
        <time>2017-10-12T07:46:53Z</time>
      </trkpt>
      <trkpt lat="41.54717" lon="9.32364">
        <ele>2.54</ele>
        <time>2017-10-12T07:47:10Z</time>
      </trkpt>
      <trkpt lat="41.54769" lon="9.32408">
        <ele>1.1</ele>
        <time>2017-10-12T07:47:32Z</time>
      </trkpt>
      <trkpt lat="41.54808" lon="9.3244">
        <ele>2.06</ele>
        <time>2017-10-12T07:47:49Z</time>
      </trkpt>
      <trkpt lat="41.54843" lon="9.3247">
        <ele>2.06</ele>
        <time>2017-10-12T07:48:04Z</time>
      </trkpt>
      <trkpt lat="41.54887" lon="9.32507">
        <ele>2.06</ele>
        <time>2017-10-12T07:48:23Z</time>
      </trkpt>
      <trkpt lat="41.54928" lon="9.32542">
        <ele>2.06</ele>
        <time>2017-10-12T07:48:40Z</time>
      </trkpt>
      <trkpt lat="41.54965" lon="9.32574">
        <ele>2.06</ele>
        <time>2017-10-12T07:48:56Z</time>
      </trkpt>
      <trkpt lat="41.55002" lon="9.32604">
        <ele>1.58</ele>
        <time>2017-10-12T07:49:12Z</time>
      </trkpt>
      <trkpt lat="41.55032" lon="9.32633">
        <ele>0.62</ele>
        <time>2017-10-12T07:49:25Z</time>
      </trkpt>
      <trkpt lat="41.55092" lon="9.3269">
        <ele>0.62</ele>
        <time>2017-10-12T07:49:51Z</time>
      </trkpt>
      <trkpt lat="41.55126" lon="9.32723">
        <ele>1.58</ele>
        <time>2017-10-12T07:50:06Z</time>
      </trkpt>
      <trkpt lat="41.55165" lon="9.3276">
        <ele>1.58</ele>
        <time>2017-10-12T07:50:23Z</time>
      </trkpt>
      <trkpt lat="41.552" lon="9.32794">
        <ele>1.58</ele>
        <time>2017-10-12T07:50:39Z</time>
      </trkpt>
      <trkpt lat="41.55234" lon="9.32828">
        <ele>1.1</ele>
        <time>2017-10-12T07:50:54Z</time>
      </trkpt>
      <trkpt lat="41.55262" lon="9.32854">
        <ele>1.1</ele>
        <time>2017-10-12T07:51:06Z</time>
      </trkpt>
      <trkpt lat="41.55292" lon="9.32882">
        <ele>1.1</ele>
        <time>2017-10-12T07:51:19Z</time>
      </trkpt>
      <trkpt lat="41.55314" lon="9.32903">
        <ele>1.58</ele>
        <time>2017-10-12T07:51:29Z</time>
      </trkpt>
      <trkpt lat="41.55358" lon="9.3295">
        <ele>0.62</ele>
        <time>2017-10-12T07:51:49Z</time>
      </trkpt>
      <trkpt lat="41.55414" lon="9.33011">
        <ele>0.62</ele>
        <time>2017-10-12T07:52:15Z</time>
      </trkpt>
      <trkpt lat="41.55451" lon="9.33053">
        <ele>1.1</ele>
        <time>2017-10-12T07:52:33Z</time>
      </trkpt>
      <trkpt lat="41.55485" lon="9.33086">
        <ele>0.14</ele>
        <time>2017-10-12T07:52:48Z</time>
      </trkpt>
      <trkpt lat="41.55523" lon="9.33122">
        <ele>0.14</ele>
        <time>2017-10-12T07:53:06Z</time>
      </trkpt>
      <trkpt lat="41.5555" lon="9.33147">
        <ele>1.1</ele>
        <time>2017-10-12T07:53:22Z</time>
      </trkpt>
      <trkpt lat="41.5557" lon="9.33164">
        <ele>1.1</ele>
        <time>2017-10-12T07:53:35Z</time>
      </trkpt>
      <trkpt lat="41.55592" lon="9.33179">
        <ele>1.58</ele>
        <time>2017-10-12T07:53:49Z</time>
      </trkpt>
      <trkpt lat="41.55623" lon="9.332">
        <ele>2.54</ele>
        <time>2017-10-12T07:54:08Z</time>
      </trkpt>
      <trkpt lat="41.55655" lon="9.3322">
        <ele>2.54</ele>
        <time>2017-10-12T07:54:27Z</time>
      </trkpt>
      <trkpt lat="41.55678" lon="9.33236">
        <ele>1.58</ele>
        <time>2017-10-12T07:54:43Z</time>
      </trkpt>
      <trkpt lat="41.55688" lon="9.3324">
        <ele>2.06</ele>
        <time>2017-10-12T07:54:49Z</time>
      </trkpt>
      <trkpt lat="41.55713" lon="9.33252">
        <ele>1.58</ele>
        <time>2017-10-12T07:55:05Z</time>
      </trkpt>
      <trkpt lat="41.55741" lon="9.3326">
        <ele>4.46</ele>
        <time>2017-10-12T07:55:24Z</time>
      </trkpt>
      <trkpt lat="41.55763" lon="9.33262">
        <ele>3.5</ele>
        <time>2017-10-12T07:55:42Z</time>
      </trkpt>
      <trkpt lat="41.55781" lon="9.33265">
        <ele>2.06</ele>
        <time>2017-10-12T07:55:57Z</time>
      </trkpt>
      <trkpt lat="41.5579" lon="9.33267">
        <ele>2.54</ele>
        <time>2017-10-12T07:56:03Z</time>
      </trkpt>
      <trkpt lat="41.55806" lon="9.33265">
        <ele>0.62</ele>
        <time>2017-10-12T07:56:15Z</time>
      </trkpt>
      <trkpt lat="41.55817" lon="9.33255">
        <ele>1.1</ele>
        <time>2017-10-12T07:56:28Z</time>
      </trkpt>
      <trkpt lat="41.55828" lon="9.33243">
        <ele>2.54</ele>
        <time>2017-10-12T07:56:45Z</time>
      </trkpt>
      <trkpt lat="41.55833" lon="9.33241">
        <ele>2.06</ele>
        <time>2017-10-12T07:56:58Z</time>
      </trkpt>
      <trkpt lat="41.55841" lon="9.33239">
        <ele>2.06</ele>
        <time>2017-10-12T07:57:13Z</time>
      </trkpt>
      <trkpt lat="41.55844" lon="9.33239">
        <ele>1.58</ele>
        <time>2017-10-12T07:57:16Z</time>
      </trkpt>
      <trkpt lat="41.55848" lon="9.33235">
        <ele>1.58</ele>
        <time>2017-10-12T07:57:21Z</time>
      </trkpt>
      <trkpt lat="41.55856" lon="9.33226">
        <ele>4.94</ele>
        <time>2017-10-12T07:57:35Z</time>
      </trkpt>
      <trkpt lat="41.55857" lon="9.33226">
        <ele>4.94</ele>
        <time>2017-10-12T07:57:36Z</time>
      </trkpt>
      <trkpt lat="41.55864" lon="9.33221">
        <ele>3.02</ele>
        <time>2017-10-12T07:57:47Z</time>
      </trkpt>
      <trkpt lat="41.55865" lon="9.33219">
        <ele>2.54</ele>
        <time>2017-10-12T07:57:50Z</time>
      </trkpt>
      <trkpt lat="41.55875" lon="9.33207">
        <ele>2.06</ele>
        <time>2017-10-12T07:58:06Z</time>
      </trkpt>
      <trkpt lat="41.5589" lon="9.33187">
        <ele>3.02</ele>
        <time>2017-10-12T07:58:28Z</time>
      </trkpt>
      <trkpt lat="41.55898" lon="9.33178">
        <ele>4.46</ele>
        <time>2017-10-12T07:58:43Z</time>
      </trkpt>
      <trkpt lat="41.55898" lon="9.33177">
        <ele>2.06</ele>
        <time>2017-10-12T07:58:55Z</time>
      </trkpt>
      <trkpt lat="41.55896" lon="9.33179">
        <ele>-0.34</ele>
        <time>2017-10-12T07:59:04Z</time>
      </trkpt>
      <trkpt lat="41.55893" lon="9.33183">
        <ele>0.14</ele>
        <time>2017-10-12T07:59:17Z</time>
      </trkpt>
      <trkpt lat="41.55893" lon="9.33184">
        <ele>1.1</ele>
        <time>2017-10-12T07:59:26Z</time>
      </trkpt>
      <trkpt lat="41.55887" lon="9.33189">
        <ele>2.54</ele>
        <time>2017-10-12T07:59:45Z</time>
      </trkpt>
      <trkpt lat="41.55882" lon="9.33189">
        <ele>1.1</ele>
        <time>2017-10-12T07:59:55Z</time>
      </trkpt>
      <trkpt lat="41.5588" lon="9.33188">
        <ele>1.1</ele>
        <time>2017-10-12T08:00:01Z</time>
      </trkpt>
      <trkpt lat="41.55884" lon="9.33201">
        <ele>-1.3</ele>
        <time>2017-10-12T08:00:13Z</time>
      </trkpt>
      <trkpt lat="41.55884" lon="9.33207">
        <ele>-1.3</ele>
        <time>2017-10-12T08:00:25Z</time>
      </trkpt>
      <trkpt lat="41.55884" lon="9.33211">
        <ele>-1.3</ele>
        <time>2017-10-12T08:00:29Z</time>
      </trkpt>
      <trkpt lat="41.55884" lon="9.33216">
        <ele>0.14</ele>
        <time>2017-10-12T08:00:41Z</time>
      </trkpt>
      <trkpt lat="41.55885" lon="9.33218">
        <ele>0.14</ele>
        <time>2017-10-12T08:00:51Z</time>
      </trkpt>
      <trkpt lat="41.55884" lon="9.3322">
        <ele>-1.3</ele>
        <time>2017-10-12T08:01:06Z</time>
      </trkpt>
      <trkpt lat="41.55884" lon="9.33219">
        <ele>-0.82</ele>
        <time>2017-10-12T08:01:17Z</time>
      </trkpt>
      <trkpt lat="41.55887" lon="9.33216">
        <ele>-0.34</ele>
        <time>2017-10-12T08:01:30Z</time>
      </trkpt>
      <trkpt lat="41.55888" lon="9.33211">
        <ele>0.62</ele>
        <time>2017-10-12T08:01:39Z</time>
      </trkpt>
      <trkpt lat="41.55887" lon="9.33203">
        <ele>1.1</ele>
        <time>2017-10-12T08:01:47Z</time>
      </trkpt>
      <trkpt lat="41.55886" lon="9.33196">
        <ele>1.1</ele>
        <time>2017-10-12T08:01:53Z</time>
      </trkpt>
      <trkpt lat="41.55886" lon="9.33191">
        <ele>1.1</ele>
        <time>2017-10-12T08:02:06Z</time>
      </trkpt>
      <trkpt lat="41.55887" lon="9.33191">
        <ele>0.62</ele>
        <time>2017-10-12T08:02:07Z</time>
      </trkpt>
      <trkpt lat="41.55888" lon="9.3318">
        <ele>1.58</ele>
        <time>2017-10-12T08:02:18Z</time>
      </trkpt>
      <trkpt lat="41.5589" lon="9.33175">
        <ele>4.46</ele>
        <time>2017-10-12T08:02:30Z</time>
      </trkpt>
      <trkpt lat="41.55891" lon="9.3317">
        <ele>4.46</ele>
        <time>2017-10-12T08:02:45Z</time>
      </trkpt>
      <trkpt lat="41.5589" lon="9.33173">
        <ele>2.06</ele>
        <time>2017-10-12T08:02:57Z</time>
      </trkpt>
      <trkpt lat="41.5589" lon="9.33175">
        <ele>1.58</ele>
        <time>2017-10-12T08:03:10Z</time>
      </trkpt>
      <trkpt lat="41.55889" lon="9.33178">
        <ele>2.06</ele>
        <time>2017-10-12T08:03:30Z</time>
      </trkpt>
      <trkpt lat="41.55889" lon="9.33179">
        <ele>1.58</ele>
        <time>2017-10-12T08:03:46Z</time>
      </trkpt>
      <trkpt lat="41.5589" lon="9.33175">
        <ele>2.06</ele>
        <time>2017-10-12T08:04:06Z</time>
      </trkpt>
      <trkpt lat="41.55888" lon="9.33161">
        <ele>2.54</ele>
        <time>2017-10-12T08:04:32Z</time>
      </trkpt>
      <trkpt lat="41.55884" lon="9.33159">
        <ele>3.02</ele>
        <time>2017-10-12T08:04:59Z</time>
      </trkpt>
      <trkpt lat="41.55886" lon="9.33162">
        <ele>3.5</ele>
        <time>2017-10-12T08:05:23Z</time>
      </trkpt>
      <trkpt lat="41.55887" lon="9.33164">
        <ele>3.02</ele>
        <time>2017-10-12T08:05:43Z</time>
      </trkpt>
      <trkpt lat="41.55887" lon="9.33163">
        <ele>3.98</ele>
        <time>2017-10-12T08:05:59Z</time>
      </trkpt>
      <trkpt lat="41.55889" lon="9.33159">
        <ele>3.02</ele>
        <time>2017-10-12T08:06:16Z</time>
      </trkpt>
      <trkpt lat="41.55888" lon="9.3315">
        <ele>1.1</ele>
        <time>2017-10-12T08:06:36Z</time>
      </trkpt>
      <trkpt lat="41.55889" lon="9.33135">
        <ele>2.54</ele>
        <time>2017-10-12T08:06:56Z</time>
      </trkpt>
      <trkpt lat="41.55891" lon="9.3312">
        <ele>3.02</ele>
        <time>2017-10-12T08:07:20Z</time>
      </trkpt>
      <trkpt lat="41.55891" lon="9.33115">
        <ele>3.5</ele>
        <time>2017-10-12T08:07:40Z</time>
      </trkpt>
      <trkpt lat="41.55906" lon="9.33137">
        <ele>0.62</ele>
        <time>2017-10-12T09:10:31Z</time>
      </trkpt>
      <trkpt lat="41.55899" lon="9.33141">
        <ele>4.46</ele>
        <time>2017-10-12T09:10:46Z</time>
      </trkpt>
      <trkpt lat="41.5589" lon="9.33144">
        <ele>2.54</ele>
        <time>2017-10-12T09:11:07Z</time>
      </trkpt>
      <trkpt lat="41.55883" lon="9.33149">
        <ele>3.02</ele>
        <time>2017-10-12T09:11:35Z</time>
      </trkpt>
      <trkpt lat="41.55883" lon="9.33151">
        <ele>3.5</ele>
        <time>2017-10-12T09:11:58Z</time>
      </trkpt>
      <trkpt lat="41.55884" lon="9.33152">
        <ele>2.54</ele>
        <time>2017-10-12T09:12:22Z</time>
      </trkpt>
      <trkpt lat="41.55883" lon="9.33154">
        <ele>2.54</ele>
        <time>2017-10-12T09:12:42Z</time>
      </trkpt>
      <trkpt lat="41.55881" lon="9.3316">
        <ele>4.46</ele>
        <time>2017-10-12T09:13:11Z</time>
      </trkpt>
      <trkpt lat="41.55871" lon="9.33172">
        <ele>5.42</ele>
        <time>2017-10-12T09:13:38Z</time>
      </trkpt>
      <trkpt lat="41.55845" lon="9.3318">
        <ele>1.58</ele>
        <time>2017-10-12T09:13:59Z</time>
      </trkpt>
      <trkpt lat="41.55837" lon="9.33177">
        <ele>1.58</ele>
        <time>2017-10-12T09:14:08Z</time>
      </trkpt>
      <trkpt lat="41.558" lon="9.33171">
        <ele>1.1</ele>
        <time>2017-10-12T09:14:33Z</time>
      </trkpt>
      <trkpt lat="41.55751" lon="9.33169">
        <ele>2.54</ele>
        <time>2017-10-12T09:15:05Z</time>
      </trkpt>
      <trkpt lat="41.55704" lon="9.33168">
        <ele>3.02</ele>
        <time>2017-10-12T09:15:36Z</time>
      </trkpt>
      <trkpt lat="41.55668" lon="9.3317">
        <ele>2.54</ele>
        <time>2017-10-12T09:16:01Z</time>
      </trkpt>
      <trkpt lat="41.55625" lon="9.33169">
        <ele>2.54</ele>
        <time>2017-10-12T09:16:30Z</time>
      </trkpt>
      <trkpt lat="41.55585" lon="9.33167">
        <ele>2.54</ele>
        <time>2017-10-12T09:16:57Z</time>
      </trkpt>
      <trkpt lat="41.55541" lon="9.33168">
        <ele>3.02</ele>
        <time>2017-10-12T09:17:27Z</time>
      </trkpt>
      <trkpt lat="41.55512" lon="9.33166">
        <ele>3.02</ele>
        <time>2017-10-12T09:17:47Z</time>
      </trkpt>
      <trkpt lat="41.55468" lon="9.33167">
        <ele>3.5</ele>
        <time>2017-10-12T09:18:17Z</time>
      </trkpt>
      <trkpt lat="41.55436" lon="9.33167">
        <ele>3.5</ele>
        <time>2017-10-12T09:18:39Z</time>
      </trkpt>
      <trkpt lat="41.55389" lon="9.33167">
        <ele>3.02</ele>
        <time>2017-10-12T09:19:07Z</time>
      </trkpt>
      <trkpt lat="41.55329" lon="9.33167">
        <ele>3.02</ele>
        <time>2017-10-12T09:19:37Z</time>
      </trkpt>
      <trkpt lat="41.55274" lon="9.33167">
        <ele>2.54</ele>
        <time>2017-10-12T09:20:03Z</time>
      </trkpt>
      <trkpt lat="41.55228" lon="9.33166">
        <ele>2.54</ele>
        <time>2017-10-12T09:20:25Z</time>
      </trkpt>
      <trkpt lat="41.55182" lon="9.33168">
        <ele>2.54</ele>
        <time>2017-10-12T09:20:47Z</time>
      </trkpt>
      <trkpt lat="41.55128" lon="9.3317">
        <ele>3.02</ele>
        <time>2017-10-12T09:21:13Z</time>
      </trkpt>
      <trkpt lat="41.55081" lon="9.33173">
        <ele>3.98</ele>
        <time>2017-10-12T09:21:35Z</time>
      </trkpt>
      <trkpt lat="41.55043" lon="9.33176">
        <ele>5.42</ele>
        <time>2017-10-12T09:21:53Z</time>
      </trkpt>
      <trkpt lat="41.55002" lon="9.33176">
        <ele>5.42</ele>
        <time>2017-10-12T09:22:13Z</time>
      </trkpt>
      <trkpt lat="41.54958" lon="9.33177">
        <ele>4.46</ele>
        <time>2017-10-12T09:22:34Z</time>
      </trkpt>
      <trkpt lat="41.54915" lon="9.33179">
        <ele>3.5</ele>
        <time>2017-10-12T09:22:54Z</time>
      </trkpt>
      <trkpt lat="41.54865" lon="9.33179">
        <ele>3.02</ele>
        <time>2017-10-12T09:23:18Z</time>
      </trkpt>
      <trkpt lat="41.54803" lon="9.33182">
        <ele>3.02</ele>
        <time>2017-10-12T09:23:48Z</time>
      </trkpt>
      <trkpt lat="41.54757" lon="9.33183">
        <ele>4.94</ele>
        <time>2017-10-12T09:24:10Z</time>
      </trkpt>
      <trkpt lat="41.54714" lon="9.33184">
        <ele>4.46</ele>
        <time>2017-10-12T09:24:31Z</time>
      </trkpt>
      <trkpt lat="41.54672" lon="9.33187">
        <ele>4.46</ele>
        <time>2017-10-12T09:24:51Z</time>
      </trkpt>
      <trkpt lat="41.54632" lon="9.3319">
        <ele>3.5</ele>
        <time>2017-10-12T09:25:11Z</time>
      </trkpt>
      <trkpt lat="41.54586" lon="9.33192">
        <ele>3.02</ele>
        <time>2017-10-12T09:25:33Z</time>
      </trkpt>
      <trkpt lat="41.54539" lon="9.33193">
        <ele>2.54</ele>
        <time>2017-10-12T09:25:56Z</time>
      </trkpt>
      <trkpt lat="41.54488" lon="9.33195">
        <ele>2.54</ele>
        <time>2017-10-12T09:26:21Z</time>
      </trkpt>
      <trkpt lat="41.54428" lon="9.33197">
        <ele>3.5</ele>
        <time>2017-10-12T09:26:50Z</time>
      </trkpt>
      <trkpt lat="41.54387" lon="9.33199">
        <ele>3.02</ele>
        <time>2017-10-12T09:27:10Z</time>
      </trkpt>
      <trkpt lat="41.54342" lon="9.33199">
        <ele>3.5</ele>
        <time>2017-10-12T09:27:32Z</time>
      </trkpt>
      <trkpt lat="41.54296" lon="9.33201">
        <ele>3.02</ele>
        <time>2017-10-12T09:27:55Z</time>
      </trkpt>
      <trkpt lat="41.54248" lon="9.33202">
        <ele>2.54</ele>
        <time>2017-10-12T09:28:18Z</time>
      </trkpt>
      <trkpt lat="41.54203" lon="9.33204">
        <ele>2.54</ele>
        <time>2017-10-12T09:28:40Z</time>
      </trkpt>
      <trkpt lat="41.54142" lon="9.33204">
        <ele>2.54</ele>
        <time>2017-10-12T09:29:10Z</time>
      </trkpt>
      <trkpt lat="41.54077" lon="9.33206">
        <ele>3.02</ele>
        <time>2017-10-12T09:29:42Z</time>
      </trkpt>
      <trkpt lat="41.5402" lon="9.33214">
        <ele>2.54</ele>
        <time>2017-10-12T09:30:10Z</time>
      </trkpt>
      <trkpt lat="41.53976" lon="9.33246">
        <ele>2.06</ele>
        <time>2017-10-12T09:30:34Z</time>
      </trkpt>
      <trkpt lat="41.53931" lon="9.33284">
        <ele>1.58</ele>
        <time>2017-10-12T09:31:00Z</time>
      </trkpt>
      <trkpt lat="41.53886" lon="9.33321">
        <ele>1.1</ele>
        <time>2017-10-12T09:31:26Z</time>
      </trkpt>
      <trkpt lat="41.53847" lon="9.33355">
        <ele>1.58</ele>
        <time>2017-10-12T09:31:48Z</time>
      </trkpt>
      <trkpt lat="41.53812" lon="9.33383">
        <ele>1.58</ele>
        <time>2017-10-12T09:32:08Z</time>
      </trkpt>
      <trkpt lat="41.53753" lon="9.33393">
        <ele>3.5</ele>
        <time>2017-10-12T09:32:35Z</time>
      </trkpt>
      <trkpt lat="41.53704" lon="9.33392">
        <ele>4.46</ele>
        <time>2017-10-12T09:32:59Z</time>
      </trkpt>
      <trkpt lat="41.53665" lon="9.33393">
        <ele>3.98</ele>
        <time>2017-10-12T09:33:27Z</time>
      </trkpt>
      <trkpt lat="41.53643" lon="9.33392">
        <ele>3.5</ele>
        <time>2017-10-12T09:33:51Z</time>
      </trkpt>
      <trkpt lat="41.53627" lon="9.33391">
        <ele>3.02</ele>
        <time>2017-10-12T09:34:15Z</time>
      </trkpt>
      <trkpt lat="41.53609" lon="9.33388">
        <ele>2.06</ele>
        <time>2017-10-12T09:34:44Z</time>
      </trkpt>
      <trkpt lat="41.53594" lon="9.33384">
        <ele>2.54</ele>
        <time>2017-10-12T09:35:11Z</time>
      </trkpt>
      <trkpt lat="41.53574" lon="9.33379">
        <ele>3.02</ele>
        <time>2017-10-12T09:35:37Z</time>
      </trkpt>
      <trkpt lat="41.53552" lon="9.33376">
        <ele>2.54</ele>
        <time>2017-10-12T09:35:56Z</time>
      </trkpt>
      <trkpt lat="41.53514" lon="9.33375">
        <ele>2.06</ele>
        <time>2017-10-12T09:36:21Z</time>
      </trkpt>
      <trkpt lat="41.53462" lon="9.33375">
        <ele>2.54</ele>
        <time>2017-10-12T09:36:51Z</time>
      </trkpt>
      <trkpt lat="41.53414" lon="9.33373">
        <ele>2.06</ele>
        <time>2017-10-12T09:37:17Z</time>
      </trkpt>
      <trkpt lat="41.53352" lon="9.33372">
        <ele>1.58</ele>
        <time>2017-10-12T09:37:50Z</time>
      </trkpt>
      <trkpt lat="41.53297" lon="9.33367">
        <ele>1.58</ele>
        <time>2017-10-12T09:38:19Z</time>
      </trkpt>
      <trkpt lat="41.53239" lon="9.33364">
        <ele>2.54</ele>
        <time>2017-10-12T09:38:48Z</time>
      </trkpt>
      <trkpt lat="41.53175" lon="9.33362">
        <ele>2.54</ele>
        <time>2017-10-12T09:39:19Z</time>
      </trkpt>
      <trkpt lat="41.53116" lon="9.3336">
        <ele>3.02</ele>
        <time>2017-10-12T09:39:48Z</time>
      </trkpt>
      <trkpt lat="41.53052" lon="9.33357">
        <ele>3.02</ele>
        <time>2017-10-12T09:40:21Z</time>
      </trkpt>
      <trkpt lat="41.52999" lon="9.33353">
        <ele>3.02</ele>
        <time>2017-10-12T09:40:50Z</time>
      </trkpt>
      <trkpt lat="41.52944" lon="9.3335">
        <ele>2.54</ele>
        <time>2017-10-12T09:41:19Z</time>
      </trkpt>
      <trkpt lat="41.52893" lon="9.33348">
        <ele>2.54</ele>
        <time>2017-10-12T09:41:45Z</time>
      </trkpt>
      <trkpt lat="41.52827" lon="9.33344">
        <ele>2.54</ele>
        <time>2017-10-12T09:42:19Z</time>
      </trkpt>
      <trkpt lat="41.52776" lon="9.33342">
        <ele>3.02</ele>
        <time>2017-10-12T09:42:44Z</time>
      </trkpt>
      <trkpt lat="41.52713" lon="9.33338">
        <ele>3.02</ele>
        <time>2017-10-12T09:43:13Z</time>
      </trkpt>
      <trkpt lat="41.52658" lon="9.33336">
        <ele>3.02</ele>
        <time>2017-10-12T09:43:39Z</time>
      </trkpt>
      <trkpt lat="41.52598" lon="9.33332">
        <ele>3.02</ele>
        <time>2017-10-12T09:44:08Z</time>
      </trkpt>
      <trkpt lat="41.52535" lon="9.3333">
        <ele>2.54</ele>
        <time>2017-10-12T09:44:39Z</time>
      </trkpt>
      <trkpt lat="41.52472" lon="9.33326">
        <ele>2.54</ele>
        <time>2017-10-12T09:45:09Z</time>
      </trkpt>
      <trkpt lat="41.52405" lon="9.33322">
        <ele>2.06</ele>
        <time>2017-10-12T09:45:40Z</time>
      </trkpt>
      <trkpt lat="41.52339" lon="9.3332">
        <ele>1.58</ele>
        <time>2017-10-12T09:46:10Z</time>
      </trkpt>
      <trkpt lat="41.52276" lon="9.33316">
        <ele>2.06</ele>
        <time>2017-10-12T09:46:39Z</time>
      </trkpt>
      <trkpt lat="41.52218" lon="9.33315">
        <ele>2.54</ele>
        <time>2017-10-12T09:47:06Z</time>
      </trkpt>
      <trkpt lat="41.52161" lon="9.3331">
        <ele>1.58</ele>
        <time>2017-10-12T09:47:32Z</time>
      </trkpt>
      <trkpt lat="41.52104" lon="9.33308">
        <ele>3.02</ele>
        <time>2017-10-12T09:47:58Z</time>
      </trkpt>
      <trkpt lat="41.52039" lon="9.33304">
        <ele>2.54</ele>
        <time>2017-10-12T09:48:28Z</time>
      </trkpt>
      <trkpt lat="41.51981" lon="9.33301">
        <ele>3.5</ele>
        <time>2017-10-12T09:48:55Z</time>
      </trkpt>
      <trkpt lat="41.51925" lon="9.33299">
        <ele>3.02</ele>
        <time>2017-10-12T09:49:21Z</time>
      </trkpt>
      <trkpt lat="41.51867" lon="9.33293">
        <ele>2.06</ele>
        <time>2017-10-12T09:49:48Z</time>
      </trkpt>
      <trkpt lat="41.51818" lon="9.33288">
        <ele>2.06</ele>
        <time>2017-10-12T09:50:11Z</time>
      </trkpt>
      <trkpt lat="41.51765" lon="9.33286">
        <ele>2.06</ele>
        <time>2017-10-12T09:50:36Z</time>
      </trkpt>
      <trkpt lat="41.51716" lon="9.33283">
        <ele>2.06</ele>
        <time>2017-10-12T09:50:59Z</time>
      </trkpt>
      <trkpt lat="41.51656" lon="9.33279">
        <ele>1.58</ele>
        <time>2017-10-12T09:51:27Z</time>
      </trkpt>
      <trkpt lat="41.51602" lon="9.33274">
        <ele>1.58</ele>
        <time>2017-10-12T09:51:53Z</time>
      </trkpt>
      <trkpt lat="41.51538" lon="9.33271">
        <ele>1.58</ele>
        <time>2017-10-12T09:52:23Z</time>
      </trkpt>
      <trkpt lat="41.51481" lon="9.33268">
        <ele>1.58</ele>
        <time>2017-10-12T09:52:49Z</time>
      </trkpt>
      <trkpt lat="41.51427" lon="9.33264">
        <ele>1.1</ele>
        <time>2017-10-12T09:53:14Z</time>
      </trkpt>
      <trkpt lat="41.51365" lon="9.33259">
        <ele>1.58</ele>
        <time>2017-10-12T09:53:42Z</time>
      </trkpt>
      <trkpt lat="41.51302" lon="9.33255">
        <ele>1.58</ele>
        <time>2017-10-12T09:54:11Z</time>
      </trkpt>
      <trkpt lat="41.51242" lon="9.33252">
        <ele>1.58</ele>
        <time>2017-10-12T09:54:39Z</time>
      </trkpt>
      <trkpt lat="41.51182" lon="9.33249">
        <ele>1.58</ele>
        <time>2017-10-12T09:55:07Z</time>
      </trkpt>
      <trkpt lat="41.51121" lon="9.33245">
        <ele>2.06</ele>
        <time>2017-10-12T09:55:38Z</time>
      </trkpt>
      <trkpt lat="41.51065" lon="9.33236">
        <ele>1.58</ele>
        <time>2017-10-12T09:56:07Z</time>
      </trkpt>
      <trkpt lat="41.51029" lon="9.33203">
        <ele>1.1</ele>
        <time>2017-10-12T09:56:29Z</time>
      </trkpt>
      <trkpt lat="41.50994" lon="9.33167">
        <ele>2.06</ele>
        <time>2017-10-12T09:56:55Z</time>
      </trkpt>
      <trkpt lat="41.50955" lon="9.33141">
        <ele>1.58</ele>
        <time>2017-10-12T09:57:21Z</time>
      </trkpt>
      <trkpt lat="41.50915" lon="9.33131">
        <ele>2.06</ele>
        <time>2017-10-12T09:57:44Z</time>
      </trkpt>
      <trkpt lat="41.50874" lon="9.33133">
        <ele>1.58</ele>
        <time>2017-10-12T09:58:09Z</time>
      </trkpt>
      <trkpt lat="41.50837" lon="9.33134">
        <ele>1.58</ele>
        <time>2017-10-12T09:58:30Z</time>
      </trkpt>
      <trkpt lat="41.50793" lon="9.33137">
        <ele>1.1</ele>
        <time>2017-10-12T09:58:56Z</time>
      </trkpt>
      <trkpt lat="41.50752" lon="9.3314">
        <ele>1.58</ele>
        <time>2017-10-12T09:59:22Z</time>
      </trkpt>
      <trkpt lat="41.50709" lon="9.33146">
        <ele>2.06</ele>
        <time>2017-10-12T09:59:47Z</time>
      </trkpt>
      <trkpt lat="41.50671" lon="9.33152">
        <ele>0.62</ele>
        <time>2017-10-12T10:00:08Z</time>
      </trkpt>
      <trkpt lat="41.50627" lon="9.33158">
        <ele>1.1</ele>
        <time>2017-10-12T10:00:32Z</time>
      </trkpt>
      <trkpt lat="41.5058" lon="9.33164">
        <ele>0.62</ele>
        <time>2017-10-12T10:00:57Z</time>
      </trkpt>
      <trkpt lat="41.50537" lon="9.33169">
        <ele>0.62</ele>
        <time>2017-10-12T10:01:19Z</time>
      </trkpt>
      <trkpt lat="41.50494" lon="9.33174">
        <ele>1.1</ele>
        <time>2017-10-12T10:01:41Z</time>
      </trkpt>
      <trkpt lat="41.50434" lon="9.33183">
        <ele>1.58</ele>
        <time>2017-10-12T10:02:11Z</time>
      </trkpt>
      <trkpt lat="41.50382" lon="9.33192">
        <ele>2.06</ele>
        <time>2017-10-12T10:02:37Z</time>
      </trkpt>
      <trkpt lat="41.50328" lon="9.33201">
        <ele>2.06</ele>
        <time>2017-10-12T10:03:04Z</time>
      </trkpt>
      <trkpt lat="41.50268" lon="9.3321">
        <ele>3.02</ele>
        <time>2017-10-12T10:03:33Z</time>
      </trkpt>
      <trkpt lat="41.50219" lon="9.3322">
        <ele>1.1</ele>
        <time>2017-10-12T10:03:57Z</time>
      </trkpt>
      <trkpt lat="41.5017" lon="9.33229">
        <ele>0.62</ele>
        <time>2017-10-12T10:04:20Z</time>
      </trkpt>
      <trkpt lat="41.50129" lon="9.33235">
        <ele>1.1</ele>
        <time>2017-10-12T10:04:40Z</time>
      </trkpt>
      <trkpt lat="41.50082" lon="9.33244">
        <ele>3.02</ele>
        <time>2017-10-12T10:05:03Z</time>
      </trkpt>
      <trkpt lat="41.50044" lon="9.3325">
        <ele>2.54</ele>
        <time>2017-10-12T10:05:27Z</time>
      </trkpt>
      <trkpt lat="41.50008" lon="9.33257">
        <ele>2.06</ele>
        <time>2017-10-12T10:05:55Z</time>
      </trkpt>
      <trkpt lat="41.4998" lon="9.33261">
        <ele>0.62</ele>
        <time>2017-10-12T10:06:22Z</time>
      </trkpt>
      <trkpt lat="41.49951" lon="9.33267">
        <ele>0.62</ele>
        <time>2017-10-12T10:06:52Z</time>
      </trkpt>
      <trkpt lat="41.49931" lon="9.33271">
        <ele>1.1</ele>
        <time>2017-10-12T10:07:14Z</time>
      </trkpt>
      <trkpt lat="41.49913" lon="9.33275">
        <ele>0.14</ele>
        <time>2017-10-12T10:07:33Z</time>
      </trkpt>
      <trkpt lat="41.4989" lon="9.3328">
        <ele>0.62</ele>
        <time>2017-10-12T10:07:56Z</time>
      </trkpt>
      <trkpt lat="41.49865" lon="9.33284">
        <ele>0.62</ele>
        <time>2017-10-12T10:08:21Z</time>
      </trkpt>
      <trkpt lat="41.49839" lon="9.33291">
        <ele>0.14</ele>
        <time>2017-10-12T10:08:43Z</time>
      </trkpt>
      <trkpt lat="41.4981" lon="9.33302">
        <ele>0.62</ele>
        <time>2017-10-12T10:09:06Z</time>
      </trkpt>
      <trkpt lat="41.49777" lon="9.33317">
        <ele>1.1</ele>
        <time>2017-10-12T10:09:31Z</time>
      </trkpt>
      <trkpt lat="41.49746" lon="9.33325">
        <ele>1.58</ele>
        <time>2017-10-12T10:09:56Z</time>
      </trkpt>
      <trkpt lat="41.49719" lon="9.33335">
        <ele>0.62</ele>
        <time>2017-10-12T10:10:20Z</time>
      </trkpt>
      <trkpt lat="41.49694" lon="9.33345">
        <ele>1.58</ele>
        <time>2017-10-12T10:10:46Z</time>
      </trkpt>
      <trkpt lat="41.49679" lon="9.33352">
        <ele>2.06</ele>
        <time>2017-10-12T10:11:10Z</time>
      </trkpt>
      <trkpt lat="41.49665" lon="9.33356">
        <ele>2.54</ele>
        <time>2017-10-12T10:11:38Z</time>
      </trkpt>
      <trkpt lat="41.49653" lon="9.33361">
        <ele>2.06</ele>
        <time>2017-10-12T10:12:07Z</time>
      </trkpt>
      <trkpt lat="41.49645" lon="9.33363">
        <ele>1.58</ele>
        <time>2017-10-12T10:12:32Z</time>
      </trkpt>
      <trkpt lat="41.49638" lon="9.33366">
        <ele>1.58</ele>
        <time>2017-10-12T10:12:53Z</time>
      </trkpt>
      <trkpt lat="41.49629" lon="9.33369">
        <ele>1.1</ele>
        <time>2017-10-12T10:13:19Z</time>
      </trkpt>
      <trkpt lat="41.4961" lon="9.33379">
        <ele>1.1</ele>
        <time>2017-10-12T10:13:40Z</time>
      </trkpt>
      <trkpt lat="41.4957" lon="9.33392">
        <ele>0.14</ele>
        <time>2017-10-12T10:14:08Z</time>
      </trkpt>
      <trkpt lat="41.4953" lon="9.33406">
        <ele>1.58</ele>
        <time>2017-10-12T10:14:34Z</time>
      </trkpt>
      <trkpt lat="41.49495" lon="9.33418">
        <ele>1.1</ele>
        <time>2017-10-12T10:14:54Z</time>
      </trkpt>
      <trkpt lat="41.49446" lon="9.33434">
        <ele>0.62</ele>
        <time>2017-10-12T10:15:18Z</time>
      </trkpt>
      <trkpt lat="41.49386" lon="9.33454">
        <ele>1.58</ele>
        <time>2017-10-12T10:15:46Z</time>
      </trkpt>
      <trkpt lat="41.49343" lon="9.33468">
        <ele>1.1</ele>
        <time>2017-10-12T10:16:08Z</time>
      </trkpt>
      <trkpt lat="41.49317" lon="9.33481">
        <ele>0.62</ele>
        <time>2017-10-12T10:16:27Z</time>
      </trkpt>
      <trkpt lat="41.49289" lon="9.33501">
        <ele>1.1</ele>
        <time>2017-10-12T10:16:48Z</time>
      </trkpt>
      <trkpt lat="41.49259" lon="9.33518">
        <ele>0.62</ele>
        <time>2017-10-12T10:17:09Z</time>
      </trkpt>
      <trkpt lat="41.49239" lon="9.33528">
        <ele>0.14</ele>
        <time>2017-10-12T10:17:24Z</time>
      </trkpt>
      <trkpt lat="41.49208" lon="9.33545">
        <ele>1.1</ele>
        <time>2017-10-12T10:17:43Z</time>
      </trkpt>
      <trkpt lat="41.49173" lon="9.33558">
        <ele>1.1</ele>
        <time>2017-10-12T10:18:03Z</time>
      </trkpt>
      <trkpt lat="41.49128" lon="9.33576">
        <ele>0.62</ele>
        <time>2017-10-12T10:18:26Z</time>
      </trkpt>
      <trkpt lat="41.49097" lon="9.33592">
        <ele>1.1</ele>
        <time>2017-10-12T10:18:45Z</time>
      </trkpt>
      <trkpt lat="41.4906" lon="9.33613">
        <ele>0.62</ele>
        <time>2017-10-12T10:19:04Z</time>
      </trkpt>
      <trkpt lat="41.49016" lon="9.33631">
        <ele>1.1</ele>
        <time>2017-10-12T10:19:23Z</time>
      </trkpt>
      <trkpt lat="41.48968" lon="9.33649">
        <ele>2.06</ele>
        <time>2017-10-12T10:19:40Z</time>
      </trkpt>
      <trkpt lat="41.48906" lon="9.33673">
        <ele>2.06</ele>
        <time>2017-10-12T10:20:01Z</time>
      </trkpt>
      <trkpt lat="41.48864" lon="9.33694">
        <ele>1.58</ele>
        <time>2017-10-12T10:20:19Z</time>
      </trkpt>
      <trkpt lat="41.48833" lon="9.3371">
        <ele>1.58</ele>
        <time>2017-10-12T10:20:34Z</time>
      </trkpt>
      <trkpt lat="41.48797" lon="9.33726">
        <ele>1.1</ele>
        <time>2017-10-12T10:20:50Z</time>
      </trkpt>
      <trkpt lat="41.48761" lon="9.33741">
        <ele>1.1</ele>
        <time>2017-10-12T10:21:04Z</time>
      </trkpt>
      <trkpt lat="41.48711" lon="9.33763">
        <ele>1.1</ele>
        <time>2017-10-12T10:21:21Z</time>
      </trkpt>
      <trkpt lat="41.48658" lon="9.33784">
        <ele>1.1</ele>
        <time>2017-10-12T10:21:38Z</time>
      </trkpt>
      <trkpt lat="41.48611" lon="9.33805">
        <ele>0.14</ele>
        <time>2017-10-12T10:21:53Z</time>
      </trkpt>
      <trkpt lat="41.48562" lon="9.3383">
        <ele>0.62</ele>
        <time>2017-10-12T10:22:09Z</time>
      </trkpt>
      <trkpt lat="41.4851" lon="9.33853">
        <ele>0.62</ele>
        <time>2017-10-12T10:22:26Z</time>
      </trkpt>
      <trkpt lat="41.48462" lon="9.33875">
        <ele>0.62</ele>
        <time>2017-10-12T10:22:42Z</time>
      </trkpt>
      <trkpt lat="41.48414" lon="9.33896">
        <ele>0.62</ele>
        <time>2017-10-12T10:22:58Z</time>
      </trkpt>
      <trkpt lat="41.48361" lon="9.33918">
        <ele>2.06</ele>
        <time>2017-10-12T10:23:16Z</time>
      </trkpt>
      <trkpt lat="41.48303" lon="9.33941">
        <ele>2.06</ele>
        <time>2017-10-12T10:23:35Z</time>
      </trkpt>
      <trkpt lat="41.48241" lon="9.33966">
        <ele>0.62</ele>
        <time>2017-10-12T10:23:55Z</time>
      </trkpt>
      <trkpt lat="41.48185" lon="9.33985">
        <ele>0.14</ele>
        <time>2017-10-12T10:24:12Z</time>
      </trkpt>
      <trkpt lat="41.48141" lon="9.34005">
        <ele>1.1</ele>
        <time>2017-10-12T10:24:26Z</time>
      </trkpt>
      <trkpt lat="41.48095" lon="9.34026">
        <ele>1.58</ele>
        <time>2017-10-12T10:24:41Z</time>
      </trkpt>
      <trkpt lat="41.48049" lon="9.34045">
        <ele>0.62</ele>
        <time>2017-10-12T10:24:56Z</time>
      </trkpt>
      <trkpt lat="41.4799" lon="9.34067">
        <ele>0.62</ele>
        <time>2017-10-12T10:25:14Z</time>
      </trkpt>
      <trkpt lat="41.47927" lon="9.34089">
        <ele>1.58</ele>
        <time>2017-10-12T10:25:33Z</time>
      </trkpt>
      <trkpt lat="41.47876" lon="9.34108">
        <ele>1.1</ele>
        <time>2017-10-12T10:25:49Z</time>
      </trkpt>
      <trkpt lat="41.47823" lon="9.34127">
        <ele>1.1</ele>
        <time>2017-10-12T10:26:06Z</time>
      </trkpt>
      <trkpt lat="41.47781" lon="9.34138">
        <ele>1.58</ele>
        <time>2017-10-12T10:26:19Z</time>
      </trkpt>
      <trkpt lat="41.47725" lon="9.34149">
        <ele>1.58</ele>
        <time>2017-10-12T10:26:37Z</time>
      </trkpt>
      <trkpt lat="41.47672" lon="9.34157">
        <ele>2.06</ele>
        <time>2017-10-12T10:26:54Z</time>
      </trkpt>
      <trkpt lat="41.47633" lon="9.34165">
        <ele>1.1</ele>
        <time>2017-10-12T10:27:07Z</time>
      </trkpt>
      <trkpt lat="41.4759" lon="9.34171">
        <ele>1.58</ele>
        <time>2017-10-12T10:27:22Z</time>
      </trkpt>
      <trkpt lat="41.4754" lon="9.34176">
        <ele>1.58</ele>
        <time>2017-10-12T10:27:39Z</time>
      </trkpt>
      <trkpt lat="41.4749" lon="9.34182">
        <ele>1.58</ele>
        <time>2017-10-12T10:27:56Z</time>
      </trkpt>
      <trkpt lat="41.47444" lon="9.34189">
        <ele>2.06</ele>
        <time>2017-10-12T10:28:12Z</time>
      </trkpt>
      <trkpt lat="41.47395" lon="9.34191">
        <ele>1.58</ele>
        <time>2017-10-12T10:28:28Z</time>
      </trkpt>
      <trkpt lat="41.47341" lon="9.34195">
        <ele>1.58</ele>
        <time>2017-10-12T10:28:46Z</time>
      </trkpt>
      <trkpt lat="41.47292" lon="9.34198">
        <ele>2.54</ele>
        <time>2017-10-12T10:29:03Z</time>
      </trkpt>
      <trkpt lat="41.47245" lon="9.34203">
        <ele>2.06</ele>
        <time>2017-10-12T10:29:19Z</time>
      </trkpt>
      <trkpt lat="41.47198" lon="9.34207">
        <ele>3.02</ele>
        <time>2017-10-12T10:29:35Z</time>
      </trkpt>
      <trkpt lat="41.47153" lon="9.34209">
        <ele>2.54</ele>
        <time>2017-10-12T10:29:50Z</time>
      </trkpt>
      <trkpt lat="41.47107" lon="9.34212">
        <ele>1.1</ele>
        <time>2017-10-12T10:30:05Z</time>
      </trkpt>
      <trkpt lat="41.4706" lon="9.34226">
        <ele>0.62</ele>
        <time>2017-10-12T10:30:20Z</time>
      </trkpt>
      <trkpt lat="41.47011" lon="9.34249">
        <ele>1.1</ele>
        <time>2017-10-12T10:30:36Z</time>
      </trkpt>
      <trkpt lat="41.46974" lon="9.34269">
        <ele>1.1</ele>
        <time>2017-10-12T10:30:48Z</time>
      </trkpt>
      <trkpt lat="41.46924" lon="9.34295">
        <ele>1.1</ele>
        <time>2017-10-12T10:31:04Z</time>
      </trkpt>
      <trkpt lat="41.46879" lon="9.34319">
        <ele>1.58</ele>
        <time>2017-10-12T10:31:19Z</time>
      </trkpt>
      <trkpt lat="41.46826" lon="9.3434">
        <ele>2.06</ele>
        <time>2017-10-12T10:31:35Z</time>
      </trkpt>
      <trkpt lat="41.46777" lon="9.3436">
        <ele>2.06</ele>
        <time>2017-10-12T10:31:50Z</time>
      </trkpt>
      <trkpt lat="41.46737" lon="9.34383">
        <ele>1.1</ele>
        <time>2017-10-12T10:32:03Z</time>
      </trkpt>
      <trkpt lat="41.46688" lon="9.34414">
        <ele>0.62</ele>
        <time>2017-10-12T10:32:19Z</time>
      </trkpt>
      <trkpt lat="41.46645" lon="9.34445">
        <ele>0.62</ele>
        <time>2017-10-12T10:32:34Z</time>
      </trkpt>
      <trkpt lat="41.46603" lon="9.34477">
        <ele>1.1</ele>
        <time>2017-10-12T10:32:49Z</time>
      </trkpt>
      <trkpt lat="41.46564" lon="9.34505">
        <ele>0.62</ele>
        <time>2017-10-12T10:33:03Z</time>
      </trkpt>
      <trkpt lat="41.4653" lon="9.34533">
        <ele>1.1</ele>
        <time>2017-10-12T10:33:16Z</time>
      </trkpt>
      <trkpt lat="41.46487" lon="9.34567">
        <ele>0.62</ele>
        <time>2017-10-12T10:33:32Z</time>
      </trkpt>
      <trkpt lat="41.46443" lon="9.34601">
        <ele>0.62</ele>
        <time>2017-10-12T10:33:48Z</time>
      </trkpt>
      <trkpt lat="41.46395" lon="9.34627">
        <ele>0.62</ele>
        <time>2017-10-12T10:34:04Z</time>
      </trkpt>
      <trkpt lat="41.46354" lon="9.34648">
        <ele>0.62</ele>
        <time>2017-10-12T10:34:18Z</time>
      </trkpt>
      <trkpt lat="41.46308" lon="9.34662">
        <ele>-0.34</ele>
        <time>2017-10-12T10:34:33Z</time>
      </trkpt>
      <trkpt lat="41.4627" lon="9.34653">
        <ele>-0.34</ele>
        <time>2017-10-12T10:34:46Z</time>
      </trkpt>
      <trkpt lat="41.46236" lon="9.34626">
        <ele>0.14</ele>
        <time>2017-10-12T10:35:02Z</time>
      </trkpt>
      <trkpt lat="41.46218" lon="9.34609">
        <ele>1.1</ele>
        <time>2017-10-12T10:35:18Z</time>
      </trkpt>
      <trkpt lat="41.46203" lon="9.34605">
        <ele>0.14</ele>
        <time>2017-10-12T10:35:34Z</time>
      </trkpt>
      <trkpt lat="41.46183" lon="9.34606">
        <ele>0.14</ele>
        <time>2017-10-12T10:35:47Z</time>
      </trkpt>
      <trkpt lat="41.46155" lon="9.34596">
        <ele>0.14</ele>
        <time>2017-10-12T10:36:05Z</time>
      </trkpt>
      <trkpt lat="41.46133" lon="9.34584">
        <ele>2.06</ele>
        <time>2017-10-12T10:36:22Z</time>
      </trkpt>
      <trkpt lat="41.46104" lon="9.34579">
        <ele>3.02</ele>
        <time>2017-10-12T10:36:36Z</time>
      </trkpt>
      <trkpt lat="41.46071" lon="9.34572">
        <ele>2.54</ele>
        <time>2017-10-12T10:36:49Z</time>
      </trkpt>
      <trkpt lat="41.46041" lon="9.34569">
        <ele>2.06</ele>
        <time>2017-10-12T10:37:00Z</time>
      </trkpt>
      <trkpt lat="41.46004" lon="9.34563">
        <ele>1.58</ele>
        <time>2017-10-12T10:37:13Z</time>
      </trkpt>
      <trkpt lat="41.45952" lon="9.34557">
        <ele>0.62</ele>
        <time>2017-10-12T10:37:30Z</time>
      </trkpt>
      <trkpt lat="41.45916" lon="9.34554">
        <ele>1.1</ele>
        <time>2017-10-12T10:37:41Z</time>
      </trkpt>
      <trkpt lat="41.45867" lon="9.34555">
        <ele>1.1</ele>
        <time>2017-10-12T10:37:56Z</time>
      </trkpt>
      <trkpt lat="41.45814" lon="9.34562">
        <ele>0.62</ele>
        <time>2017-10-12T10:38:12Z</time>
      </trkpt>
      <trkpt lat="41.45764" lon="9.3457">
        <ele>1.1</ele>
        <time>2017-10-12T10:38:28Z</time>
      </trkpt>
      <trkpt lat="41.4572" lon="9.34575">
        <ele>1.1</ele>
        <time>2017-10-12T10:38:42Z</time>
      </trkpt>
      <trkpt lat="41.4567" lon="9.34585">
        <ele>0.62</ele>
        <time>2017-10-12T10:38:59Z</time>
      </trkpt>
      <trkpt lat="41.45622" lon="9.34588">
        <ele>1.1</ele>
        <time>2017-10-12T10:39:14Z</time>
      </trkpt>
      <trkpt lat="41.45575" lon="9.34586">
        <ele>1.58</ele>
        <time>2017-10-12T10:39:29Z</time>
      </trkpt>
      <trkpt lat="41.4553" lon="9.3459">
        <ele>1.58</ele>
        <time>2017-10-12T10:39:44Z</time>
      </trkpt>
      <trkpt lat="41.45494" lon="9.34597">
        <ele>1.1</ele>
        <time>2017-10-12T10:39:56Z</time>
      </trkpt>
      <trkpt lat="41.45451" lon="9.34601">
        <ele>2.06</ele>
        <time>2017-10-12T10:40:10Z</time>
      </trkpt>
      <trkpt lat="41.45408" lon="9.34606">
        <ele>1.58</ele>
        <time>2017-10-12T10:40:24Z</time>
      </trkpt>
      <trkpt lat="41.45368" lon="9.34616">
        <ele>0.62</ele>
        <time>2017-10-12T10:40:37Z</time>
      </trkpt>
      <trkpt lat="41.45333" lon="9.34625">
        <ele>1.58</ele>
        <time>2017-10-12T10:40:49Z</time>
      </trkpt>
      <trkpt lat="41.45284" lon="9.34631">
        <ele>1.1</ele>
        <time>2017-10-12T10:41:05Z</time>
      </trkpt>
      <trkpt lat="41.45235" lon="9.34637">
        <ele>1.1</ele>
        <time>2017-10-12T10:41:21Z</time>
      </trkpt>
      <trkpt lat="41.45188" lon="9.3464">
        <ele>1.58</ele>
        <time>2017-10-12T10:41:36Z</time>
      </trkpt>
      <trkpt lat="41.45142" lon="9.34641">
        <ele>2.54</ele>
        <time>2017-10-12T10:41:51Z</time>
      </trkpt>
      <trkpt lat="41.45105" lon="9.34641">
        <ele>2.06</ele>
        <time>2017-10-12T10:42:03Z</time>
      </trkpt>
      <trkpt lat="41.45058" lon="9.34637">
        <ele>2.06</ele>
        <time>2017-10-12T10:42:18Z</time>
      </trkpt>
      <trkpt lat="41.45016" lon="9.34629">
        <ele>2.54</ele>
        <time>2017-10-12T10:42:31Z</time>
      </trkpt>
      <trkpt lat="41.44968" lon="9.34621">
        <ele>2.54</ele>
        <time>2017-10-12T10:42:46Z</time>
      </trkpt>
      <trkpt lat="41.44922" lon="9.34615">
        <ele>2.54</ele>
        <time>2017-10-12T10:43:01Z</time>
      </trkpt>
      <trkpt lat="41.44873" lon="9.34609">
        <ele>2.06</ele>
        <time>2017-10-12T10:43:17Z</time>
      </trkpt>
      <trkpt lat="41.44833" lon="9.34606">
        <ele>2.06</ele>
        <time>2017-10-12T10:43:30Z</time>
      </trkpt>
      <trkpt lat="41.44786" lon="9.34603">
        <ele>3.02</ele>
        <time>2017-10-12T10:43:45Z</time>
      </trkpt>
      <trkpt lat="41.44735" lon="9.34598">
        <ele>1.58</ele>
        <time>2017-10-12T10:44:01Z</time>
      </trkpt>
      <trkpt lat="41.44689" lon="9.34591">
        <ele>1.1</ele>
        <time>2017-10-12T10:44:15Z</time>
      </trkpt>
      <trkpt lat="41.44645" lon="9.34584">
        <ele>1.58</ele>
        <time>2017-10-12T10:44:29Z</time>
      </trkpt>
      <trkpt lat="41.44598" lon="9.34582">
        <ele>2.54</ele>
        <time>2017-10-12T10:44:44Z</time>
      </trkpt>
      <trkpt lat="41.44558" lon="9.34576">
        <ele>2.54</ele>
        <time>2017-10-12T10:44:57Z</time>
      </trkpt>
      <trkpt lat="41.44519" lon="9.34573">
        <ele>2.06</ele>
        <time>2017-10-12T10:45:10Z</time>
      </trkpt>
      <trkpt lat="41.4448" lon="9.34565">
        <ele>2.54</ele>
        <time>2017-10-12T10:45:23Z</time>
      </trkpt>
      <trkpt lat="41.44438" lon="9.34559">
        <ele>2.54</ele>
        <time>2017-10-12T10:45:37Z</time>
      </trkpt>
      <trkpt lat="41.44386" lon="9.34549">
        <ele>2.06</ele>
        <time>2017-10-12T10:45:54Z</time>
      </trkpt>
      <trkpt lat="41.44349" lon="9.34543">
        <ele>1.58</ele>
        <time>2017-10-12T10:46:06Z</time>
      </trkpt>
      <trkpt lat="41.44299" lon="9.34536">
        <ele>1.1</ele>
        <time>2017-10-12T10:46:22Z</time>
      </trkpt>
      <trkpt lat="41.44256" lon="9.34529">
        <ele>1.1</ele>
        <time>2017-10-12T10:46:36Z</time>
      </trkpt>
      <trkpt lat="41.442" lon="9.34521">
        <ele>2.06</ele>
        <time>2017-10-12T10:46:54Z</time>
      </trkpt>
      <trkpt lat="41.44163" lon="9.34519">
        <ele>2.54</ele>
        <time>2017-10-12T10:47:06Z</time>
      </trkpt>
      <trkpt lat="41.44119" lon="9.34516">
        <ele>3.02</ele>
        <time>2017-10-12T10:47:21Z</time>
      </trkpt>
      <trkpt lat="41.44069" lon="9.34509">
        <ele>2.06</ele>
        <time>2017-10-12T10:47:38Z</time>
      </trkpt>
      <trkpt lat="41.44029" lon="9.34503">
        <ele>2.06</ele>
        <time>2017-10-12T10:47:51Z</time>
      </trkpt>
      <trkpt lat="41.43989" lon="9.34498">
        <ele>2.54</ele>
        <time>2017-10-12T10:48:04Z</time>
      </trkpt>
      <trkpt lat="41.4395" lon="9.34493">
        <ele>2.06</ele>
        <time>2017-10-12T10:48:17Z</time>
      </trkpt>
      <trkpt lat="41.43899" lon="9.34485">
        <ele>1.58</ele>
        <time>2017-10-12T10:48:34Z</time>
      </trkpt>
      <trkpt lat="41.43853" lon="9.34475">
        <ele>3.02</ele>
        <time>2017-10-12T10:48:49Z</time>
      </trkpt>
      <trkpt lat="41.43811" lon="9.34466">
        <ele>3.5</ele>
        <time>2017-10-12T10:49:03Z</time>
      </trkpt>
      <trkpt lat="41.43762" lon="9.34458">
        <ele>4.46</ele>
        <time>2017-10-12T10:49:19Z</time>
      </trkpt>
      <trkpt lat="41.43723" lon="9.34456">
        <ele>3.98</ele>
        <time>2017-10-12T10:49:32Z</time>
      </trkpt>
      <trkpt lat="41.43675" lon="9.34448">
        <ele>3.5</ele>
        <time>2017-10-12T10:49:48Z</time>
      </trkpt>
      <trkpt lat="41.43633" lon="9.34446">
        <ele>4.94</ele>
        <time>2017-10-12T10:50:02Z</time>
      </trkpt>
      <trkpt lat="41.436" lon="9.34445">
        <ele>4.46</ele>
        <time>2017-10-12T10:50:14Z</time>
      </trkpt>
      <trkpt lat="41.43557" lon="9.34439">
        <ele>3.98</ele>
        <time>2017-10-12T10:50:29Z</time>
      </trkpt>
      <trkpt lat="41.43506" lon="9.34428">
        <ele>3.5</ele>
        <time>2017-10-12T10:50:47Z</time>
      </trkpt>
      <trkpt lat="41.43466" lon="9.34417">
        <ele>3.02</ele>
        <time>2017-10-12T10:51:01Z</time>
      </trkpt>
      <trkpt lat="41.43424" lon="9.34406">
        <ele>3.5</ele>
        <time>2017-10-12T10:51:16Z</time>
      </trkpt>
      <trkpt lat="41.43383" lon="9.34395">
        <ele>2.06</ele>
        <time>2017-10-12T10:51:31Z</time>
      </trkpt>
      <trkpt lat="41.43343" lon="9.34386">
        <ele>2.06</ele>
        <time>2017-10-12T10:51:46Z</time>
      </trkpt>
      <trkpt lat="41.43307" lon="9.34376">
        <ele>2.54</ele>
        <time>2017-10-12T10:52:00Z</time>
      </trkpt>
      <trkpt lat="41.43261" lon="9.34363">
        <ele>2.54</ele>
        <time>2017-10-12T10:52:17Z</time>
      </trkpt>
      <trkpt lat="41.43218" lon="9.34349">
        <ele>3.02</ele>
        <time>2017-10-12T10:52:34Z</time>
      </trkpt>
      <trkpt lat="41.43179" lon="9.34338">
        <ele>3.02</ele>
        <time>2017-10-12T10:52:49Z</time>
      </trkpt>
      <trkpt lat="41.43138" lon="9.34328">
        <ele>3.02</ele>
        <time>2017-10-12T10:53:04Z</time>
      </trkpt>
      <trkpt lat="41.43091" lon="9.34312">
        <ele>3.5</ele>
        <time>2017-10-12T10:53:21Z</time>
      </trkpt>
      <trkpt lat="41.43053" lon="9.34302">
        <ele>3.02</ele>
        <time>2017-10-12T10:53:35Z</time>
      </trkpt>
      <trkpt lat="41.43015" lon="9.34293">
        <ele>2.54</ele>
        <time>2017-10-12T10:53:49Z</time>
      </trkpt>
      <trkpt lat="41.42975" lon="9.34283">
        <ele>2.54</ele>
        <time>2017-10-12T10:54:03Z</time>
      </trkpt>
      <trkpt lat="41.42941" lon="9.34278">
        <ele>2.54</ele>
        <time>2017-10-12T10:54:15Z</time>
      </trkpt>
      <trkpt lat="41.42906" lon="9.3427">
        <ele>3.02</ele>
        <time>2017-10-12T10:54:27Z</time>
      </trkpt>
      <trkpt lat="41.42863" lon="9.34261">
        <ele>3.02</ele>
        <time>2017-10-12T10:54:42Z</time>
      </trkpt>
      <trkpt lat="41.42822" lon="9.3425">
        <ele>2.06</ele>
        <time>2017-10-12T10:54:57Z</time>
      </trkpt>
      <trkpt lat="41.42788" lon="9.34242">
        <ele>1.58</ele>
        <time>2017-10-12T10:55:09Z</time>
      </trkpt>
      <trkpt lat="41.42746" lon="9.34232">
        <ele>2.06</ele>
        <time>2017-10-12T10:55:23Z</time>
      </trkpt>
      <trkpt lat="41.427" lon="9.34223">
        <ele>1.1</ele>
        <time>2017-10-12T10:55:38Z</time>
      </trkpt>
      <trkpt lat="41.42654" lon="9.3421">
        <ele>1.58</ele>
        <time>2017-10-12T10:55:53Z</time>
      </trkpt>
      <trkpt lat="41.4262" lon="9.34201">
        <ele>1.1</ele>
        <time>2017-10-12T10:56:05Z</time>
      </trkpt>
      <trkpt lat="41.42581" lon="9.34191">
        <ele>1.58</ele>
        <time>2017-10-12T10:56:18Z</time>
      </trkpt>
      <trkpt lat="41.42545" lon="9.34183">
        <ele>2.54</ele>
        <time>2017-10-12T10:56:30Z</time>
      </trkpt>
      <trkpt lat="41.42495" lon="9.3417">
        <ele>2.06</ele>
        <time>2017-10-12T10:56:47Z</time>
      </trkpt>
      <trkpt lat="41.42455" lon="9.34159">
        <ele>2.06</ele>
        <time>2017-10-12T10:57:01Z</time>
      </trkpt>
      <trkpt lat="41.42418" lon="9.34149">
        <ele>2.54</ele>
        <time>2017-10-12T10:57:14Z</time>
      </trkpt>
      <trkpt lat="41.42381" lon="9.34139">
        <ele>3.02</ele>
        <time>2017-10-12T10:57:28Z</time>
      </trkpt>
      <trkpt lat="41.42339" lon="9.34129">
        <ele>3.5</ele>
        <time>2017-10-12T10:57:43Z</time>
      </trkpt>
      <trkpt lat="41.42297" lon="9.34117">
        <ele>3.02</ele>
        <time>2017-10-12T10:57:58Z</time>
      </trkpt>
      <trkpt lat="41.4225" lon="9.34106">
        <ele>3.02</ele>
        <time>2017-10-12T10:58:14Z</time>
      </trkpt>
      <trkpt lat="41.42217" lon="9.34096">
        <ele>2.54</ele>
        <time>2017-10-12T10:58:26Z</time>
      </trkpt>
      <trkpt lat="41.42182" lon="9.34086">
        <ele>3.98</ele>
        <time>2017-10-12T10:58:39Z</time>
      </trkpt>
      <trkpt lat="41.42147" lon="9.34075">
        <ele>3.98</ele>
        <time>2017-10-12T10:58:52Z</time>
      </trkpt>
      <trkpt lat="41.42104" lon="9.34067">
        <ele>3.5</ele>
        <time>2017-10-12T10:59:07Z</time>
      </trkpt>
      <trkpt lat="41.42065" lon="9.34057">
        <ele>3.02</ele>
        <time>2017-10-12T10:59:20Z</time>
      </trkpt>
      <trkpt lat="41.42027" lon="9.34046">
        <ele>3.02</ele>
        <time>2017-10-12T10:59:33Z</time>
      </trkpt>
      <trkpt lat="41.41986" lon="9.34032">
        <ele>3.02</ele>
        <time>2017-10-12T10:59:47Z</time>
      </trkpt>
      <trkpt lat="41.41942" lon="9.34018">
        <ele>3.5</ele>
        <time>2017-10-12T11:00:02Z</time>
      </trkpt>
      <trkpt lat="41.41905" lon="9.34008">
        <ele>3.5</ele>
        <time>2017-10-12T11:00:14Z</time>
      </trkpt>
      <trkpt lat="41.41853" lon="9.33995">
        <ele>3.98</ele>
        <time>2017-10-12T11:00:31Z</time>
      </trkpt>
      <trkpt lat="41.41806" lon="9.33979">
        <ele>3.98</ele>
        <time>2017-10-12T11:00:46Z</time>
      </trkpt>
      <trkpt lat="41.41772" lon="9.33972">
        <ele>3.5</ele>
        <time>2017-10-12T11:00:58Z</time>
      </trkpt>
      <trkpt lat="41.41736" lon="9.33959">
        <ele>3.02</ele>
        <time>2017-10-12T11:01:11Z</time>
      </trkpt>
      <trkpt lat="41.41708" lon="9.33952">
        <ele>3.5</ele>
        <time>2017-10-12T11:01:22Z</time>
      </trkpt>
      <trkpt lat="41.41668" lon="9.3394">
        <ele>3.5</ele>
        <time>2017-10-12T11:01:37Z</time>
      </trkpt>
      <trkpt lat="41.41631" lon="9.33927">
        <ele>3.98</ele>
        <time>2017-10-12T11:01:51Z</time>
      </trkpt>
      <trkpt lat="41.41603" lon="9.3392">
        <ele>3.5</ele>
        <time>2017-10-12T11:02:01Z</time>
      </trkpt>
      <trkpt lat="41.4156" lon="9.33908">
        <ele>3.02</ele>
        <time>2017-10-12T11:02:16Z</time>
      </trkpt>
      <trkpt lat="41.41522" lon="9.33896">
        <ele>2.06</ele>
        <time>2017-10-12T11:02:30Z</time>
      </trkpt>
      <trkpt lat="41.4149" lon="9.33884">
        <ele>2.54</ele>
        <time>2017-10-12T11:02:42Z</time>
      </trkpt>
      <trkpt lat="41.41455" lon="9.33871">
        <ele>3.02</ele>
        <time>2017-10-12T11:02:56Z</time>
      </trkpt>
      <trkpt lat="41.41417" lon="9.3386">
        <ele>3.98</ele>
        <time>2017-10-12T11:03:10Z</time>
      </trkpt>
      <trkpt lat="41.41374" lon="9.33847">
        <ele>3.5</ele>
        <time>2017-10-12T11:03:25Z</time>
      </trkpt>
      <trkpt lat="41.41338" lon="9.33835">
        <ele>3.98</ele>
        <time>2017-10-12T11:03:38Z</time>
      </trkpt>
      <trkpt lat="41.41303" lon="9.33823">
        <ele>4.46</ele>
        <time>2017-10-12T11:03:51Z</time>
      </trkpt>
      <trkpt lat="41.41267" lon="9.33811">
        <ele>4.46</ele>
        <time>2017-10-12T11:04:04Z</time>
      </trkpt>
      <trkpt lat="41.41256" lon="9.33808">
        <ele>3.98</ele>
        <time>2017-10-12T11:04:08Z</time>
      </trkpt>
      <trkpt lat="41.41218" lon="9.33795">
        <ele>3.98</ele>
        <time>2017-10-12T11:04:22Z</time>
      </trkpt>
      <trkpt lat="41.41178" lon="9.33782">
        <ele>3.98</ele>
        <time>2017-10-12T11:04:36Z</time>
      </trkpt>
      <trkpt lat="41.41135" lon="9.33765">
        <ele>3.98</ele>
        <time>2017-10-12T11:04:51Z</time>
      </trkpt>
      <trkpt lat="41.41091" lon="9.3375">
        <ele>3.98</ele>
        <time>2017-10-12T11:05:05Z</time>
      </trkpt>
      <trkpt lat="41.41054" lon="9.33737">
        <ele>4.46</ele>
        <time>2017-10-12T11:05:17Z</time>
      </trkpt>
      <trkpt lat="41.4102" lon="9.33725">
        <ele>4.46</ele>
        <time>2017-10-12T11:05:29Z</time>
      </trkpt>
      <trkpt lat="41.4099" lon="9.33712">
        <ele>3.98</ele>
        <time>2017-10-12T11:05:40Z</time>
      </trkpt>
      <trkpt lat="41.40955" lon="9.33701">
        <ele>3.02</ele>
        <time>2017-10-12T11:05:52Z</time>
      </trkpt>
      <trkpt lat="41.40923" lon="9.33686">
        <ele>3.5</ele>
        <time>2017-10-12T11:06:03Z</time>
      </trkpt>
      <trkpt lat="41.40886" lon="9.33672">
        <ele>3.02</ele>
        <time>2017-10-12T11:06:15Z</time>
      </trkpt>
      <trkpt lat="41.40847" lon="9.33658">
        <ele>2.06</ele>
        <time>2017-10-12T11:06:28Z</time>
      </trkpt>
      <trkpt lat="41.40807" lon="9.33641">
        <ele>2.06</ele>
        <time>2017-10-12T11:06:42Z</time>
      </trkpt>
      <trkpt lat="41.40774" lon="9.33628">
        <ele>1.58</ele>
        <time>2017-10-12T11:06:54Z</time>
      </trkpt>
      <trkpt lat="41.40748" lon="9.33619">
        <ele>3.02</ele>
        <time>2017-10-12T11:07:03Z</time>
      </trkpt>
      <trkpt lat="41.40712" lon="9.33603">
        <ele>1.58</ele>
        <time>2017-10-12T11:07:16Z</time>
      </trkpt>
      <trkpt lat="41.40673" lon="9.33588">
        <ele>2.06</ele>
        <time>2017-10-12T11:07:30Z</time>
      </trkpt>
      <trkpt lat="41.40629" lon="9.33575">
        <ele>1.58</ele>
        <time>2017-10-12T11:07:44Z</time>
      </trkpt>
      <trkpt lat="41.40582" lon="9.33556">
        <ele>0.62</ele>
        <time>2017-10-12T11:07:59Z</time>
      </trkpt>
      <trkpt lat="41.40544" lon="9.33541">
        <ele>1.1</ele>
        <time>2017-10-12T11:08:11Z</time>
      </trkpt>
      <trkpt lat="41.40501" lon="9.33522">
        <ele>2.06</ele>
        <time>2017-10-12T11:08:25Z</time>
      </trkpt>
      <trkpt lat="41.40465" lon="9.33506">
        <ele>2.06</ele>
        <time>2017-10-12T11:08:37Z</time>
      </trkpt>
      <trkpt lat="41.40424" lon="9.33492">
        <ele>1.1</ele>
        <time>2017-10-12T11:08:50Z</time>
      </trkpt>
      <trkpt lat="41.40384" lon="9.33477">
        <ele>1.1</ele>
        <time>2017-10-12T11:09:03Z</time>
      </trkpt>
      <trkpt lat="41.40358" lon="9.33465">
        <ele>1.58</ele>
        <time>2017-10-12T11:09:12Z</time>
      </trkpt>
      <trkpt lat="41.40317" lon="9.33448">
        <ele>0.62</ele>
        <time>2017-10-12T11:09:25Z</time>
      </trkpt>
      <trkpt lat="41.40283" lon="9.33434">
        <ele>-0.82</ele>
        <time>2017-10-12T11:09:36Z</time>
      </trkpt>
      <trkpt lat="41.40237" lon="9.33415">
        <ele>-1.3</ele>
        <time>2017-10-12T11:09:51Z</time>
      </trkpt>
      <trkpt lat="41.4019" lon="9.33396">
        <ele>-1.79</ele>
        <time>2017-10-12T11:10:06Z</time>
      </trkpt>
      <trkpt lat="41.40149" lon="9.33379">
        <ele>-1.79</ele>
        <time>2017-10-12T11:10:19Z</time>
      </trkpt>
      <trkpt lat="41.40104" lon="9.33362">
        <ele>-1.3</ele>
        <time>2017-10-12T11:10:33Z</time>
      </trkpt>
      <trkpt lat="41.4006" lon="9.33343">
        <ele>-1.3</ele>
        <time>2017-10-12T11:10:47Z</time>
      </trkpt>
      <trkpt lat="41.40018" lon="9.33324">
        <ele>-1.79</ele>
        <time>2017-10-12T11:11:01Z</time>
      </trkpt>
      <trkpt lat="41.39976" lon="9.33307">
        <ele>-0.82</ele>
        <time>2017-10-12T11:11:15Z</time>
      </trkpt>
      <trkpt lat="41.39932" lon="9.33291">
        <ele>-0.34</ele>
        <time>2017-10-12T11:11:29Z</time>
      </trkpt>
      <trkpt lat="41.39884" lon="9.33275">
        <ele>0.14</ele>
        <time>2017-10-12T11:11:45Z</time>
      </trkpt>
      <trkpt lat="41.39844" lon="9.33259">
        <ele>-0.34</ele>
        <time>2017-10-12T11:11:59Z</time>
      </trkpt>
      <trkpt lat="41.39802" lon="9.33243">
        <ele>-0.34</ele>
        <time>2017-10-12T11:12:14Z</time>
      </trkpt>
      <trkpt lat="41.39764" lon="9.33229">
        <ele>-0.82</ele>
        <time>2017-10-12T11:12:27Z</time>
      </trkpt>
      <trkpt lat="41.39724" lon="9.33215">
        <ele>-0.82</ele>
        <time>2017-10-12T11:12:40Z</time>
      </trkpt>
      <trkpt lat="41.39683" lon="9.332">
        <ele>-1.3</ele>
        <time>2017-10-12T11:12:53Z</time>
      </trkpt>
      <trkpt lat="41.39643" lon="9.33182">
        <ele>-1.3</ele>
        <time>2017-10-12T11:13:06Z</time>
      </trkpt>
      <trkpt lat="41.39595" lon="9.33166">
        <ele>-0.82</ele>
        <time>2017-10-12T11:13:21Z</time>
      </trkpt>
      <trkpt lat="41.39558" lon="9.33155">
        <ele>0.14</ele>
        <time>2017-10-12T11:13:33Z</time>
      </trkpt>
      <trkpt lat="41.39519" lon="9.3314">
        <ele>0.62</ele>
        <time>2017-10-12T11:13:46Z</time>
      </trkpt>
      <trkpt lat="41.39471" lon="9.33121">
        <ele>0.14</ele>
        <time>2017-10-12T11:14:01Z</time>
      </trkpt>
      <trkpt lat="41.39428" lon="9.33106">
        <ele>0.14</ele>
        <time>2017-10-12T11:14:15Z</time>
      </trkpt>
      <trkpt lat="41.39392" lon="9.33092">
        <ele>0.62</ele>
        <time>2017-10-12T11:14:27Z</time>
      </trkpt>
      <trkpt lat="41.39356" lon="9.33077">
        <ele>0.14</ele>
        <time>2017-10-12T11:14:39Z</time>
      </trkpt>
      <trkpt lat="41.39312" lon="9.33061">
        <ele>-0.34</ele>
        <time>2017-10-12T11:14:53Z</time>
      </trkpt>
      <trkpt lat="41.39266" lon="9.33046">
        <ele>-1.3</ele>
        <time>2017-10-12T11:15:08Z</time>
      </trkpt>
      <trkpt lat="41.39232" lon="9.33038">
        <ele>0.14</ele>
        <time>2017-10-12T11:15:19Z</time>
      </trkpt>
      <trkpt lat="41.39188" lon="9.3302">
        <ele>0.62</ele>
        <time>2017-10-12T11:15:33Z</time>
      </trkpt>
      <trkpt lat="41.39146" lon="9.33005">
        <ele>-0.34</ele>
        <time>2017-10-12T11:15:46Z</time>
      </trkpt>
      <trkpt lat="41.39101" lon="9.32989">
        <ele>-0.34</ele>
        <time>2017-10-12T11:16:00Z</time>
      </trkpt>
      <trkpt lat="41.39059" lon="9.32976">
        <ele>-0.34</ele>
        <time>2017-10-12T11:16:13Z</time>
      </trkpt>
      <trkpt lat="41.39022" lon="9.3296">
        <ele>-0.34</ele>
        <time>2017-10-12T11:16:25Z</time>
      </trkpt>
      <trkpt lat="41.38991" lon="9.32947">
        <ele>0.14</ele>
        <time>2017-10-12T11:16:35Z</time>
      </trkpt>
      <trkpt lat="41.38954" lon="9.32932">
        <ele>0.14</ele>
        <time>2017-10-12T11:16:47Z</time>
      </trkpt>
      <trkpt lat="41.38921" lon="9.32916">
        <ele>-0.34</ele>
        <time>2017-10-12T11:16:58Z</time>
      </trkpt>
      <trkpt lat="41.38884" lon="9.32899">
        <ele>-0.82</ele>
        <time>2017-10-12T11:17:10Z</time>
      </trkpt>
      <trkpt lat="41.38844" lon="9.32885">
        <ele>-1.3</ele>
        <time>2017-10-12T11:17:23Z</time>
      </trkpt>
      <trkpt lat="41.38805" lon="9.32868">
        <ele>-1.3</ele>
        <time>2017-10-12T11:17:36Z</time>
      </trkpt>
      <trkpt lat="41.38765" lon="9.32851">
        <ele>-1.3</ele>
        <time>2017-10-12T11:17:50Z</time>
      </trkpt>
      <trkpt lat="41.38731" lon="9.32839">
        <ele>0.14</ele>
        <time>2017-10-12T11:18:02Z</time>
      </trkpt>
      <trkpt lat="41.38696" lon="9.32822">
        <ele>0.62</ele>
        <time>2017-10-12T11:18:14Z</time>
      </trkpt>
      <trkpt lat="41.38652" lon="9.32807">
        <ele>0.14</ele>
        <time>2017-10-12T11:18:28Z</time>
      </trkpt>
      <trkpt lat="41.38612" lon="9.32792">
        <ele>0.14</ele>
        <time>2017-10-12T11:18:41Z</time>
      </trkpt>
      <trkpt lat="41.38576" lon="9.32778">
        <ele>0.62</ele>
        <time>2017-10-12T11:18:53Z</time>
      </trkpt>
      <trkpt lat="41.38538" lon="9.32764">
        <ele>0.14</ele>
        <time>2017-10-12T11:19:05Z</time>
      </trkpt>
      <trkpt lat="41.38492" lon="9.32743">
        <ele>-0.82</ele>
        <time>2017-10-12T11:19:20Z</time>
      </trkpt>
      <trkpt lat="41.3846" lon="9.32731">
        <ele>-0.82</ele>
        <time>2017-10-12T11:19:30Z</time>
      </trkpt>
      <trkpt lat="41.38423" lon="9.32716">
        <ele>-0.82</ele>
        <time>2017-10-12T11:19:42Z</time>
      </trkpt>
      <trkpt lat="41.38385" lon="9.32701">
        <ele>0.62</ele>
        <time>2017-10-12T11:19:54Z</time>
      </trkpt>
      <trkpt lat="41.38337" lon="9.32683">
        <ele>-0.34</ele>
        <time>2017-10-12T11:20:09Z</time>
      </trkpt>
      <trkpt lat="41.38298" lon="9.32667">
        <ele>-0.82</ele>
        <time>2017-10-12T11:20:21Z</time>
      </trkpt>
      <trkpt lat="41.3826" lon="9.32656">
        <ele>0.14</ele>
        <time>2017-10-12T11:20:33Z</time>
      </trkpt>
      <trkpt lat="41.38218" lon="9.32644">
        <ele>0.62</ele>
        <time>2017-10-12T11:20:46Z</time>
      </trkpt>
      <trkpt lat="41.38175" lon="9.32635">
        <ele>0.14</ele>
        <time>2017-10-12T11:20:59Z</time>
      </trkpt>
      <trkpt lat="41.38134" lon="9.32626">
        <ele>0.14</ele>
        <time>2017-10-12T11:21:11Z</time>
      </trkpt>
      <trkpt lat="41.38095" lon="9.32616">
        <ele>0.62</ele>
        <time>2017-10-12T11:21:23Z</time>
      </trkpt>
      <trkpt lat="41.38052" lon="9.32603">
        <ele>0.14</ele>
        <time>2017-10-12T11:21:36Z</time>
      </trkpt>
      <trkpt lat="41.38012" lon="9.32594">
        <ele>-1.3</ele>
        <time>2017-10-12T11:21:48Z</time>
      </trkpt>
      <trkpt lat="41.37976" lon="9.32585">
        <ele>-0.82</ele>
        <time>2017-10-12T11:21:59Z</time>
      </trkpt>
      <trkpt lat="41.37933" lon="9.32577">
        <ele>-0.34</ele>
        <time>2017-10-12T11:22:12Z</time>
      </trkpt>
      <trkpt lat="41.37897" lon="9.3257">
        <ele>0.14</ele>
        <time>2017-10-12T11:22:23Z</time>
      </trkpt>
      <trkpt lat="41.37863" lon="9.3256">
        <ele>0.14</ele>
        <time>2017-10-12T11:22:33Z</time>
      </trkpt>
      <trkpt lat="41.37818" lon="9.32555">
        <ele>0.14</ele>
        <time>2017-10-12T11:22:46Z</time>
      </trkpt>
      <trkpt lat="41.37775" lon="9.3254">
        <ele>0.14</ele>
        <time>2017-10-12T11:22:59Z</time>
      </trkpt>
      <trkpt lat="41.3773" lon="9.32526">
        <ele>0.14</ele>
        <time>2017-10-12T11:23:12Z</time>
      </trkpt>
      <trkpt lat="41.37686" lon="9.32509">
        <ele>-0.34</ele>
        <time>2017-10-12T11:23:25Z</time>
      </trkpt>
      <trkpt lat="41.37642" lon="9.32496">
        <ele>-0.82</ele>
        <time>2017-10-12T11:23:38Z</time>
      </trkpt>
      <trkpt lat="41.37608" lon="9.32479">
        <ele>-0.34</ele>
        <time>2017-10-12T11:23:49Z</time>
      </trkpt>
      <trkpt lat="41.37571" lon="9.32461">
        <ele>-0.82</ele>
        <time>2017-10-12T11:24:01Z</time>
      </trkpt>
      <trkpt lat="41.37539" lon="9.32443">
        <ele>-1.3</ele>
        <time>2017-10-12T11:24:12Z</time>
      </trkpt>
      <trkpt lat="41.375" lon="9.32422">
        <ele>-0.82</ele>
        <time>2017-10-12T11:24:25Z</time>
      </trkpt>
      <trkpt lat="41.37461" lon="9.32402">
        <ele>-0.34</ele>
        <time>2017-10-12T11:24:38Z</time>
      </trkpt>
      <trkpt lat="41.37413" lon="9.32378">
        <ele>-1.3</ele>
        <time>2017-10-12T11:24:54Z</time>
      </trkpt>
      <trkpt lat="41.37372" lon="9.32355">
        <ele>-0.82</ele>
        <time>2017-10-12T11:25:08Z</time>
      </trkpt>
      <trkpt lat="41.37332" lon="9.32335">
        <ele>-0.82</ele>
        <time>2017-10-12T11:25:21Z</time>
      </trkpt>
      <trkpt lat="41.37295" lon="9.32318">
        <ele>-0.82</ele>
        <time>2017-10-12T11:25:33Z</time>
      </trkpt>
      <trkpt lat="41.3726" lon="9.323">
        <ele>-1.79</ele>
        <time>2017-10-12T11:25:45Z</time>
      </trkpt>
      <trkpt lat="41.37221" lon="9.32277">
        <ele>-1.79</ele>
        <time>2017-10-12T11:25:59Z</time>
      </trkpt>
      <trkpt lat="41.3719" lon="9.32259">
        <ele>-0.82</ele>
        <time>2017-10-12T11:26:10Z</time>
      </trkpt>
      <trkpt lat="41.37147" lon="9.32236">
        <ele>-0.82</ele>
        <time>2017-10-12T11:26:24Z</time>
      </trkpt>
      <trkpt lat="41.37104" lon="9.32214">
        <ele>-0.82</ele>
        <time>2017-10-12T11:26:38Z</time>
      </trkpt>
      <trkpt lat="41.37061" lon="9.32196">
        <ele>-1.79</ele>
        <time>2017-10-12T11:26:51Z</time>
      </trkpt>
      <trkpt lat="41.37025" lon="9.32181">
        <ele>-2.27</ele>
        <time>2017-10-12T11:27:02Z</time>
      </trkpt>
      <trkpt lat="41.36986" lon="9.32163">
        <ele>-1.79</ele>
        <time>2017-10-12T11:27:14Z</time>
      </trkpt>
      <trkpt lat="41.36946" lon="9.32149">
        <ele>-1.3</ele>
        <time>2017-10-12T11:27:26Z</time>
      </trkpt>
      <trkpt lat="41.36912" lon="9.32133">
        <ele>-2.27</ele>
        <time>2017-10-12T11:27:37Z</time>
      </trkpt>
      <trkpt lat="41.36875" lon="9.32113">
        <ele>-2.27</ele>
        <time>2017-10-12T11:27:49Z</time>
      </trkpt>
      <trkpt lat="41.36844" lon="9.321">
        <ele>-2.27</ele>
        <time>2017-10-12T11:27:59Z</time>
      </trkpt>
      <trkpt lat="41.36804" lon="9.32089">
        <ele>-2.75</ele>
        <time>2017-10-12T11:28:11Z</time>
      </trkpt>
      <trkpt lat="41.36768" lon="9.32074">
        <ele>-3.23</ele>
        <time>2017-10-12T11:28:22Z</time>
      </trkpt>
      <trkpt lat="41.36726" lon="9.32054">
        <ele>-2.75</ele>
        <time>2017-10-12T11:28:35Z</time>
      </trkpt>
      <trkpt lat="41.36686" lon="9.32036">
        <ele>-2.27</ele>
        <time>2017-10-12T11:28:47Z</time>
      </trkpt>
      <trkpt lat="41.36638" lon="9.32012">
        <ele>-2.27</ele>
        <time>2017-10-12T11:29:02Z</time>
      </trkpt>
      <trkpt lat="41.36585" lon="9.31985">
        <ele>-1.79</ele>
        <time>2017-10-12T11:29:19Z</time>
      </trkpt>
      <trkpt lat="41.36546" lon="9.31969">
        <ele>-1.79</ele>
        <time>2017-10-12T11:29:31Z</time>
      </trkpt>
      <trkpt lat="41.36513" lon="9.31954">
        <ele>-2.27</ele>
        <time>2017-10-12T11:29:42Z</time>
      </trkpt>
      <trkpt lat="41.36475" lon="9.31938">
        <ele>-1.79</ele>
        <time>2017-10-12T11:29:54Z</time>
      </trkpt>
      <trkpt lat="41.36438" lon="9.31926">
        <ele>-1.79</ele>
        <time>2017-10-12T11:30:05Z</time>
      </trkpt>
      <trkpt lat="41.36395" lon="9.31909">
        <ele>-2.75</ele>
        <time>2017-10-12T11:30:18Z</time>
      </trkpt>
      <trkpt lat="41.36354" lon="9.31893">
        <ele>-1.79</ele>
        <time>2017-10-12T11:30:31Z</time>
      </trkpt>
      <trkpt lat="41.36313" lon="9.31876">
        <ele>-1.79</ele>
        <time>2017-10-12T11:30:44Z</time>
      </trkpt>
      <trkpt lat="41.36271" lon="9.31859">
        <ele>-1.79</ele>
        <time>2017-10-12T11:30:57Z</time>
      </trkpt>
      <trkpt lat="41.36234" lon="9.31849">
        <ele>-1.79</ele>
        <time>2017-10-12T11:31:08Z</time>
      </trkpt>
      <trkpt lat="41.36186" lon="9.31839">
        <ele>-2.27</ele>
        <time>2017-10-12T11:31:22Z</time>
      </trkpt>
      <trkpt lat="41.3614" lon="9.31824">
        <ele>-1.79</ele>
        <time>2017-10-12T11:31:36Z</time>
      </trkpt>
      <trkpt lat="41.36107" lon="9.31818">
        <ele>-2.27</ele>
        <time>2017-10-12T11:31:46Z</time>
      </trkpt>
      <trkpt lat="41.36068" lon="9.31807">
        <ele>-2.27</ele>
        <time>2017-10-12T11:31:58Z</time>
      </trkpt>
      <trkpt lat="41.36032" lon="9.31791">
        <ele>-2.75</ele>
        <time>2017-10-12T11:32:10Z</time>
      </trkpt>
      <trkpt lat="41.35996" lon="9.31781">
        <ele>-2.75</ele>
        <time>2017-10-12T11:32:21Z</time>
      </trkpt>
      <trkpt lat="41.35954" lon="9.31763">
        <ele>-2.27</ele>
        <time>2017-10-12T11:32:34Z</time>
      </trkpt>
      <trkpt lat="41.35915" lon="9.31749">
        <ele>-2.75</ele>
        <time>2017-10-12T11:32:46Z</time>
      </trkpt>
      <trkpt lat="41.35866" lon="9.31732">
        <ele>-1.79</ele>
        <time>2017-10-12T11:33:01Z</time>
      </trkpt>
      <trkpt lat="41.35826" lon="9.31722">
        <ele>-2.27</ele>
        <time>2017-10-12T11:33:13Z</time>
      </trkpt>
      <trkpt lat="41.35791" lon="9.31707">
        <ele>-2.27</ele>
        <time>2017-10-12T11:33:24Z</time>
      </trkpt>
      <trkpt lat="41.35759" lon="9.31695">
        <ele>-2.75</ele>
        <time>2017-10-12T11:33:34Z</time>
      </trkpt>
      <trkpt lat="41.35725" lon="9.31685">
        <ele>-2.75</ele>
        <time>2017-10-12T11:33:45Z</time>
      </trkpt>
      <trkpt lat="41.35684" lon="9.31671">
        <ele>-2.27</ele>
        <time>2017-10-12T11:33:58Z</time>
      </trkpt>
      <trkpt lat="41.35644" lon="9.31656">
        <ele>-2.27</ele>
        <time>2017-10-12T11:34:11Z</time>
      </trkpt>
      <trkpt lat="41.35616" lon="9.31675">
        <ele>-2.27</ele>
        <time>2017-10-12T11:34:20Z</time>
      </trkpt>
      <trkpt lat="41.35583" lon="9.31713">
        <ele>-2.75</ele>
        <time>2017-10-12T11:34:34Z</time>
      </trkpt>
      <trkpt lat="41.35549" lon="9.31742">
        <ele>-2.75</ele>
        <time>2017-10-12T11:34:48Z</time>
      </trkpt>
      <trkpt lat="41.35526" lon="9.31758">
        <ele>-2.75</ele>
        <time>2017-10-12T11:34:58Z</time>
      </trkpt>
      <trkpt lat="41.35495" lon="9.31767">
        <ele>-2.75</ele>
        <time>2017-10-12T11:35:10Z</time>
      </trkpt>
      <trkpt lat="41.35456" lon="9.31781">
        <ele>-3.23</ele>
        <time>2017-10-12T11:35:24Z</time>
      </trkpt>
      <trkpt lat="41.35419" lon="9.3179">
        <ele>-3.71</ele>
        <time>2017-10-12T11:35:37Z</time>
      </trkpt>
      <trkpt lat="41.35383" lon="9.31789">
        <ele>-2.75</ele>
        <time>2017-10-12T11:35:49Z</time>
      </trkpt>
      <trkpt lat="41.35343" lon="9.31784">
        <ele>-2.75</ele>
        <time>2017-10-12T11:36:02Z</time>
      </trkpt>
      <trkpt lat="41.35312" lon="9.3178">
        <ele>-2.75</ele>
        <time>2017-10-12T11:36:13Z</time>
      </trkpt>
      <trkpt lat="41.35277" lon="9.31774">
        <ele>-3.23</ele>
        <time>2017-10-12T11:36:25Z</time>
      </trkpt>
      <trkpt lat="41.35235" lon="9.3176">
        <ele>-2.27</ele>
        <time>2017-10-12T11:36:39Z</time>
      </trkpt>
      <trkpt lat="41.35184" lon="9.31749">
        <ele>-2.75</ele>
        <time>2017-10-12T11:36:54Z</time>
      </trkpt>
      <trkpt lat="41.35133" lon="9.31736">
        <ele>-3.71</ele>
        <time>2017-10-12T11:37:10Z</time>
      </trkpt>
      <trkpt lat="41.35098" lon="9.31726">
        <ele>-1.79</ele>
        <time>2017-10-12T11:37:21Z</time>
      </trkpt>
      <trkpt lat="41.35049" lon="9.31711">
        <ele>-1.3</ele>
        <time>2017-10-12T11:37:36Z</time>
      </trkpt>
      <trkpt lat="41.35008" lon="9.31697">
        <ele>-1.3</ele>
        <time>2017-10-12T11:37:49Z</time>
      </trkpt>
      <trkpt lat="41.34967" lon="9.31679">
        <ele>-1.3</ele>
        <time>2017-10-12T11:38:02Z</time>
      </trkpt>
      <trkpt lat="41.34925" lon="9.31659">
        <ele>-0.82</ele>
        <time>2017-10-12T11:38:16Z</time>
      </trkpt>
      <trkpt lat="41.34883" lon="9.31647">
        <ele>-1.3</ele>
        <time>2017-10-12T11:38:29Z</time>
      </trkpt>
      <trkpt lat="41.34838" lon="9.31636">
        <ele>-1.79</ele>
        <time>2017-10-12T11:38:43Z</time>
      </trkpt>
      <trkpt lat="41.34793" lon="9.31617">
        <ele>-1.79</ele>
        <time>2017-10-12T11:38:58Z</time>
      </trkpt>
      <trkpt lat="41.34748" lon="9.31601">
        <ele>-3.23</ele>
        <time>2017-10-12T11:39:12Z</time>
      </trkpt>
      <trkpt lat="41.34715" lon="9.31591">
        <ele>-3.23</ele>
        <time>2017-10-12T11:39:23Z</time>
      </trkpt>
      <trkpt lat="41.34673" lon="9.31579">
        <ele>-3.23</ele>
        <time>2017-10-12T11:39:37Z</time>
      </trkpt>
      <trkpt lat="41.34632" lon="9.31566">
        <ele>-3.23</ele>
        <time>2017-10-12T11:39:50Z</time>
      </trkpt>
      <trkpt lat="41.34585" lon="9.31545">
        <ele>-2.27</ele>
        <time>2017-10-12T11:40:05Z</time>
      </trkpt>
      <trkpt lat="41.34555" lon="9.31533">
        <ele>-3.23</ele>
        <time>2017-10-12T11:40:15Z</time>
      </trkpt>
      <trkpt lat="41.34514" lon="9.31525">
        <ele>-3.23</ele>
        <time>2017-10-12T11:40:28Z</time>
      </trkpt>
      <trkpt lat="41.34469" lon="9.31511">
        <ele>-4.19</ele>
        <time>2017-10-12T11:40:42Z</time>
      </trkpt>
      <trkpt lat="41.34434" lon="9.315">
        <ele>-4.19</ele>
        <time>2017-10-12T11:40:53Z</time>
      </trkpt>
      <trkpt lat="41.34391" lon="9.31489">
        <ele>-3.71</ele>
        <time>2017-10-12T11:41:06Z</time>
      </trkpt>
      <trkpt lat="41.34347" lon="9.31478">
        <ele>-4.19</ele>
        <time>2017-10-12T11:41:20Z</time>
      </trkpt>
      <trkpt lat="41.34303" lon="9.31468">
        <ele>-5.15</ele>
        <time>2017-10-12T11:41:34Z</time>
      </trkpt>
      <trkpt lat="41.34267" lon="9.31461">
        <ele>-5.63</ele>
        <time>2017-10-12T11:41:45Z</time>
      </trkpt>
      <trkpt lat="41.34229" lon="9.31454">
        <ele>-6.11</ele>
        <time>2017-10-12T11:41:56Z</time>
      </trkpt>
      <trkpt lat="41.34179" lon="9.31444">
        <ele>-5.15</ele>
        <time>2017-10-12T11:42:11Z</time>
      </trkpt>
      <trkpt lat="41.34145" lon="9.31437">
        <ele>-4.19</ele>
        <time>2017-10-12T11:42:21Z</time>
      </trkpt>
      <trkpt lat="41.34105" lon="9.31429">
        <ele>-4.19</ele>
        <time>2017-10-12T11:42:33Z</time>
      </trkpt>
      <trkpt lat="41.34059" lon="9.31419">
        <ele>-4.67</ele>
        <time>2017-10-12T11:42:47Z</time>
      </trkpt>
      <trkpt lat="41.34015" lon="9.31413">
        <ele>-3.71</ele>
        <time>2017-10-12T11:43:00Z</time>
      </trkpt>
      <trkpt lat="41.33975" lon="9.31408">
        <ele>-3.23</ele>
        <time>2017-10-12T11:43:12Z</time>
      </trkpt>
      <trkpt lat="41.33944" lon="9.31402">
        <ele>-2.75</ele>
        <time>2017-10-12T11:43:21Z</time>
      </trkpt>
      <trkpt lat="41.33909" lon="9.31396">
        <ele>-2.75</ele>
        <time>2017-10-12T11:43:31Z</time>
      </trkpt>
      <trkpt lat="41.33881" lon="9.31385">
        <ele>-2.75</ele>
        <time>2017-10-12T11:43:40Z</time>
      </trkpt>
      <trkpt lat="41.33845" lon="9.31377">
        <ele>-2.75</ele>
        <time>2017-10-12T11:43:51Z</time>
      </trkpt>
      <trkpt lat="41.33801" lon="9.31369">
        <ele>-3.23</ele>
        <time>2017-10-12T11:44:04Z</time>
      </trkpt>
      <trkpt lat="41.33759" lon="9.31364">
        <ele>-3.23</ele>
        <time>2017-10-12T11:44:16Z</time>
      </trkpt>
      <trkpt lat="41.33713" lon="9.31358">
        <ele>-4.19</ele>
        <time>2017-10-12T11:44:29Z</time>
      </trkpt>
      <trkpt lat="41.33672" lon="9.31352">
        <ele>-3.23</ele>
        <time>2017-10-12T11:44:41Z</time>
      </trkpt>
      <trkpt lat="41.33628" lon="9.31345">
        <ele>-3.71</ele>
        <time>2017-10-12T11:44:54Z</time>
      </trkpt>
      <trkpt lat="41.33589" lon="9.31338">
        <ele>-2.75</ele>
        <time>2017-10-12T11:45:06Z</time>
      </trkpt>
      <trkpt lat="41.33553" lon="9.31332">
        <ele>-2.75</ele>
        <time>2017-10-12T11:45:17Z</time>
      </trkpt>
      <trkpt lat="41.33502" lon="9.31321">
        <ele>-3.23</ele>
        <time>2017-10-12T11:45:32Z</time>
      </trkpt>
      <trkpt lat="41.33449" lon="9.31308">
        <ele>-3.71</ele>
        <time>2017-10-12T11:45:48Z</time>
      </trkpt>
      <trkpt lat="41.33408" lon="9.313">
        <ele>-4.19</ele>
        <time>2017-10-12T11:46:00Z</time>
      </trkpt>
      <trkpt lat="41.33364" lon="9.31294">
        <ele>-3.23</ele>
        <time>2017-10-12T11:46:13Z</time>
      </trkpt>
      <trkpt lat="41.33326" lon="9.31289">
        <ele>-2.75</ele>
        <time>2017-10-12T11:46:24Z</time>
      </trkpt>
      <trkpt lat="41.33288" lon="9.31285">
        <ele>-2.27</ele>
        <time>2017-10-12T11:46:35Z</time>
      </trkpt>
      <trkpt lat="41.3326" lon="9.31282">
        <ele>-1.79</ele>
        <time>2017-10-12T11:46:43Z</time>
      </trkpt>
      <trkpt lat="41.33251" lon="9.3128">
        <ele>-1.3</ele>
        <time>2017-10-12T11:46:46Z</time>
      </trkpt>
      <trkpt lat="41.33217" lon="9.31272">
        <ele>-2.27</ele>
        <time>2017-10-12T11:46:56Z</time>
      </trkpt>
      <trkpt lat="41.33177" lon="9.31266">
        <ele>-2.27</ele>
        <time>2017-10-12T11:47:08Z</time>
      </trkpt>
      <trkpt lat="41.33136" lon="9.31258">
        <ele>-1.79</ele>
        <time>2017-10-12T11:47:20Z</time>
      </trkpt>
      <trkpt lat="41.33093" lon="9.31248">
        <ele>-2.75</ele>
        <time>2017-10-12T11:47:33Z</time>
      </trkpt>
      <trkpt lat="41.33044" lon="9.3124">
        <ele>-3.71</ele>
        <time>2017-10-12T11:47:47Z</time>
      </trkpt>
      <trkpt lat="41.33" lon="9.31232">
        <ele>-3.71</ele>
        <time>2017-10-12T11:48:00Z</time>
      </trkpt>
      <trkpt lat="41.32953" lon="9.3122">
        <ele>-4.67</ele>
        <time>2017-10-12T11:48:14Z</time>
      </trkpt>
      <trkpt lat="41.32908" lon="9.31216">
        <ele>-3.71</ele>
        <time>2017-10-12T11:48:27Z</time>
      </trkpt>
      <trkpt lat="41.32869" lon="9.31218">
        <ele>-3.23</ele>
        <time>2017-10-12T11:48:38Z</time>
      </trkpt>
      <trkpt lat="41.32829" lon="9.31214">
        <ele>-3.23</ele>
        <time>2017-10-12T11:48:50Z</time>
      </trkpt>
      <trkpt lat="41.32794" lon="9.31211">
        <ele>-2.27</ele>
        <time>2017-10-12T11:49:00Z</time>
      </trkpt>
      <trkpt lat="41.32753" lon="9.31206">
        <ele>-1.79</ele>
        <time>2017-10-12T11:49:12Z</time>
      </trkpt>
      <trkpt lat="41.32705" lon="9.31198">
        <ele>-1.79</ele>
        <time>2017-10-12T11:49:26Z</time>
      </trkpt>
      <trkpt lat="41.3266" lon="9.31193">
        <ele>-3.23</ele>
        <time>2017-10-12T11:49:39Z</time>
      </trkpt>
      <trkpt lat="41.32622" lon="9.31186">
        <ele>-4.19</ele>
        <time>2017-10-12T11:49:50Z</time>
      </trkpt>
      <trkpt lat="41.32583" lon="9.31174">
        <ele>-3.71</ele>
        <time>2017-10-12T11:50:02Z</time>
      </trkpt>
      <trkpt lat="41.32549" lon="9.3117">
        <ele>-3.23</ele>
        <time>2017-10-12T11:50:12Z</time>
      </trkpt>
      <trkpt lat="41.32501" lon="9.31168">
        <ele>-3.71</ele>
        <time>2017-10-12T11:50:26Z</time>
      </trkpt>
      <trkpt lat="41.32464" lon="9.31163">
        <ele>-2.27</ele>
        <time>2017-10-12T11:50:37Z</time>
      </trkpt>
      <trkpt lat="41.3242" lon="9.31161">
        <ele>-1.3</ele>
        <time>2017-10-12T11:50:50Z</time>
      </trkpt>
      <trkpt lat="41.32378" lon="9.31157">
        <ele>-1.3</ele>
        <time>2017-10-12T11:51:02Z</time>
      </trkpt>
      <trkpt lat="41.32337" lon="9.31152">
        <ele>-0.34</ele>
        <time>2017-10-12T11:51:14Z</time>
      </trkpt>
      <trkpt lat="41.32303" lon="9.31151">
        <ele>0.14</ele>
        <time>2017-10-12T11:51:24Z</time>
      </trkpt>
      <trkpt lat="41.3226" lon="9.31147">
        <ele>-0.34</ele>
        <time>2017-10-12T11:51:37Z</time>
      </trkpt>
      <trkpt lat="41.32215" lon="9.31147">
        <ele>-1.3</ele>
        <time>2017-10-12T11:51:50Z</time>
      </trkpt>
      <trkpt lat="41.32182" lon="9.31143">
        <ele>-1.79</ele>
        <time>2017-10-12T11:52:00Z</time>
      </trkpt>
      <trkpt lat="41.32144" lon="9.31137">
        <ele>-1.79</ele>
        <time>2017-10-12T11:52:11Z</time>
      </trkpt>
      <trkpt lat="41.3211" lon="9.31139">
        <ele>-1.3</ele>
        <time>2017-10-12T11:52:21Z</time>
      </trkpt>
      <trkpt lat="41.32068" lon="9.31142">
        <ele>-1.3</ele>
        <time>2017-10-12T11:52:33Z</time>
      </trkpt>
      <trkpt lat="41.32025" lon="9.31145">
        <ele>-1.3</ele>
        <time>2017-10-12T11:52:46Z</time>
      </trkpt>
      <trkpt lat="41.3198" lon="9.31147">
        <ele>-1.79</ele>
        <time>2017-10-12T11:52:59Z</time>
      </trkpt>
      <trkpt lat="41.31946" lon="9.31142">
        <ele>-1.3</ele>
        <time>2017-10-12T11:53:09Z</time>
      </trkpt>
      <trkpt lat="41.31914" lon="9.31138">
        <ele>-2.27</ele>
        <time>2017-10-12T11:53:18Z</time>
      </trkpt>
      <trkpt lat="41.31878" lon="9.31141">
        <ele>-2.27</ele>
        <time>2017-10-12T11:53:28Z</time>
      </trkpt>
      <trkpt lat="41.3184" lon="9.31139">
        <ele>-1.79</ele>
        <time>2017-10-12T11:53:39Z</time>
      </trkpt>
      <trkpt lat="41.31809" lon="9.31139">
        <ele>-2.27</ele>
        <time>2017-10-12T11:53:48Z</time>
      </trkpt>
      <trkpt lat="41.31794" lon="9.3114">
        <ele>-2.75</ele>
        <time>2017-10-12T11:53:52Z</time>
      </trkpt>
      <trkpt lat="41.31749" lon="9.31155">
        <ele>-2.75</ele>
        <time>2017-10-12T11:54:05Z</time>
      </trkpt>
      <trkpt lat="41.3173" lon="9.31164">
        <ele>-2.27</ele>
        <time>2017-10-12T11:54:11Z</time>
      </trkpt>
      <trkpt lat="41.31696" lon="9.31178">
        <ele>-2.27</ele>
        <time>2017-10-12T11:54:22Z</time>
      </trkpt>
      <trkpt lat="41.31651" lon="9.31202">
        <ele>-1.3</ele>
        <time>2017-10-12T11:54:37Z</time>
      </trkpt>
      <trkpt lat="41.31621" lon="9.31216">
        <ele>-0.82</ele>
        <time>2017-10-12T11:54:47Z</time>
      </trkpt>
      <trkpt lat="41.31592" lon="9.31234">
        <ele>-0.82</ele>
        <time>2017-10-12T11:54:57Z</time>
      </trkpt>
      <trkpt lat="41.31556" lon="9.31255">
        <ele>-0.34</ele>
        <time>2017-10-12T11:55:09Z</time>
      </trkpt>
      <trkpt lat="41.31512" lon="9.31274">
        <ele>-0.34</ele>
        <time>2017-10-12T11:55:23Z</time>
      </trkpt>
      <trkpt lat="41.31471" lon="9.31291">
        <ele>-0.34</ele>
        <time>2017-10-12T11:55:36Z</time>
      </trkpt>
      <trkpt lat="41.31429" lon="9.31313">
        <ele>0.14</ele>
        <time>2017-10-12T11:55:50Z</time>
      </trkpt>
      <trkpt lat="41.3139" lon="9.31328">
        <ele>0.14</ele>
        <time>2017-10-12T11:56:02Z</time>
      </trkpt>
      <trkpt lat="41.31349" lon="9.31351">
        <ele>0.14</ele>
        <time>2017-10-12T11:56:15Z</time>
      </trkpt>
      <trkpt lat="41.31321" lon="9.31364">
        <ele>0.62</ele>
        <time>2017-10-12T11:56:24Z</time>
      </trkpt>
      <trkpt lat="41.31287" lon="9.31378">
        <ele>-0.82</ele>
        <time>2017-10-12T11:56:35Z</time>
      </trkpt>
      <trkpt lat="41.31248" lon="9.31394">
        <ele>-1.3</ele>
        <time>2017-10-12T11:56:47Z</time>
      </trkpt>
      <trkpt lat="41.31219" lon="9.31404">
        <ele>-0.82</ele>
        <time>2017-10-12T11:56:56Z</time>
      </trkpt>
      <trkpt lat="41.31191" lon="9.3142">
        <ele>-0.34</ele>
        <time>2017-10-12T11:57:05Z</time>
      </trkpt>
      <trkpt lat="41.31154" lon="9.31438">
        <ele>-0.82</ele>
        <time>2017-10-12T11:57:17Z</time>
      </trkpt>
      <trkpt lat="41.31133" lon="9.31448">
        <ele>-0.34</ele>
        <time>2017-10-12T11:57:24Z</time>
      </trkpt>
      <trkpt lat="41.31117" lon="9.31455">
        <ele>0.14</ele>
        <time>2017-10-12T11:57:29Z</time>
      </trkpt>
      <trkpt lat="41.31079" lon="9.3147">
        <ele>1.1</ele>
        <time>2017-10-12T11:57:41Z</time>
      </trkpt>
      <trkpt lat="41.31038" lon="9.31484">
        <ele>1.1</ele>
        <time>2017-10-12T11:57:54Z</time>
      </trkpt>
      <trkpt lat="41.31005" lon="9.31493">
        <ele>0.62</ele>
        <time>2017-10-12T11:58:04Z</time>
      </trkpt>
      <trkpt lat="41.30969" lon="9.31507">
        <ele>0.14</ele>
        <time>2017-10-12T11:58:15Z</time>
      </trkpt>
      <trkpt lat="41.30936" lon="9.31522">
        <ele>0.14</ele>
        <time>2017-10-12T11:58:25Z</time>
      </trkpt>
      <trkpt lat="41.30916" lon="9.31534">
        <ele>0.14</ele>
        <time>2017-10-12T11:58:32Z</time>
      </trkpt>
      <trkpt lat="41.30908" lon="9.31542">
        <ele>0.62</ele>
        <time>2017-10-12T11:58:35Z</time>
      </trkpt>
      <trkpt lat="41.30895" lon="9.31544">
        <ele>1.1</ele>
        <time>2017-10-12T11:58:39Z</time>
      </trkpt>
      <trkpt lat="41.30854" lon="9.31564">
        <ele>0.14</ele>
        <time>2017-10-12T11:58:53Z</time>
      </trkpt>
      <trkpt lat="41.30828" lon="9.31577">
        <ele>0.14</ele>
        <time>2017-10-12T11:59:02Z</time>
      </trkpt>
      <trkpt lat="41.3079" lon="9.3159">
        <ele>-1.3</ele>
        <time>2017-10-12T11:59:14Z</time>
      </trkpt>
      <trkpt lat="41.30765" lon="9.316">
        <ele>-0.34</ele>
        <time>2017-10-12T11:59:22Z</time>
      </trkpt>
      <trkpt lat="41.30739" lon="9.31605">
        <ele>-0.34</ele>
        <time>2017-10-12T11:59:30Z</time>
      </trkpt>
      <trkpt lat="41.30727" lon="9.3161">
        <ele>-0.34</ele>
        <time>2017-10-12T11:59:34Z</time>
      </trkpt>
      <trkpt lat="41.30693" lon="9.31625">
        <ele>-0.34</ele>
        <time>2017-10-12T11:59:45Z</time>
      </trkpt>
      <trkpt lat="41.30663" lon="9.31638">
        <ele>-0.34</ele>
        <time>2017-10-12T11:59:55Z</time>
      </trkpt>
      <trkpt lat="41.30635" lon="9.31647">
        <ele>0.14</ele>
        <time>2017-10-12T12:00:04Z</time>
      </trkpt>
      <trkpt lat="41.30632" lon="9.31648">
        <ele>0.14</ele>
        <time>2017-10-12T12:00:05Z</time>
      </trkpt>
      <trkpt lat="41.30605" lon="9.31654">
        <ele>0.62</ele>
        <time>2017-10-12T12:00:13Z</time>
      </trkpt>
      <trkpt lat="41.30567" lon="9.31658">
        <ele>-0.34</ele>
        <time>2017-10-12T12:00:25Z</time>
      </trkpt>
      <trkpt lat="41.30534" lon="9.31673">
        <ele>-0.34</ele>
        <time>2017-10-12T12:00:36Z</time>
      </trkpt>
      <trkpt lat="41.30511" lon="9.31684">
        <ele>0.62</ele>
        <time>2017-10-12T12:00:44Z</time>
      </trkpt>
      <trkpt lat="41.30475" lon="9.31692">
        <ele>0.62</ele>
        <time>2017-10-12T12:00:55Z</time>
      </trkpt>
      <trkpt lat="41.30442" lon="9.31702">
        <ele>-0.34</ele>
        <time>2017-10-12T12:01:05Z</time>
      </trkpt>
      <trkpt lat="41.30408" lon="9.31715">
        <ele>-1.3</ele>
        <time>2017-10-12T12:01:16Z</time>
      </trkpt>
      <trkpt lat="41.30393" lon="9.31724">
        <ele>-1.3</ele>
        <time>2017-10-12T12:01:21Z</time>
      </trkpt>
      <trkpt lat="41.30351" lon="9.31741">
        <ele>-0.82</ele>
        <time>2017-10-12T12:01:34Z</time>
      </trkpt>
      <trkpt lat="41.30323" lon="9.31753">
        <ele>-0.82</ele>
        <time>2017-10-12T12:01:43Z</time>
      </trkpt>
      <trkpt lat="41.3032" lon="9.31754">
        <ele>-0.82</ele>
        <time>2017-10-12T12:01:44Z</time>
      </trkpt>
      <trkpt lat="41.30288" lon="9.31766">
        <ele>-1.79</ele>
        <time>2017-10-12T12:01:54Z</time>
      </trkpt>
      <trkpt lat="41.30259" lon="9.31781">
        <ele>-1.79</ele>
        <time>2017-10-12T12:02:04Z</time>
      </trkpt>
      <trkpt lat="41.30257" lon="9.31784">
        <ele>-1.79</ele>
        <time>2017-10-12T12:02:05Z</time>
      </trkpt>
      <trkpt lat="41.3025" lon="9.31786">
        <ele>-2.75</ele>
        <time>2017-10-12T12:02:07Z</time>
      </trkpt>
      <trkpt lat="41.30238" lon="9.31789">
        <ele>-4.19</ele>
        <time>2017-10-12T12:02:11Z</time>
      </trkpt>
      <trkpt lat="41.30225" lon="9.31794">
        <ele>-4.67</ele>
        <time>2017-10-12T12:02:15Z</time>
      </trkpt>
      <trkpt lat="41.30194" lon="9.31804">
        <ele>-3.23</ele>
        <time>2017-10-12T12:02:25Z</time>
      </trkpt>
      <trkpt lat="41.30159" lon="9.31816">
        <ele>-3.23</ele>
        <time>2017-10-12T12:02:36Z</time>
      </trkpt>
      <trkpt lat="41.30119" lon="9.31834">
        <ele>-1.79</ele>
        <time>2017-10-12T12:02:49Z</time>
      </trkpt>
      <trkpt lat="41.3011" lon="9.31839">
        <ele>-1.79</ele>
        <time>2017-10-12T12:02:52Z</time>
      </trkpt>
      <trkpt lat="41.30092" lon="9.31844">
        <ele>-1.79</ele>
        <time>2017-10-12T12:02:58Z</time>
      </trkpt>
      <trkpt lat="41.30086" lon="9.31845">
        <ele>-1.79</ele>
        <time>2017-10-12T12:03:00Z</time>
      </trkpt>
      <trkpt lat="41.30061" lon="9.31854">
        <ele>-1.3</ele>
        <time>2017-10-12T12:03:08Z</time>
      </trkpt>
      <trkpt lat="41.3004" lon="9.31863">
        <ele>-0.82</ele>
        <time>2017-10-12T12:03:15Z</time>
      </trkpt>
      <trkpt lat="41.30024" lon="9.31869">
        <ele>-0.82</ele>
        <time>2017-10-12T12:03:20Z</time>
      </trkpt>
      <trkpt lat="41.29989" lon="9.31877">
        <ele>-0.34</ele>
        <time>2017-10-12T12:03:31Z</time>
      </trkpt>
      <trkpt lat="41.29951" lon="9.31893">
        <ele>-0.34</ele>
        <time>2017-10-12T12:03:44Z</time>
      </trkpt>
      <trkpt lat="41.2992" lon="9.31901">
        <ele>-0.34</ele>
        <time>2017-10-12T12:03:54Z</time>
      </trkpt>
      <trkpt lat="41.29886" lon="9.31907">
        <ele>-0.34</ele>
        <time>2017-10-12T12:04:04Z</time>
      </trkpt>
      <trkpt lat="41.29855" lon="9.31915">
        <ele>-1.3</ele>
        <time>2017-10-12T12:04:14Z</time>
      </trkpt>
      <trkpt lat="41.29819" lon="9.31926">
        <ele>-0.82</ele>
        <time>2017-10-12T12:04:25Z</time>
      </trkpt>
      <trkpt lat="41.29779" lon="9.31938">
        <ele>-0.82</ele>
        <time>2017-10-12T12:04:37Z</time>
      </trkpt>
      <trkpt lat="41.29745" lon="9.3195">
        <ele>-1.3</ele>
        <time>2017-10-12T12:04:48Z</time>
      </trkpt>
      <trkpt lat="41.2971" lon="9.31959">
        <ele>-1.3</ele>
        <time>2017-10-12T12:04:59Z</time>
      </trkpt>
      <trkpt lat="41.29675" lon="9.31968">
        <ele>-1.3</ele>
        <time>2017-10-12T12:05:10Z</time>
      </trkpt>
      <trkpt lat="41.29648" lon="9.31975">
        <ele>-0.82</ele>
        <time>2017-10-12T12:05:18Z</time>
      </trkpt>
      <trkpt lat="41.29621" lon="9.3198">
        <ele>-1.79</ele>
        <time>2017-10-12T12:05:26Z</time>
      </trkpt>
      <trkpt lat="41.29592" lon="9.31991">
        <ele>-1.79</ele>
        <time>2017-10-12T12:05:35Z</time>
      </trkpt>
      <trkpt lat="41.29555" lon="9.31997">
        <ele>-1.79</ele>
        <time>2017-10-12T12:05:46Z</time>
      </trkpt>
      <trkpt lat="41.29514" lon="9.32015">
        <ele>-1.79</ele>
        <time>2017-10-12T12:05:59Z</time>
      </trkpt>
      <trkpt lat="41.29479" lon="9.3203">
        <ele>-0.82</ele>
        <time>2017-10-12T12:06:10Z</time>
      </trkpt>
      <trkpt lat="41.29445" lon="9.32055">
        <ele>-0.34</ele>
        <time>2017-10-12T12:06:22Z</time>
      </trkpt>
      <trkpt lat="41.29412" lon="9.32077">
        <ele>-1.3</ele>
        <time>2017-10-12T12:06:33Z</time>
      </trkpt>
      <trkpt lat="41.29395" lon="9.32091">
        <ele>-1.3</ele>
        <time>2017-10-12T12:06:39Z</time>
      </trkpt>
      <trkpt lat="41.29366" lon="9.32117">
        <ele>0.14</ele>
        <time>2017-10-12T12:06:49Z</time>
      </trkpt>
      <trkpt lat="41.29355" lon="9.32128">
        <ele>0.14</ele>
        <time>2017-10-12T12:06:53Z</time>
      </trkpt>
      <trkpt lat="41.29338" lon="9.3214">
        <ele>0.62</ele>
        <time>2017-10-12T12:06:59Z</time>
      </trkpt>
      <trkpt lat="41.29304" lon="9.32164">
        <ele>-0.34</ele>
        <time>2017-10-12T12:07:11Z</time>
      </trkpt>
      <trkpt lat="41.29274" lon="9.32185">
        <ele>-0.82</ele>
        <time>2017-10-12T12:07:21Z</time>
      </trkpt>
      <trkpt lat="41.29237" lon="9.32208">
        <ele>-0.34</ele>
        <time>2017-10-12T12:07:33Z</time>
      </trkpt>
      <trkpt lat="41.29198" lon="9.32234">
        <ele>-0.82</ele>
        <time>2017-10-12T12:07:46Z</time>
      </trkpt>
      <trkpt lat="41.29161" lon="9.32264">
        <ele>-0.82</ele>
        <time>2017-10-12T12:08:00Z</time>
      </trkpt>
      <trkpt lat="41.29124" lon="9.3229">
        <ele>-0.82</ele>
        <time>2017-10-12T12:08:13Z</time>
      </trkpt>
      <trkpt lat="41.29088" lon="9.32316">
        <ele>-1.3</ele>
        <time>2017-10-12T12:08:26Z</time>
      </trkpt>
      <trkpt lat="41.29049" lon="9.32348">
        <ele>-0.82</ele>
        <time>2017-10-12T12:08:41Z</time>
      </trkpt>
      <trkpt lat="41.29013" lon="9.32378">
        <ele>-0.34</ele>
        <time>2017-10-12T12:08:55Z</time>
      </trkpt>
      <trkpt lat="41.28973" lon="9.32406">
        <ele>-0.82</ele>
        <time>2017-10-12T12:09:09Z</time>
      </trkpt>
      <trkpt lat="41.28944" lon="9.32426">
        <ele>-1.3</ele>
        <time>2017-10-12T12:09:19Z</time>
      </trkpt>
      <trkpt lat="41.28916" lon="9.32441">
        <ele>0.14</ele>
        <time>2017-10-12T12:09:30Z</time>
      </trkpt>
      <trkpt lat="41.28886" lon="9.32458">
        <ele>-0.34</ele>
        <time>2017-10-12T12:09:40Z</time>
      </trkpt>
      <trkpt lat="41.28882" lon="9.32458">
        <ele>-0.34</ele>
        <time>2017-10-12T12:09:41Z</time>
      </trkpt>
      <trkpt lat="41.28853" lon="9.32471">
        <ele>-0.34</ele>
        <time>2017-10-12T12:09:50Z</time>
      </trkpt>
      <trkpt lat="41.28815" lon="9.32496">
        <ele>-1.3</ele>
        <time>2017-10-12T12:10:03Z</time>
      </trkpt>
      <trkpt lat="41.2879" lon="9.32517">
        <ele>-0.34</ele>
        <time>2017-10-12T12:10:12Z</time>
      </trkpt>
      <trkpt lat="41.28744" lon="9.32534">
        <ele>-0.82</ele>
        <time>2017-10-12T12:10:26Z</time>
      </trkpt>
      <trkpt lat="41.28708" lon="9.32554">
        <ele>-1.3</ele>
        <time>2017-10-12T12:10:38Z</time>
      </trkpt>
      <trkpt lat="41.28673" lon="9.32577">
        <ele>-1.3</ele>
        <time>2017-10-12T12:10:50Z</time>
      </trkpt>
      <trkpt lat="41.28641" lon="9.32598">
        <ele>-1.3</ele>
        <time>2017-10-12T12:11:01Z</time>
      </trkpt>
      <trkpt lat="41.28609" lon="9.32619">
        <ele>-1.3</ele>
        <time>2017-10-12T12:11:12Z</time>
      </trkpt>
      <trkpt lat="41.28581" lon="9.3264">
        <ele>-1.3</ele>
        <time>2017-10-12T12:11:22Z</time>
      </trkpt>
      <trkpt lat="41.28543" lon="9.32673">
        <ele>-0.82</ele>
        <time>2017-10-12T12:11:36Z</time>
      </trkpt>
      <trkpt lat="41.28505" lon="9.32702">
        <ele>-0.34</ele>
        <time>2017-10-12T12:11:50Z</time>
      </trkpt>
      <trkpt lat="41.28476" lon="9.32729">
        <ele>-0.82</ele>
        <time>2017-10-12T12:12:02Z</time>
      </trkpt>
      <trkpt lat="41.28453" lon="9.32747">
        <ele>-2.27</ele>
        <time>2017-10-12T12:12:11Z</time>
      </trkpt>
      <trkpt lat="41.28428" lon="9.32769">
        <ele>-2.75</ele>
        <time>2017-10-12T12:12:22Z</time>
      </trkpt>
      <trkpt lat="41.28397" lon="9.32788">
        <ele>-2.75</ele>
        <time>2017-10-12T12:12:34Z</time>
      </trkpt>
      <trkpt lat="41.2837" lon="9.32803">
        <ele>-2.75</ele>
        <time>2017-10-12T12:12:44Z</time>
      </trkpt>
      <trkpt lat="41.28345" lon="9.32818">
        <ele>-2.75</ele>
        <time>2017-10-12T12:12:53Z</time>
      </trkpt>
      <trkpt lat="41.28318" lon="9.32836">
        <ele>-2.27</ele>
        <time>2017-10-12T12:13:03Z</time>
      </trkpt>
      <trkpt lat="41.28287" lon="9.32854">
        <ele>-1.79</ele>
        <time>2017-10-12T12:13:14Z</time>
      </trkpt>
      <trkpt lat="41.28251" lon="9.3288">
        <ele>-1.3</ele>
        <time>2017-10-12T12:13:27Z</time>
      </trkpt>
      <trkpt lat="41.28219" lon="9.32907">
        <ele>-1.3</ele>
        <time>2017-10-12T12:13:40Z</time>
      </trkpt>
      <trkpt lat="41.28193" lon="9.32923">
        <ele>-2.27</ele>
        <time>2017-10-12T12:13:50Z</time>
      </trkpt>
      <trkpt lat="41.28165" lon="9.32949">
        <ele>-1.79</ele>
        <time>2017-10-12T12:14:01Z</time>
      </trkpt>
      <trkpt lat="41.28137" lon="9.32978">
        <ele>-1.79</ele>
        <time>2017-10-12T12:14:12Z</time>
      </trkpt>
      <trkpt lat="41.28113" lon="9.33009">
        <ele>-1.79</ele>
        <time>2017-10-12T12:14:23Z</time>
      </trkpt>
      <trkpt lat="41.2809" lon="9.33037">
        <ele>-0.82</ele>
        <time>2017-10-12T12:14:33Z</time>
      </trkpt>
      <trkpt lat="41.28063" lon="9.3306">
        <ele>-1.79</ele>
        <time>2017-10-12T12:14:43Z</time>
      </trkpt>
      <trkpt lat="41.28039" lon="9.33083">
        <ele>-2.27</ele>
        <time>2017-10-12T12:14:53Z</time>
      </trkpt>
      <trkpt lat="41.28009" lon="9.33112">
        <ele>-1.79</ele>
        <time>2017-10-12T12:15:06Z</time>
      </trkpt>
      <trkpt lat="41.27982" lon="9.3314">
        <ele>-1.79</ele>
        <time>2017-10-12T12:15:17Z</time>
      </trkpt>
      <trkpt lat="41.27959" lon="9.33174">
        <ele>-1.79</ele>
        <time>2017-10-12T12:15:29Z</time>
      </trkpt>
      <trkpt lat="41.27935" lon="9.33203">
        <ele>-1.79</ele>
        <time>2017-10-12T12:15:40Z</time>
      </trkpt>
      <trkpt lat="41.27916" lon="9.33239">
        <ele>-1.3</ele>
        <time>2017-10-12T12:15:52Z</time>
      </trkpt>
      <trkpt lat="41.27898" lon="9.33276">
        <ele>-1.3</ele>
        <time>2017-10-12T12:16:04Z</time>
      </trkpt>
      <trkpt lat="41.27872" lon="9.33307">
        <ele>-1.79</ele>
        <time>2017-10-12T12:16:16Z</time>
      </trkpt>
      <trkpt lat="41.27849" lon="9.33343">
        <ele>-1.79</ele>
        <time>2017-10-12T12:16:28Z</time>
      </trkpt>
      <trkpt lat="41.27825" lon="9.33383">
        <ele>-1.3</ele>
        <time>2017-10-12T12:16:42Z</time>
      </trkpt>
      <trkpt lat="41.27807" lon="9.33424">
        <ele>-1.79</ele>
        <time>2017-10-12T12:16:56Z</time>
      </trkpt>
      <trkpt lat="41.27791" lon="9.33454">
        <ele>-2.27</ele>
        <time>2017-10-12T12:17:07Z</time>
      </trkpt>
      <trkpt lat="41.27773" lon="9.33495">
        <ele>-2.75</ele>
        <time>2017-10-12T12:17:21Z</time>
      </trkpt>
      <trkpt lat="41.27753" lon="9.33538">
        <ele>-2.75</ele>
        <time>2017-10-12T12:17:36Z</time>
      </trkpt>
      <trkpt lat="41.27733" lon="9.33576">
        <ele>-2.75</ele>
        <time>2017-10-12T12:17:49Z</time>
      </trkpt>
      <trkpt lat="41.27718" lon="9.33608">
        <ele>-2.75</ele>
        <time>2017-10-12T12:18:00Z</time>
      </trkpt>
      <trkpt lat="41.27696" lon="9.33641">
        <ele>-2.75</ele>
        <time>2017-10-12T12:18:11Z</time>
      </trkpt>
      <trkpt lat="41.27675" lon="9.3368">
        <ele>-2.75</ele>
        <time>2017-10-12T12:18:24Z</time>
      </trkpt>
      <trkpt lat="41.27652" lon="9.33725">
        <ele>-2.75</ele>
        <time>2017-10-12T12:18:38Z</time>
      </trkpt>
      <trkpt lat="41.27632" lon="9.33765">
        <ele>-2.27</ele>
        <time>2017-10-12T12:18:51Z</time>
      </trkpt>
      <trkpt lat="41.27609" lon="9.33807">
        <ele>-1.79</ele>
        <time>2017-10-12T12:19:05Z</time>
      </trkpt>
      <trkpt lat="41.27587" lon="9.33845">
        <ele>-1.3</ele>
        <time>2017-10-12T12:19:18Z</time>
      </trkpt>
      <trkpt lat="41.27562" lon="9.33886">
        <ele>-1.3</ele>
        <time>2017-10-12T12:19:32Z</time>
      </trkpt>
      <trkpt lat="41.27536" lon="9.33931">
        <ele>-1.3</ele>
        <time>2017-10-12T12:19:47Z</time>
      </trkpt>
      <trkpt lat="41.27514" lon="9.33977">
        <ele>-0.82</ele>
        <time>2017-10-12T12:20:02Z</time>
      </trkpt>
      <trkpt lat="41.27493" lon="9.34017">
        <ele>-1.3</ele>
        <time>2017-10-12T12:20:16Z</time>
      </trkpt>
      <trkpt lat="41.27472" lon="9.34059">
        <ele>-1.79</ele>
        <time>2017-10-12T12:20:30Z</time>
      </trkpt>
      <trkpt lat="41.2745" lon="9.34121">
        <ele>-1.3</ele>
        <time>2017-10-12T12:20:48Z</time>
      </trkpt>
      <trkpt lat="41.27433" lon="9.34182">
        <ele>-2.27</ele>
        <time>2017-10-12T12:21:06Z</time>
      </trkpt>
      <trkpt lat="41.27416" lon="9.34234">
        <ele>-2.75</ele>
        <time>2017-10-12T12:21:22Z</time>
      </trkpt>
      <trkpt lat="41.27398" lon="9.34282">
        <ele>-1.79</ele>
        <time>2017-10-12T12:21:37Z</time>
      </trkpt>
      <trkpt lat="41.27382" lon="9.34325">
        <ele>-1.79</ele>
        <time>2017-10-12T12:21:50Z</time>
      </trkpt>
      <trkpt lat="41.27366" lon="9.3438">
        <ele>-2.75</ele>
        <time>2017-10-12T12:22:06Z</time>
      </trkpt>
      <trkpt lat="41.2735" lon="9.34423">
        <ele>-2.75</ele>
        <time>2017-10-12T12:22:19Z</time>
      </trkpt>
      <trkpt lat="41.2733" lon="9.34462">
        <ele>-2.27</ele>
        <time>2017-10-12T12:22:32Z</time>
      </trkpt>
      <trkpt lat="41.27312" lon="9.3451">
        <ele>-2.27</ele>
        <time>2017-10-12T12:22:46Z</time>
      </trkpt>
      <trkpt lat="41.27296" lon="9.34552">
        <ele>-0.82</ele>
        <time>2017-10-12T12:22:58Z</time>
      </trkpt>
      <trkpt lat="41.27285" lon="9.34601">
        <ele>-1.79</ele>
        <time>2017-10-12T12:23:12Z</time>
      </trkpt>
      <trkpt lat="41.27269" lon="9.34662">
        <ele>-2.27</ele>
        <time>2017-10-12T12:23:31Z</time>
      </trkpt>
      <trkpt lat="41.27256" lon="9.34709">
        <ele>-2.75</ele>
        <time>2017-10-12T12:23:46Z</time>
      </trkpt>
      <trkpt lat="41.27241" lon="9.34752">
        <ele>-2.27</ele>
        <time>2017-10-12T12:24:00Z</time>
      </trkpt>
      <trkpt lat="41.2723" lon="9.34785">
        <ele>-2.27</ele>
        <time>2017-10-12T12:24:11Z</time>
      </trkpt>
      <trkpt lat="41.27216" lon="9.34832">
        <ele>-2.27</ele>
        <time>2017-10-12T12:24:26Z</time>
      </trkpt>
      <trkpt lat="41.27203" lon="9.3487">
        <ele>-1.79</ele>
        <time>2017-10-12T12:24:39Z</time>
      </trkpt>
      <trkpt lat="41.2719" lon="9.34917">
        <ele>-2.27</ele>
        <time>2017-10-12T12:24:54Z</time>
      </trkpt>
      <trkpt lat="41.27177" lon="9.34958">
        <ele>-1.79</ele>
        <time>2017-10-12T12:25:07Z</time>
      </trkpt>
      <trkpt lat="41.27168" lon="9.34987">
        <ele>-1.79</ele>
        <time>2017-10-12T12:25:17Z</time>
      </trkpt>
      <trkpt lat="41.27159" lon="9.35024">
        <ele>-1.3</ele>
        <time>2017-10-12T12:25:30Z</time>
      </trkpt>
      <trkpt lat="41.27152" lon="9.35064">
        <ele>-1.3</ele>
        <time>2017-10-12T12:25:44Z</time>
      </trkpt>
      <trkpt lat="41.27137" lon="9.35111">
        <ele>-2.27</ele>
        <time>2017-10-12T12:26:00Z</time>
      </trkpt>
      <trkpt lat="41.27118" lon="9.35162">
        <ele>-2.75</ele>
        <time>2017-10-12T12:26:17Z</time>
      </trkpt>
      <trkpt lat="41.27101" lon="9.35198">
        <ele>-2.75</ele>
        <time>2017-10-12T12:26:29Z</time>
      </trkpt>
      <trkpt lat="41.2709" lon="9.35237">
        <ele>-2.75</ele>
        <time>2017-10-12T12:26:42Z</time>
      </trkpt>
      <trkpt lat="41.27061" lon="9.35243">
        <ele>-2.27</ele>
        <time>2017-10-12T12:26:56Z</time>
      </trkpt>
      <trkpt lat="41.27054" lon="9.35243">
        <ele>-2.27</ele>
        <time>2017-10-12T12:27:00Z</time>
      </trkpt>
      <trkpt lat="41.27045" lon="9.35238">
        <ele>-2.27</ele>
        <time>2017-10-12T12:27:14Z</time>
      </trkpt>
      <trkpt lat="41.27043" lon="9.3524">
        <ele>-1.3</ele>
        <time>2017-10-12T12:27:25Z</time>
      </trkpt>
      <trkpt lat="41.27038" lon="9.35245">
        <ele>-1.3</ele>
        <time>2017-10-12T12:27:35Z</time>
      </trkpt>
      <trkpt lat="41.27036" lon="9.35246">
        <ele>-1.3</ele>
        <time>2017-10-12T12:27:38Z</time>
      </trkpt>
      <trkpt lat="41.2703" lon="9.35249">
        <ele>-0.82</ele>
        <time>2017-10-12T12:27:46Z</time>
      </trkpt>
      <trkpt lat="41.27025" lon="9.35249">
        <ele>-1.3</ele>
        <time>2017-10-12T12:27:51Z</time>
      </trkpt>
      <trkpt lat="41.27017" lon="9.35247">
        <ele>-1.3</ele>
        <time>2017-10-12T12:27:58Z</time>
      </trkpt>
      <trkpt lat="41.27007" lon="9.35252">
        <ele>-0.82</ele>
        <time>2017-10-12T12:28:05Z</time>
      </trkpt>
      <trkpt lat="41.26998" lon="9.35291">
        <ele>-1.3</ele>
        <time>2017-10-12T12:28:21Z</time>
      </trkpt>
      <trkpt lat="41.27009" lon="9.35314">
        <ele>-1.3</ele>
        <time>2017-10-12T12:28:31Z</time>
      </trkpt>
      <trkpt lat="41.27029" lon="9.35349">
        <ele>-1.3</ele>
        <time>2017-10-12T12:28:46Z</time>
      </trkpt>
      <trkpt lat="41.27044" lon="9.35372">
        <ele>-1.79</ele>
        <time>2017-10-12T12:28:56Z</time>
      </trkpt>
      <trkpt lat="41.27061" lon="9.35405">
        <ele>-1.79</ele>
        <time>2017-10-12T12:29:09Z</time>
      </trkpt>
      <trkpt lat="41.2708" lon="9.35439">
        <ele>-1.3</ele>
        <time>2017-10-12T12:29:22Z</time>
      </trkpt>
      <trkpt lat="41.27102" lon="9.3547">
        <ele>-1.79</ele>
        <time>2017-10-12T12:29:34Z</time>
      </trkpt>
      <trkpt lat="41.2713" lon="9.35505">
        <ele>-1.3</ele>
        <time>2017-10-12T12:29:48Z</time>
      </trkpt>
      <trkpt lat="41.27156" lon="9.35539">
        <ele>-0.82</ele>
        <time>2017-10-12T12:30:02Z</time>
      </trkpt>
      <trkpt lat="41.27175" lon="9.35567">
        <ele>-1.3</ele>
        <time>2017-10-12T12:30:15Z</time>
      </trkpt>
      <trkpt lat="41.27194" lon="9.35595">
        <ele>-0.82</ele>
        <time>2017-10-12T12:30:28Z</time>
      </trkpt>
      <trkpt lat="41.27211" lon="9.35624">
        <ele>-1.3</ele>
        <time>2017-10-12T12:30:41Z</time>
      </trkpt>
      <trkpt lat="41.27228" lon="9.35667">
        <ele>-1.79</ele>
        <time>2017-10-12T12:30:58Z</time>
      </trkpt>
      <trkpt lat="41.27247" lon="9.35699">
        <ele>-1.79</ele>
        <time>2017-10-12T12:31:12Z</time>
      </trkpt>
      <trkpt lat="41.27264" lon="9.35724">
        <ele>-1.79</ele>
        <time>2017-10-12T12:31:24Z</time>
      </trkpt>
      <trkpt lat="41.27277" lon="9.35743">
        <ele>-1.79</ele>
        <time>2017-10-12T12:31:33Z</time>
      </trkpt>
      <trkpt lat="41.27295" lon="9.35777">
        <ele>-1.79</ele>
        <time>2017-10-12T12:31:49Z</time>
      </trkpt>
      <trkpt lat="41.27314" lon="9.35804">
        <ele>-1.79</ele>
        <time>2017-10-12T12:32:04Z</time>
      </trkpt>
      <trkpt lat="41.27324" lon="9.35815">
        <ele>-1.79</ele>
        <time>2017-10-12T12:32:12Z</time>
      </trkpt>
      <trkpt lat="41.27331" lon="9.35822">
        <ele>-1.79</ele>
        <time>2017-10-12T12:32:17Z</time>
      </trkpt>
      <trkpt lat="41.27349" lon="9.35839">
        <ele>-1.3</ele>
        <time>2017-10-12T12:32:29Z</time>
      </trkpt>
      <trkpt lat="41.2737" lon="9.35864">
        <ele>-1.3</ele>
        <time>2017-10-12T12:32:45Z</time>
      </trkpt>
      <trkpt lat="41.27379" lon="9.35872">
        <ele>-1.3</ele>
        <time>2017-10-12T12:32:51Z</time>
      </trkpt>
      <trkpt lat="41.27399" lon="9.35889">
        <ele>-1.3</ele>
        <time>2017-10-12T12:33:05Z</time>
      </trkpt>
      <trkpt lat="41.27417" lon="9.35906">
        <ele>-1.3</ele>
        <time>2017-10-12T12:33:19Z</time>
      </trkpt>
      <trkpt lat="41.27439" lon="9.3593">
        <ele>-1.3</ele>
        <time>2017-10-12T12:33:36Z</time>
      </trkpt>
      <trkpt lat="41.27457" lon="9.35956">
        <ele>-1.79</ele>
        <time>2017-10-12T12:33:51Z</time>
      </trkpt>
      <trkpt lat="41.27481" lon="9.35974">
        <ele>-1.3</ele>
        <time>2017-10-12T12:34:09Z</time>
      </trkpt>
      <trkpt lat="41.27501" lon="9.35985">
        <ele>-1.3</ele>
        <time>2017-10-12T12:34:23Z</time>
      </trkpt>
      <trkpt lat="41.27521" lon="9.35999">
        <ele>-0.82</ele>
        <time>2017-10-12T12:34:39Z</time>
      </trkpt>
      <trkpt lat="41.2754" lon="9.36013">
        <ele>-1.3</ele>
        <time>2017-10-12T12:34:54Z</time>
      </trkpt>
      <trkpt lat="41.27568" lon="9.36033">
        <ele>-1.3</ele>
        <time>2017-10-12T12:35:15Z</time>
      </trkpt>
      <trkpt lat="41.27583" lon="9.36046">
        <ele>-0.82</ele>
        <time>2017-10-12T12:35:27Z</time>
      </trkpt>
      <trkpt lat="41.27603" lon="9.36061">
        <ele>-0.82</ele>
        <time>2017-10-12T12:35:42Z</time>
      </trkpt>
      <trkpt lat="41.27624" lon="9.36073">
        <ele>-0.34</ele>
        <time>2017-10-12T12:35:58Z</time>
      </trkpt>
      <trkpt lat="41.27645" lon="9.36079">
        <ele>-0.82</ele>
        <time>2017-10-12T12:36:14Z</time>
      </trkpt>
      <trkpt lat="41.27655" lon="9.36081">
        <ele>-0.34</ele>
        <time>2017-10-12T12:36:22Z</time>
      </trkpt>
      <trkpt lat="41.27675" lon="9.36086">
        <ele>-0.34</ele>
        <time>2017-10-12T12:36:38Z</time>
      </trkpt>
      <trkpt lat="41.27694" lon="9.36092">
        <ele>0.14</ele>
        <time>2017-10-12T12:36:54Z</time>
      </trkpt>
      <trkpt lat="41.27715" lon="9.36098">
        <ele>0.14</ele>
        <time>2017-10-12T12:37:11Z</time>
      </trkpt>
      <trkpt lat="41.27718" lon="9.36099">
        <ele>0.14</ele>
        <time>2017-10-12T12:37:13Z</time>
      </trkpt>
      <trkpt lat="41.27741" lon="9.36107">
        <ele>0.14</ele>
        <time>2017-10-12T12:37:32Z</time>
      </trkpt>
      <trkpt lat="41.27764" lon="9.36114">
        <ele>0.62</ele>
        <time>2017-10-12T12:37:51Z</time>
      </trkpt>
      <trkpt lat="41.27788" lon="9.36121">
        <ele>0.14</ele>
        <time>2017-10-12T12:38:11Z</time>
      </trkpt>
      <trkpt lat="41.27808" lon="9.36125">
        <ele>-0.34</ele>
        <time>2017-10-12T12:38:28Z</time>
      </trkpt>
      <trkpt lat="41.27832" lon="9.36127">
        <ele>-0.34</ele>
        <time>2017-10-12T12:38:49Z</time>
      </trkpt>
      <trkpt lat="41.27856" lon="9.36126">
        <ele>-0.82</ele>
        <time>2017-10-12T12:39:09Z</time>
      </trkpt>
      <trkpt lat="41.27885" lon="9.36127">
        <ele>-0.82</ele>
        <time>2017-10-12T12:39:31Z</time>
      </trkpt>
      <trkpt lat="41.27916" lon="9.3613">
        <ele>-0.34</ele>
        <time>2017-10-12T12:39:50Z</time>
      </trkpt>
      <trkpt lat="41.27941" lon="9.36136">
        <ele>-0.82</ele>
        <time>2017-10-12T12:40:08Z</time>
      </trkpt>
      <trkpt lat="41.2796" lon="9.36141">
        <ele>-0.82</ele>
        <time>2017-10-12T12:40:25Z</time>
      </trkpt>
      <trkpt lat="41.2799" lon="9.36146">
        <ele>-1.3</ele>
        <time>2017-10-12T12:40:52Z</time>
      </trkpt>
      <trkpt lat="41.28012" lon="9.36147">
        <ele>-1.3</ele>
        <time>2017-10-12T12:41:14Z</time>
      </trkpt>
      <trkpt lat="41.28043" lon="9.3615">
        <ele>-0.82</ele>
        <time>2017-10-12T12:41:36Z</time>
      </trkpt>
      <trkpt lat="41.28081" lon="9.36144">
        <ele>-1.3</ele>
        <time>2017-10-12T12:42:00Z</time>
      </trkpt>
      <trkpt lat="41.28123" lon="9.36132">
        <ele>-1.3</ele>
        <time>2017-10-12T12:42:26Z</time>
      </trkpt>
      <trkpt lat="41.28168" lon="9.36114">
        <ele>-1.79</ele>
        <time>2017-10-12T12:42:56Z</time>
      </trkpt>
      <trkpt lat="41.28205" lon="9.36098">
        <ele>-1.79</ele>
        <time>2017-10-12T12:43:22Z</time>
      </trkpt>
      <trkpt lat="41.28235" lon="9.36082">
        <ele>-0.82</ele>
        <time>2017-10-12T12:43:44Z</time>
      </trkpt>
      <trkpt lat="41.28271" lon="9.36065">
        <ele>-0.82</ele>
        <time>2017-10-12T12:44:10Z</time>
      </trkpt>
      <trkpt lat="41.28303" lon="9.36078">
        <ele>-1.79</ele>
        <time>2017-10-12T12:44:33Z</time>
      </trkpt>
      <trkpt lat="41.28331" lon="9.36085">
        <ele>-0.34</ele>
        <time>2017-10-12T12:44:50Z</time>
      </trkpt>
      <trkpt lat="41.28366" lon="9.36077">
        <ele>-0.82</ele>
        <time>2017-10-12T12:45:18Z</time>
      </trkpt>
      <trkpt lat="41.28393" lon="9.36068">
        <ele>-0.34</ele>
        <time>2017-10-12T12:45:44Z</time>
      </trkpt>
      <trkpt lat="41.28418" lon="9.36059">
        <ele>-1.3</ele>
        <time>2017-10-12T12:46:14Z</time>
      </trkpt>
      <trkpt lat="41.28423" lon="9.36059">
        <ele>-1.3</ele>
        <time>2017-10-12T12:46:35Z</time>
      </trkpt>
      <trkpt lat="41.28422" lon="9.36067">
        <ele>-1.3</ele>
        <time>2017-10-12T12:47:03Z</time>
      </trkpt>
      <trkpt lat="41.28429" lon="9.36083">
        <ele>-1.3</ele>
        <time>2017-10-12T12:47:33Z</time>
      </trkpt>
      <trkpt lat="41.28437" lon="9.36091">
        <ele>-0.82</ele>
        <time>2017-10-12T12:47:56Z</time>
      </trkpt>
      <trkpt lat="41.28438" lon="9.36096">
        <ele>-0.34</ele>
        <time>2017-10-12T12:48:18Z</time>
      </trkpt>
      <trkpt lat="41.28433" lon="9.36101">
        <ele>-1.3</ele>
        <time>2017-10-12T12:48:43Z</time>
      </trkpt>
      <trkpt lat="41.2843" lon="9.36099">
        <ele>-0.82</ele>
        <time>2017-10-12T12:48:48Z</time>
      </trkpt>
      <trkpt lat="41.28421" lon="9.3608">
        <ele>-0.82</ele>
        <time>2017-10-12T12:49:09Z</time>
      </trkpt>
      <trkpt lat="41.28416" lon="9.36059">
        <ele>-1.79</ele>
        <time>2017-10-12T12:49:30Z</time>
      </trkpt>
      <trkpt lat="41.28414" lon="9.36054">
        <ele>-1.79</ele>
        <time>2017-10-12T12:49:57Z</time>
      </trkpt>
      <trkpt lat="41.28414" lon="9.36054">
        <ele>-1.3</ele>
        <time>2017-10-12T12:50:22Z</time>
      </trkpt>
      <trkpt lat="41.28416" lon="9.36051">
        <ele>-1.3</ele>
        <time>2017-10-12T12:50:47Z</time>
      </trkpt>
      <trkpt lat="41.28419" lon="9.3606">
        <ele>-0.82</ele>
        <time>2017-10-12T12:51:14Z</time>
      </trkpt>
      <trkpt lat="41.28417" lon="9.36071">
        <ele>-0.34</ele>
        <time>2017-10-12T12:51:39Z</time>
      </trkpt>
      <trkpt lat="41.28419" lon="9.3607">
        <ele>-0.34</ele>
        <time>2017-10-12T12:52:03Z</time>
      </trkpt>
      <trkpt lat="41.28425" lon="9.36068">
        <ele>-0.34</ele>
        <time>2017-10-12T12:52:25Z</time>
      </trkpt>
      <trkpt lat="41.28432" lon="9.36062">
        <ele>0.62</ele>
        <time>2017-10-12T12:52:52Z</time>
      </trkpt>
      <trkpt lat="41.28431" lon="9.36062">
        <ele>0.14</ele>
        <time>2017-10-12T12:53:23Z</time>
      </trkpt>
      <trkpt lat="41.28432" lon="9.36061">
        <ele>0.14</ele>
        <time>2017-10-12T12:53:48Z</time>
      </trkpt>
      <trkpt lat="41.28433" lon="9.36062">
        <ele>-0.34</ele>
        <time>2017-10-12T12:54:15Z</time>
      </trkpt>
      <trkpt lat="41.28432" lon="9.36067">
        <ele>-0.82</ele>
        <time>2017-10-12T12:54:38Z</time>
      </trkpt>
      <trkpt lat="41.28426" lon="9.36076">
        <ele>-0.34</ele>
        <time>2017-10-12T12:55:03Z</time>
      </trkpt>
      <trkpt lat="41.2842" lon="9.3608">
        <ele>2.06</ele>
        <time>2017-10-12T12:55:27Z</time>
      </trkpt>
      <trkpt lat="41.28417" lon="9.36077">
        <ele>3.02</ele>
        <time>2017-10-12T12:55:47Z</time>
      </trkpt>
      <trkpt lat="41.28418" lon="9.36059">
        <ele>1.58</ele>
        <time>2017-10-12T12:56:06Z</time>
      </trkpt>
      <trkpt lat="41.28419" lon="9.3605">
        <ele>0.62</ele>
        <time>2017-10-12T12:56:29Z</time>
      </trkpt>
      <trkpt lat="41.2842" lon="9.36056">
        <ele>0.14</ele>
        <time>2017-10-12T12:56:49Z</time>
      </trkpt>
      <trkpt lat="41.28422" lon="9.36057">
        <ele>-0.34</ele>
        <time>2017-10-12T12:57:12Z</time>
      </trkpt>
      <trkpt lat="41.28424" lon="9.36056">
        <ele>-0.82</ele>
        <time>2017-10-12T12:57:33Z</time>
      </trkpt>
      <trkpt lat="41.28425" lon="9.36053">
        <ele>-1.3</ele>
        <time>2017-10-12T12:57:57Z</time>
      </trkpt>
      <trkpt lat="41.28422" lon="9.36051">
        <ele>-0.82</ele>
        <time>2017-10-12T12:58:21Z</time>
      </trkpt>
      <trkpt lat="41.28418" lon="9.36064">
        <ele>-0.34</ele>
        <time>2017-10-12T12:58:52Z</time>
      </trkpt>
      <trkpt lat="41.28416" lon="9.3607">
        <ele>-1.3</ele>
        <time>2017-10-12T12:59:21Z</time>
      </trkpt>
      <trkpt lat="41.28427" lon="9.36066">
        <ele>-0.82</ele>
        <time>2017-10-12T12:59:49Z</time>
      </trkpt>
      <trkpt lat="41.28428" lon="9.36063">
        <ele>-0.34</ele>
        <time>2017-10-12T13:00:13Z</time>
      </trkpt>
      <trkpt lat="41.28429" lon="9.36057">
        <ele>-0.82</ele>
        <time>2017-10-12T13:00:43Z</time>
      </trkpt>
      <trkpt lat="41.2843" lon="9.36057">
        <ele>-0.82</ele>
        <time>2017-10-12T13:00:47Z</time>
      </trkpt>
      <trkpt lat="41.2842" lon="9.36063">
        <ele>-0.34</ele>
        <time>2017-10-12T14:55:09Z</time>
      </trkpt>
      <trkpt lat="41.28418" lon="9.36067">
        <ele>-0.34</ele>
        <time>2017-10-12T14:55:32Z</time>
      </trkpt>
      <trkpt lat="41.28421" lon="9.36065">
        <ele>0.14</ele>
        <time>2017-10-12T14:55:57Z</time>
      </trkpt>
      <trkpt lat="41.28424" lon="9.36062">
        <ele>-0.34</ele>
        <time>2017-10-12T14:56:19Z</time>
      </trkpt>
      <trkpt lat="41.28422" lon="9.36066">
        <ele>-0.34</ele>
        <time>2017-10-12T14:56:45Z</time>
      </trkpt>
      <trkpt lat="41.28421" lon="9.36063">
        <ele>-0.82</ele>
        <time>2017-10-12T14:57:08Z</time>
      </trkpt>
      <trkpt lat="41.28414" lon="9.36058">
        <ele>-0.34</ele>
        <time>2017-10-12T14:57:21Z</time>
      </trkpt>
      <trkpt lat="41.2838" lon="9.36072">
        <ele>1.1</ele>
        <time>2017-10-12T14:57:45Z</time>
      </trkpt>
      <trkpt lat="41.28338" lon="9.36097">
        <ele>1.58</ele>
        <time>2017-10-12T14:58:08Z</time>
      </trkpt>
      <trkpt lat="41.28298" lon="9.36113">
        <ele>0.62</ele>
        <time>2017-10-12T14:58:28Z</time>
      </trkpt>
      <trkpt lat="41.28259" lon="9.36122">
        <ele>1.1</ele>
        <time>2017-10-12T14:58:47Z</time>
      </trkpt>
      <trkpt lat="41.28211" lon="9.3613">
        <ele>1.1</ele>
        <time>2017-10-12T14:59:10Z</time>
      </trkpt>
      <trkpt lat="41.28158" lon="9.36136">
        <ele>0.62</ele>
        <time>2017-10-12T14:59:35Z</time>
      </trkpt>
      <trkpt lat="41.28111" lon="9.36142">
        <ele>0.62</ele>
        <time>2017-10-12T14:59:58Z</time>
      </trkpt>
      <trkpt lat="41.28079" lon="9.36138">
        <ele>-0.34</ele>
        <time>2017-10-12T15:00:14Z</time>
      </trkpt>
      <trkpt lat="41.28061" lon="9.3611">
        <ele>-0.82</ele>
        <time>2017-10-12T15:00:35Z</time>
      </trkpt>
      <trkpt lat="41.28057" lon="9.36097">
        <ele>-0.82</ele>
        <time>2017-10-12T15:00:46Z</time>
      </trkpt>
      <trkpt lat="41.28047" lon="9.36075">
        <ele>0.62</ele>
        <time>2017-10-12T15:01:08Z</time>
      </trkpt>
      <trkpt lat="41.28044" lon="9.36072">
        <ele>0.14</ele>
        <time>2017-10-12T15:01:13Z</time>
      </trkpt>
      <trkpt lat="41.28034" lon="9.36075">
        <ele>0.14</ele>
        <time>2017-10-12T15:01:22Z</time>
      </trkpt>
      <trkpt lat="41.27996" lon="9.36087">
        <ele>1.1</ele>
        <time>2017-10-12T15:01:49Z</time>
      </trkpt>
      <trkpt lat="41.27957" lon="9.36094">
        <ele>0.62</ele>
        <time>2017-10-12T15:02:16Z</time>
      </trkpt>
      <trkpt lat="41.27908" lon="9.36103">
        <ele>-0.34</ele>
        <time>2017-10-12T15:02:42Z</time>
      </trkpt>
      <trkpt lat="41.27852" lon="9.36108">
        <ele>0.62</ele>
        <time>2017-10-12T15:03:02Z</time>
      </trkpt>
      <trkpt lat="41.27795" lon="9.36112">
        <ele>0.14</ele>
        <time>2017-10-12T15:03:19Z</time>
      </trkpt>
      <trkpt lat="41.27734" lon="9.36124">
        <ele>0.62</ele>
        <time>2017-10-12T15:03:36Z</time>
      </trkpt>
      <trkpt lat="41.27686" lon="9.36141">
        <ele>0.14</ele>
        <time>2017-10-12T15:03:50Z</time>
      </trkpt>
      <trkpt lat="41.27636" lon="9.36167">
        <ele>0.14</ele>
        <time>2017-10-12T15:04:05Z</time>
      </trkpt>
      <trkpt lat="41.27585" lon="9.36179">
        <ele>1.1</ele>
        <time>2017-10-12T15:04:19Z</time>
      </trkpt>
      <trkpt lat="41.27536" lon="9.36207">
        <ele>0.14</ele>
        <time>2017-10-12T15:04:34Z</time>
      </trkpt>
      <trkpt lat="41.27497" lon="9.36228">
        <ele>0.62</ele>
        <time>2017-10-12T15:04:46Z</time>
      </trkpt>
      <trkpt lat="41.27461" lon="9.36246">
        <ele>0.62</ele>
        <time>2017-10-12T15:04:57Z</time>
      </trkpt>
      <trkpt lat="41.27405" lon="9.36268">
        <ele>0.62</ele>
        <time>2017-10-12T15:05:14Z</time>
      </trkpt>
      <trkpt lat="41.27353" lon="9.36287">
        <ele>0.62</ele>
        <time>2017-10-12T15:05:29Z</time>
      </trkpt>
      <trkpt lat="41.2731" lon="9.36303">
        <ele>0.62</ele>
        <time>2017-10-12T15:05:42Z</time>
      </trkpt>
      <trkpt lat="41.27261" lon="9.36317">
        <ele>0.62</ele>
        <time>2017-10-12T15:05:56Z</time>
      </trkpt>
      <trkpt lat="41.27223" lon="9.36328">
        <ele>1.1</ele>
        <time>2017-10-12T15:06:07Z</time>
      </trkpt>
      <trkpt lat="41.2718" lon="9.36335">
        <ele>0.62</ele>
        <time>2017-10-12T15:06:19Z</time>
      </trkpt>
      <trkpt lat="41.27132" lon="9.3636">
        <ele>0.62</ele>
        <time>2017-10-12T15:06:33Z</time>
      </trkpt>
      <trkpt lat="41.27071" lon="9.36389">
        <ele>1.58</ele>
        <time>2017-10-12T15:06:51Z</time>
      </trkpt>
      <trkpt lat="41.27026" lon="9.36406">
        <ele>1.58</ele>
        <time>2017-10-12T15:07:04Z</time>
      </trkpt>
      <trkpt lat="41.26977" lon="9.36425">
        <ele>1.58</ele>
        <time>2017-10-12T15:07:18Z</time>
      </trkpt>
      <trkpt lat="41.26937" lon="9.36443">
        <ele>1.1</ele>
        <time>2017-10-12T15:07:30Z</time>
      </trkpt>
      <trkpt lat="41.269" lon="9.36456">
        <ele>0.62</ele>
        <time>2017-10-12T15:07:41Z</time>
      </trkpt>
      <trkpt lat="41.26859" lon="9.36471">
        <ele>1.58</ele>
        <time>2017-10-12T15:07:53Z</time>
      </trkpt>
      <trkpt lat="41.26826" lon="9.36481">
        <ele>1.58</ele>
        <time>2017-10-12T15:08:03Z</time>
      </trkpt>
      <trkpt lat="41.26784" lon="9.36492">
        <ele>2.06</ele>
        <time>2017-10-12T15:08:15Z</time>
      </trkpt>
      <trkpt lat="41.26737" lon="9.36509">
        <ele>1.58</ele>
        <time>2017-10-12T15:08:29Z</time>
      </trkpt>
      <trkpt lat="41.267" lon="9.36518">
        <ele>1.1</ele>
        <time>2017-10-12T15:08:40Z</time>
      </trkpt>
      <trkpt lat="41.26658" lon="9.36526">
        <ele>0.62</ele>
        <time>2017-10-12T15:08:52Z</time>
      </trkpt>
      <trkpt lat="41.26616" lon="9.36538">
        <ele>0.62</ele>
        <time>2017-10-12T15:09:04Z</time>
      </trkpt>
      <trkpt lat="41.2657" lon="9.36551">
        <ele>0.62</ele>
        <time>2017-10-12T15:09:17Z</time>
      </trkpt>
      <trkpt lat="41.26523" lon="9.36566">
        <ele>0.14</ele>
        <time>2017-10-12T15:09:31Z</time>
      </trkpt>
      <trkpt lat="41.26484" lon="9.36577">
        <ele>-0.34</ele>
        <time>2017-10-12T15:09:43Z</time>
      </trkpt>
      <trkpt lat="41.26455" lon="9.36586">
        <ele>0.62</ele>
        <time>2017-10-12T15:09:52Z</time>
      </trkpt>
      <trkpt lat="41.26431" lon="9.36587">
        <ele>0.14</ele>
        <time>2017-10-12T15:09:59Z</time>
      </trkpt>
      <trkpt lat="41.26383" lon="9.36595">
        <ele>0.14</ele>
        <time>2017-10-12T15:10:13Z</time>
      </trkpt>
      <trkpt lat="41.26344" lon="9.36599">
        <ele>0.62</ele>
        <time>2017-10-12T15:10:24Z</time>
      </trkpt>
      <trkpt lat="41.26297" lon="9.36612">
        <ele>1.1</ele>
        <time>2017-10-12T15:10:38Z</time>
      </trkpt>
      <trkpt lat="41.26264" lon="9.36619">
        <ele>0.62</ele>
        <time>2017-10-12T15:10:48Z</time>
      </trkpt>
      <trkpt lat="41.26219" lon="9.36624">
        <ele>1.1</ele>
        <time>2017-10-12T15:11:01Z</time>
      </trkpt>
      <trkpt lat="41.26177" lon="9.36628">
        <ele>1.1</ele>
        <time>2017-10-12T15:11:13Z</time>
      </trkpt>
      <trkpt lat="41.26133" lon="9.3664">
        <ele>1.1</ele>
        <time>2017-10-12T15:11:26Z</time>
      </trkpt>
      <trkpt lat="41.26097" lon="9.3666">
        <ele>0.14</ele>
        <time>2017-10-12T15:11:38Z</time>
      </trkpt>
      <trkpt lat="41.26059" lon="9.36676">
        <ele>0.62</ele>
        <time>2017-10-12T15:11:50Z</time>
      </trkpt>
      <trkpt lat="41.2602" lon="9.3669">
        <ele>1.1</ele>
        <time>2017-10-12T15:12:02Z</time>
      </trkpt>
      <trkpt lat="41.25982" lon="9.367">
        <ele>1.58</ele>
        <time>2017-10-12T15:12:13Z</time>
      </trkpt>
      <trkpt lat="41.25937" lon="9.3671">
        <ele>0.62</ele>
        <time>2017-10-12T15:12:26Z</time>
      </trkpt>
      <trkpt lat="41.25891" lon="9.3672">
        <ele>2.06</ele>
        <time>2017-10-12T15:12:40Z</time>
      </trkpt>
      <trkpt lat="41.25857" lon="9.36721">
        <ele>2.54</ele>
        <time>2017-10-12T15:12:50Z</time>
      </trkpt>
      <trkpt lat="41.25816" lon="9.36727">
        <ele>1.58</ele>
        <time>2017-10-12T15:13:02Z</time>
      </trkpt>
      <trkpt lat="41.25774" lon="9.36731">
        <ele>0.62</ele>
        <time>2017-10-12T15:13:14Z</time>
      </trkpt>
      <trkpt lat="41.25745" lon="9.36735">
        <ele>0.62</ele>
        <time>2017-10-12T15:13:23Z</time>
      </trkpt>
      <trkpt lat="41.25709" lon="9.3674">
        <ele>0.62</ele>
        <time>2017-10-12T15:13:34Z</time>
      </trkpt>
      <trkpt lat="41.25671" lon="9.36742">
        <ele>1.58</ele>
        <time>2017-10-12T15:13:45Z</time>
      </trkpt>
      <trkpt lat="41.2564" lon="9.36747">
        <ele>1.58</ele>
        <time>2017-10-12T15:13:54Z</time>
      </trkpt>
      <trkpt lat="41.25603" lon="9.36755">
        <ele>1.1</ele>
        <time>2017-10-12T15:14:05Z</time>
      </trkpt>
      <trkpt lat="41.25559" lon="9.36763">
        <ele>1.58</ele>
        <time>2017-10-12T15:14:18Z</time>
      </trkpt>
      <trkpt lat="41.25511" lon="9.36771">
        <ele>2.06</ele>
        <time>2017-10-12T15:14:33Z</time>
      </trkpt>
      <trkpt lat="41.25478" lon="9.36769">
        <ele>1.58</ele>
        <time>2017-10-12T15:14:44Z</time>
      </trkpt>
      <trkpt lat="41.25442" lon="9.36756">
        <ele>0.14</ele>
        <time>2017-10-12T15:14:57Z</time>
      </trkpt>
      <trkpt lat="41.25406" lon="9.36742">
        <ele>0.14</ele>
        <time>2017-10-12T15:15:10Z</time>
      </trkpt>
      <trkpt lat="41.25365" lon="9.3673">
        <ele>0.62</ele>
        <time>2017-10-12T15:15:24Z</time>
      </trkpt>
      <trkpt lat="41.25331" lon="9.36718">
        <ele>0.62</ele>
        <time>2017-10-12T15:15:35Z</time>
      </trkpt>
      <trkpt lat="41.25293" lon="9.36709">
        <ele>1.1</ele>
        <time>2017-10-12T15:15:47Z</time>
      </trkpt>
      <trkpt lat="41.25253" lon="9.36699">
        <ele>0.62</ele>
        <time>2017-10-12T15:16:00Z</time>
      </trkpt>
      <trkpt lat="41.25204" lon="9.36692">
        <ele>0.14</ele>
        <time>2017-10-12T15:16:16Z</time>
      </trkpt>
      <trkpt lat="41.25171" lon="9.36689">
        <ele>0.62</ele>
        <time>2017-10-12T15:16:27Z</time>
      </trkpt>
      <trkpt lat="41.25124" lon="9.36679">
        <ele>0.62</ele>
        <time>2017-10-12T15:16:42Z</time>
      </trkpt>
      <trkpt lat="41.25083" lon="9.36673">
        <ele>-0.34</ele>
        <time>2017-10-12T15:16:55Z</time>
      </trkpt>
      <trkpt lat="41.2503" lon="9.36664">
        <ele>0.14</ele>
        <time>2017-10-12T15:17:12Z</time>
      </trkpt>
      <trkpt lat="41.24979" lon="9.36647">
        <ele>0.14</ele>
        <time>2017-10-12T15:17:28Z</time>
      </trkpt>
      <trkpt lat="41.24945" lon="9.36638">
        <ele>0.62</ele>
        <time>2017-10-12T15:17:39Z</time>
      </trkpt>
      <trkpt lat="41.24906" lon="9.3663">
        <ele>0.62</ele>
        <time>2017-10-12T15:17:51Z</time>
      </trkpt>
      <trkpt lat="41.24865" lon="9.36627">
        <ele>0.62</ele>
        <time>2017-10-12T15:18:04Z</time>
      </trkpt>
      <trkpt lat="41.24831" lon="9.36625">
        <ele>0.62</ele>
        <time>2017-10-12T15:18:15Z</time>
      </trkpt>
      <trkpt lat="41.24791" lon="9.36623">
        <ele>1.1</ele>
        <time>2017-10-12T15:18:28Z</time>
      </trkpt>
      <trkpt lat="41.24745" lon="9.36615">
        <ele>0.62</ele>
        <time>2017-10-12T15:18:43Z</time>
      </trkpt>
      <trkpt lat="41.24707" lon="9.36612">
        <ele>1.1</ele>
        <time>2017-10-12T15:18:56Z</time>
      </trkpt>
      <trkpt lat="41.24668" lon="9.36616">
        <ele>1.1</ele>
        <time>2017-10-12T15:19:09Z</time>
      </trkpt>
      <trkpt lat="41.24614" lon="9.36626">
        <ele>1.1</ele>
        <time>2017-10-12T15:19:26Z</time>
      </trkpt>
      <trkpt lat="41.2457" lon="9.36635">
        <ele>1.1</ele>
        <time>2017-10-12T15:19:41Z</time>
      </trkpt>
      <trkpt lat="41.24515" lon="9.3665">
        <ele>1.1</ele>
        <time>2017-10-12T15:20:00Z</time>
      </trkpt>
      <trkpt lat="41.24468" lon="9.36665">
        <ele>0.14</ele>
        <time>2017-10-12T15:20:17Z</time>
      </trkpt>
      <trkpt lat="41.24427" lon="9.36674">
        <ele>0.14</ele>
        <time>2017-10-12T15:20:30Z</time>
      </trkpt>
      <trkpt lat="41.24392" lon="9.36678">
        <ele>0.62</ele>
        <time>2017-10-12T15:20:42Z</time>
      </trkpt>
      <trkpt lat="41.24345" lon="9.36685">
        <ele>0.62</ele>
        <time>2017-10-12T15:20:58Z</time>
      </trkpt>
      <trkpt lat="41.24295" lon="9.36703">
        <ele>0.14</ele>
        <time>2017-10-12T15:21:18Z</time>
      </trkpt>
      <trkpt lat="41.24243" lon="9.36718">
        <ele>0.62</ele>
        <time>2017-10-12T15:21:37Z</time>
      </trkpt>
      <trkpt lat="41.24194" lon="9.36733">
        <ele>1.1</ele>
        <time>2017-10-12T15:21:56Z</time>
      </trkpt>
      <trkpt lat="41.24134" lon="9.36751">
        <ele>0.14</ele>
        <time>2017-10-12T15:22:17Z</time>
      </trkpt>
      <trkpt lat="41.24068" lon="9.36767">
        <ele>-0.34</ele>
        <time>2017-10-12T15:22:38Z</time>
      </trkpt>
      <trkpt lat="41.24017" lon="9.36784">
        <ele>0.14</ele>
        <time>2017-10-12T15:22:56Z</time>
      </trkpt>
      <trkpt lat="41.23958" lon="9.368">
        <ele>1.1</ele>
        <time>2017-10-12T15:23:17Z</time>
      </trkpt>
      <trkpt lat="41.23893" lon="9.36818">
        <ele>0.14</ele>
        <time>2017-10-12T15:23:39Z</time>
      </trkpt>
      <trkpt lat="41.23834" lon="9.36835">
        <ele>0.14</ele>
        <time>2017-10-12T15:23:58Z</time>
      </trkpt>
      <trkpt lat="41.23779" lon="9.36856">
        <ele>0.62</ele>
        <time>2017-10-12T15:24:19Z</time>
      </trkpt>
      <trkpt lat="41.23731" lon="9.36871">
        <ele>1.1</ele>
        <time>2017-10-12T15:24:37Z</time>
      </trkpt>
      <trkpt lat="41.23663" lon="9.36889">
        <ele>1.1</ele>
        <time>2017-10-12T15:24:59Z</time>
      </trkpt>
      <trkpt lat="41.23591" lon="9.36904">
        <ele>1.1</ele>
        <time>2017-10-12T15:25:21Z</time>
      </trkpt>
      <trkpt lat="41.23528" lon="9.3692">
        <ele>0.14</ele>
        <time>2017-10-12T15:25:43Z</time>
      </trkpt>
      <trkpt lat="41.2347" lon="9.36933">
        <ele>0.62</ele>
        <time>2017-10-12T15:26:05Z</time>
      </trkpt>
      <trkpt lat="41.23415" lon="9.36942">
        <ele>1.58</ele>
        <time>2017-10-12T15:26:24Z</time>
      </trkpt>
      <trkpt lat="41.23352" lon="9.36953">
        <ele>0.14</ele>
        <time>2017-10-12T15:26:44Z</time>
      </trkpt>
      <trkpt lat="41.23291" lon="9.36961">
        <ele>0.14</ele>
        <time>2017-10-12T15:27:04Z</time>
      </trkpt>
      <trkpt lat="41.23222" lon="9.36969">
        <ele>1.1</ele>
        <time>2017-10-12T15:27:25Z</time>
      </trkpt>
      <trkpt lat="41.23152" lon="9.36973">
        <ele>1.58</ele>
        <time>2017-10-12T15:27:48Z</time>
      </trkpt>
      <trkpt lat="41.23086" lon="9.36982">
        <ele>1.58</ele>
        <time>2017-10-12T15:28:09Z</time>
      </trkpt>
      <trkpt lat="41.2302" lon="9.36992">
        <ele>2.06</ele>
        <time>2017-10-12T15:28:30Z</time>
      </trkpt>
      <trkpt lat="41.22958" lon="9.37004">
        <ele>3.02</ele>
        <time>2017-10-12T15:28:51Z</time>
      </trkpt>
      <trkpt lat="41.22906" lon="9.37016">
        <ele>3.5</ele>
        <time>2017-10-12T15:29:09Z</time>
      </trkpt>
      <trkpt lat="41.22865" lon="9.37019">
        <ele>3.5</ele>
        <time>2017-10-12T15:29:24Z</time>
      </trkpt>
      <trkpt lat="41.22805" lon="9.37027">
        <ele>3.02</ele>
        <time>2017-10-12T15:29:45Z</time>
      </trkpt>
      <trkpt lat="41.22747" lon="9.37037">
        <ele>2.54</ele>
        <time>2017-10-12T15:30:05Z</time>
      </trkpt>
      <trkpt lat="41.22682" lon="9.37048">
        <ele>2.54</ele>
        <time>2017-10-12T15:30:28Z</time>
      </trkpt>
      <trkpt lat="41.22629" lon="9.37054">
        <ele>2.06</ele>
        <time>2017-10-12T15:30:47Z</time>
      </trkpt>
      <trkpt lat="41.22573" lon="9.37061">
        <ele>2.54</ele>
        <time>2017-10-12T15:31:07Z</time>
      </trkpt>
      <trkpt lat="41.22518" lon="9.37068">
        <ele>2.54</ele>
        <time>2017-10-12T15:31:26Z</time>
      </trkpt>
      <trkpt lat="41.22468" lon="9.37073">
        <ele>3.02</ele>
        <time>2017-10-12T15:31:42Z</time>
      </trkpt>
      <trkpt lat="41.22408" lon="9.37078">
        <ele>2.06</ele>
        <time>2017-10-12T15:32:01Z</time>
      </trkpt>
      <trkpt lat="41.2236" lon="9.37088">
        <ele>1.58</ele>
        <time>2017-10-12T15:32:17Z</time>
      </trkpt>
      <trkpt lat="41.22304" lon="9.37093">
        <ele>1.58</ele>
        <time>2017-10-12T15:32:35Z</time>
      </trkpt>
      <trkpt lat="41.22257" lon="9.37109">
        <ele>1.58</ele>
        <time>2017-10-12T15:32:51Z</time>
      </trkpt>
      <trkpt lat="41.22215" lon="9.37133">
        <ele>0.14</ele>
        <time>2017-10-12T15:33:07Z</time>
      </trkpt>
      <trkpt lat="41.22176" lon="9.37152">
        <ele>-0.34</ele>
        <time>2017-10-12T15:33:21Z</time>
      </trkpt>
      <trkpt lat="41.22129" lon="9.37174">
        <ele>0.14</ele>
        <time>2017-10-12T15:33:38Z</time>
      </trkpt>
      <trkpt lat="41.22084" lon="9.37196">
        <ele>0.14</ele>
        <time>2017-10-12T15:33:55Z</time>
      </trkpt>
      <trkpt lat="41.22045" lon="9.37217">
        <ele>-0.34</ele>
        <time>2017-10-12T15:34:11Z</time>
      </trkpt>
      <trkpt lat="41.22004" lon="9.37237">
        <ele>-0.34</ele>
        <time>2017-10-12T15:34:28Z</time>
      </trkpt>
      <trkpt lat="41.21963" lon="9.37259">
        <ele>0.14</ele>
        <time>2017-10-12T15:34:45Z</time>
      </trkpt>
      <trkpt lat="41.21917" lon="9.37282">
        <ele>0.62</ele>
        <time>2017-10-12T15:35:04Z</time>
      </trkpt>
      <trkpt lat="41.21874" lon="9.37305">
        <ele>1.1</ele>
        <time>2017-10-12T15:35:22Z</time>
      </trkpt>
      <trkpt lat="41.21833" lon="9.37327">
        <ele>1.1</ele>
        <time>2017-10-12T15:35:39Z</time>
      </trkpt>
      <trkpt lat="41.21794" lon="9.37347">
        <ele>1.58</ele>
        <time>2017-10-12T15:35:55Z</time>
      </trkpt>
      <trkpt lat="41.21747" lon="9.37367">
        <ele>0.62</ele>
        <time>2017-10-12T15:36:12Z</time>
      </trkpt>
      <trkpt lat="41.21701" lon="9.37387">
        <ele>1.1</ele>
        <time>2017-10-12T15:36:28Z</time>
      </trkpt>
      <trkpt lat="41.21648" lon="9.3741">
        <ele>1.1</ele>
        <time>2017-10-12T15:36:46Z</time>
      </trkpt>
      <trkpt lat="41.21606" lon="9.3743">
        <ele>1.1</ele>
        <time>2017-10-12T15:37:01Z</time>
      </trkpt>
      <trkpt lat="41.21566" lon="9.37451">
        <ele>2.06</ele>
        <time>2017-10-12T15:37:16Z</time>
      </trkpt>
      <trkpt lat="41.21525" lon="9.37473">
        <ele>1.58</ele>
        <time>2017-10-12T15:37:31Z</time>
      </trkpt>
      <trkpt lat="41.21477" lon="9.375">
        <ele>2.06</ele>
        <time>2017-10-12T15:37:49Z</time>
      </trkpt>
      <trkpt lat="41.21432" lon="9.37519">
        <ele>2.06</ele>
        <time>2017-10-12T15:38:06Z</time>
      </trkpt>
      <trkpt lat="41.21391" lon="9.37544">
        <ele>1.58</ele>
        <time>2017-10-12T15:38:22Z</time>
      </trkpt>
      <trkpt lat="41.21345" lon="9.37572">
        <ele>0.62</ele>
        <time>2017-10-12T15:38:40Z</time>
      </trkpt>
      <trkpt lat="41.21315" lon="9.3759">
        <ele>0.62</ele>
        <time>2017-10-12T15:38:52Z</time>
      </trkpt>
      <trkpt lat="41.21277" lon="9.3761">
        <ele>1.1</ele>
        <time>2017-10-12T15:39:06Z</time>
      </trkpt>
      <trkpt lat="41.21237" lon="9.3763">
        <ele>1.1</ele>
        <time>2017-10-12T15:39:20Z</time>
      </trkpt>
      <trkpt lat="41.2119" lon="9.3766">
        <ele>1.58</ele>
        <time>2017-10-12T15:39:38Z</time>
      </trkpt>
      <trkpt lat="41.21151" lon="9.37683">
        <ele>2.54</ele>
        <time>2017-10-12T15:39:53Z</time>
      </trkpt>
      <trkpt lat="41.21104" lon="9.37709">
        <ele>1.58</ele>
        <time>2017-10-12T15:40:10Z</time>
      </trkpt>
      <trkpt lat="41.2107" lon="9.37729">
        <ele>1.1</ele>
        <time>2017-10-12T15:40:23Z</time>
      </trkpt>
      <trkpt lat="41.21026" lon="9.37756">
        <ele>0.62</ele>
        <time>2017-10-12T15:40:40Z</time>
      </trkpt>
      <trkpt lat="41.20977" lon="9.37788">
        <ele>1.1</ele>
        <time>2017-10-12T15:40:59Z</time>
      </trkpt>
      <trkpt lat="41.20937" lon="9.37815">
        <ele>1.58</ele>
        <time>2017-10-12T15:41:15Z</time>
      </trkpt>
      <trkpt lat="41.20887" lon="9.37847">
        <ele>1.1</ele>
        <time>2017-10-12T15:41:35Z</time>
      </trkpt>
      <trkpt lat="41.20851" lon="9.37872">
        <ele>1.58</ele>
        <time>2017-10-12T15:41:51Z</time>
      </trkpt>
      <trkpt lat="41.20805" lon="9.37902">
        <ele>2.54</ele>
        <time>2017-10-12T15:42:11Z</time>
      </trkpt>
      <trkpt lat="41.2077" lon="9.37927">
        <ele>3.02</ele>
        <time>2017-10-12T15:42:28Z</time>
      </trkpt>
      <trkpt lat="41.20737" lon="9.37952">
        <ele>2.06</ele>
        <time>2017-10-12T15:42:44Z</time>
      </trkpt>
      <trkpt lat="41.20711" lon="9.37982">
        <ele>2.06</ele>
        <time>2017-10-12T15:42:59Z</time>
      </trkpt>
      <trkpt lat="41.20685" lon="9.38027">
        <ele>1.58</ele>
        <time>2017-10-12T15:43:19Z</time>
      </trkpt>
      <trkpt lat="41.20652" lon="9.38093">
        <ele>-0.34</ele>
        <time>2017-10-12T15:43:47Z</time>
      </trkpt>
      <trkpt lat="41.20625" lon="9.38151">
        <ele>-0.34</ele>
        <time>2017-10-12T15:44:11Z</time>
      </trkpt>
      <trkpt lat="41.20602" lon="9.38202">
        <ele>-0.34</ele>
        <time>2017-10-12T15:44:33Z</time>
      </trkpt>
      <trkpt lat="41.20585" lon="9.38256">
        <ele>-0.82</ele>
        <time>2017-10-12T15:44:57Z</time>
      </trkpt>
      <trkpt lat="41.20576" lon="9.38298">
        <ele>-0.82</ele>
        <time>2017-10-12T15:45:16Z</time>
      </trkpt>
      <trkpt lat="41.20569" lon="9.38342">
        <ele>-1.79</ele>
        <time>2017-10-12T15:45:35Z</time>
      </trkpt>
      <trkpt lat="41.20563" lon="9.38389">
        <ele>-1.79</ele>
        <time>2017-10-12T15:45:56Z</time>
      </trkpt>
      <trkpt lat="41.2056" lon="9.38428">
        <ele>-0.82</ele>
        <time>2017-10-12T15:46:15Z</time>
      </trkpt>
      <trkpt lat="41.20558" lon="9.38464">
        <ele>-0.82</ele>
        <time>2017-10-12T15:46:31Z</time>
      </trkpt>
      <trkpt lat="41.20555" lon="9.3851">
        <ele>-0.34</ele>
        <time>2017-10-12T15:46:51Z</time>
      </trkpt>
      <trkpt lat="41.20553" lon="9.3855">
        <ele>-0.82</ele>
        <time>2017-10-12T15:47:08Z</time>
      </trkpt>
      <trkpt lat="41.20552" lon="9.38592">
        <ele>-0.82</ele>
        <time>2017-10-12T15:47:25Z</time>
      </trkpt>
      <trkpt lat="41.20552" lon="9.38642">
        <ele>-0.82</ele>
        <time>2017-10-12T15:47:46Z</time>
      </trkpt>
      <trkpt lat="41.20556" lon="9.38693">
        <ele>-0.34</ele>
        <time>2017-10-12T15:48:08Z</time>
      </trkpt>
      <trkpt lat="41.20558" lon="9.38737">
        <ele>-0.82</ele>
        <time>2017-10-12T15:48:26Z</time>
      </trkpt>
      <trkpt lat="41.20563" lon="9.38777">
        <ele>-0.82</ele>
        <time>2017-10-12T15:48:44Z</time>
      </trkpt>
      <trkpt lat="41.20568" lon="9.38823">
        <ele>-0.82</ele>
        <time>2017-10-12T15:49:06Z</time>
      </trkpt>
      <trkpt lat="41.20571" lon="9.38872">
        <ele>-0.34</ele>
        <time>2017-10-12T15:49:29Z</time>
      </trkpt>
      <trkpt lat="41.20576" lon="9.38926">
        <ele>-0.82</ele>
        <time>2017-10-12T15:49:53Z</time>
      </trkpt>
      <trkpt lat="41.20581" lon="9.38975">
        <ele>-0.82</ele>
        <time>2017-10-12T15:50:13Z</time>
      </trkpt>
      <trkpt lat="41.20582" lon="9.39017">
        <ele>-0.34</ele>
        <time>2017-10-12T15:50:30Z</time>
      </trkpt>
      <trkpt lat="41.20581" lon="9.39082">
        <ele>0.14</ele>
        <time>2017-10-12T15:50:57Z</time>
      </trkpt>
      <trkpt lat="41.20581" lon="9.39136">
        <ele>1.1</ele>
        <time>2017-10-12T15:51:20Z</time>
      </trkpt>
      <trkpt lat="41.20578" lon="9.39201">
        <ele>1.58</ele>
        <time>2017-10-12T15:51:48Z</time>
      </trkpt>
      <trkpt lat="41.2058" lon="9.39268">
        <ele>1.58</ele>
        <time>2017-10-12T15:52:15Z</time>
      </trkpt>
      <trkpt lat="41.20583" lon="9.39339">
        <ele>1.1</ele>
        <time>2017-10-12T15:52:43Z</time>
      </trkpt>
      <trkpt lat="41.20591" lon="9.39401">
        <ele>0.62</ele>
        <time>2017-10-12T15:53:08Z</time>
      </trkpt>
      <trkpt lat="41.20601" lon="9.3947">
        <ele>0.62</ele>
        <time>2017-10-12T15:53:37Z</time>
      </trkpt>
      <trkpt lat="41.20613" lon="9.39542">
        <ele>1.58</ele>
        <time>2017-10-12T15:54:08Z</time>
      </trkpt>
      <trkpt lat="41.20631" lon="9.39618">
        <ele>1.58</ele>
        <time>2017-10-12T15:54:32Z</time>
      </trkpt>
      <trkpt lat="41.20641" lon="9.39709">
        <ele>1.58</ele>
        <time>2017-10-12T15:54:56Z</time>
      </trkpt>
      <trkpt lat="41.20671" lon="9.39823">
        <ele>1.58</ele>
        <time>2017-10-12T15:55:27Z</time>
      </trkpt>
      <trkpt lat="41.20697" lon="9.39909">
        <ele>1.58</ele>
        <time>2017-10-12T15:55:51Z</time>
      </trkpt>
      <trkpt lat="41.20723" lon="9.39995">
        <ele>1.58</ele>
        <time>2017-10-12T15:56:15Z</time>
      </trkpt>
      <trkpt lat="41.20751" lon="9.40086">
        <ele>1.1</ele>
        <time>2017-10-12T15:56:40Z</time>
      </trkpt>
      <trkpt lat="41.20787" lon="9.40191">
        <ele>2.06</ele>
        <time>2017-10-12T15:57:10Z</time>
      </trkpt>
      <trkpt lat="41.2082" lon="9.40282">
        <ele>1.1</ele>
        <time>2017-10-12T15:57:36Z</time>
      </trkpt>
      <trkpt lat="41.20853" lon="9.40367">
        <ele>1.58</ele>
        <time>2017-10-12T15:58:01Z</time>
      </trkpt>
      <trkpt lat="41.20885" lon="9.40414">
        <ele>2.06</ele>
        <time>2017-10-12T15:58:23Z</time>
      </trkpt>
      <trkpt lat="41.20912" lon="9.40448">
        <ele>1.58</ele>
        <time>2017-10-12T15:58:43Z</time>
      </trkpt>
      <trkpt lat="41.20947" lon="9.40488">
        <ele>1.58</ele>
        <time>2017-10-12T15:59:12Z</time>
      </trkpt>
      <trkpt lat="41.20982" lon="9.40515">
        <ele>1.1</ele>
        <time>2017-10-12T15:59:37Z</time>
      </trkpt>
      <trkpt lat="41.21022" lon="9.40528">
        <ele>2.06</ele>
        <time>2017-10-12T16:00:04Z</time>
      </trkpt>
      <trkpt lat="41.21058" lon="9.40522">
        <ele>2.54</ele>
        <time>2017-10-12T16:00:34Z</time>
      </trkpt>
      <trkpt lat="41.21089" lon="9.40505">
        <ele>1.58</ele>
        <time>2017-10-12T16:01:03Z</time>
      </trkpt>
      <trkpt lat="41.21133" lon="9.40481">
        <ele>1.1</ele>
        <time>2017-10-12T16:01:31Z</time>
      </trkpt>
      <trkpt lat="41.21173" lon="9.40467">
        <ele>3.02</ele>
        <time>2017-10-12T16:01:57Z</time>
      </trkpt>
      <trkpt lat="41.212" lon="9.40442">
        <ele>3.02</ele>
        <time>2017-10-12T16:02:21Z</time>
      </trkpt>
      <trkpt lat="41.21207" lon="9.40422">
        <ele>3.02</ele>
        <time>2017-10-12T16:02:42Z</time>
      </trkpt>
      <trkpt lat="41.21208" lon="9.40427">
        <ele>3.5</ele>
        <time>2017-10-12T16:02:52Z</time>
      </trkpt>
      <trkpt lat="41.21204" lon="9.40462">
        <ele>3.5</ele>
        <time>2017-10-12T16:03:16Z</time>
      </trkpt>
      <trkpt lat="41.21204" lon="9.40478">
        <ele>4.94</ele>
        <time>2017-10-12T16:03:37Z</time>
      </trkpt>
      <trkpt lat="41.21203" lon="9.40479">
        <ele>4.46</ele>
        <time>2017-10-12T16:04:03Z</time>
      </trkpt>
      <trkpt lat="41.21204" lon="9.4048">
        <ele>4.46</ele>
        <time>2017-10-12T16:04:26Z</time>
      </trkpt>
      <trkpt lat="41.21203" lon="9.4048">
        <ele>4.46</ele>
        <time>2017-10-12T16:04:48Z</time>
      </trkpt>
      <trkpt lat="41.21201" lon="9.40482">
        <ele>4.46</ele>
        <time>2017-10-12T16:05:19Z</time>
      </trkpt>
      <trkpt lat="41.212" lon="9.40484">
        <ele>3.98</ele>
        <time>2017-10-12T16:05:44Z</time>
      </trkpt>
      <trkpt lat="41.21199" lon="9.40486">
        <ele>3.98</ele>
        <time>2017-10-12T16:06:15Z</time>
      </trkpt>
      <trkpt lat="41.21199" lon="9.40486">
        <ele>4.46</ele>
        <time>2017-10-12T16:06:40Z</time>
      </trkpt>
      <trkpt lat="41.21199" lon="9.40487">
        <ele>4.94</ele>
        <time>2017-10-12T16:07:14Z</time>
      </trkpt>
      <trkpt lat="41.212" lon="9.40487">
        <ele>4.94</ele>
        <time>2017-10-12T16:07:26Z</time>
      </trkpt>
    </trkseg>
  </trk>
</gpx>